<?xml version="1.0" encoding="UTF-8" standalone="no" ?>
<gpx xmlns="http://www.topografix.com/GPX/1/1" xmlns:xsi="http://www.w3.org/2001/XMLSchema-instance" xsi:schemaLocation="http://www.topografix.com/GPX/1/1 http://www.topografix.com/GPX/1/1/gpx.xsd" version="1.1" creator="VisuGPX - https://www.visugpx.com">
  <metadata>
    <name>83-M-Cogolin</name>
    <desc><![CDATA[83-M-Cogolin : les crêtes]]></desc>
  </metadata>
  <trk>
    <name><![CDATA[2016-05-18-M-Cogolin]]></name>
    <trkseg>
      <trkpt lat="43.23705" lon="6.54314">
        <ele>2</ele>
        <time>2016-05-18T07:51:18Z</time>
      </trkpt>
      <trkpt lat="43.23714" lon="6.54303">
        <ele>4.8</ele>
        <time>2016-05-18T07:51:23Z</time>
      </trkpt>
      <trkpt lat="43.2372" lon="6.54292">
        <ele>7.4</ele>
        <time>2016-05-18T07:51:29Z</time>
      </trkpt>
      <trkpt lat="43.23726" lon="6.54277">
        <ele>10</ele>
        <time>2016-05-18T07:51:40Z</time>
      </trkpt>
      <trkpt lat="43.23735" lon="6.54269">
        <ele>10.7</ele>
        <time>2016-05-18T07:51:45Z</time>
      </trkpt>
      <trkpt lat="43.23738" lon="6.54256">
        <ele>12.5</ele>
        <time>2016-05-18T07:52:32Z</time>
      </trkpt>
      <trkpt lat="43.23731" lon="6.54246">
        <ele>12.6</ele>
        <time>2016-05-18T07:52:48Z</time>
      </trkpt>
      <trkpt lat="43.23722" lon="6.54207">
        <ele>12.6</ele>
        <time>2016-05-18T07:53:03Z</time>
      </trkpt>
      <trkpt lat="43.23712" lon="6.54207">
        <ele>12.5</ele>
        <time>2016-05-18T07:54:18Z</time>
      </trkpt>
      <trkpt lat="43.23704" lon="6.54214">
        <ele>12.5</ele>
        <time>2016-05-18T07:54:30Z</time>
      </trkpt>
      <trkpt lat="43.23696" lon="6.54221">
        <ele>12.6</ele>
        <time>2016-05-18T07:54:39Z</time>
      </trkpt>
      <trkpt lat="43.23688" lon="6.54229">
        <ele>13</ele>
        <time>2016-05-18T07:54:48Z</time>
      </trkpt>
      <trkpt lat="43.23681" lon="6.54237">
        <ele>13.4</ele>
        <time>2016-05-18T07:54:58Z</time>
      </trkpt>
      <trkpt lat="43.23673" lon="6.54243">
        <ele>13.7</ele>
        <time>2016-05-18T07:55:08Z</time>
      </trkpt>
      <trkpt lat="43.23666" lon="6.54251">
        <ele>14.2</ele>
        <time>2016-05-18T07:55:17Z</time>
      </trkpt>
      <trkpt lat="43.2366" lon="6.54259">
        <ele>14.6</ele>
        <time>2016-05-18T07:55:26Z</time>
      </trkpt>
      <trkpt lat="43.23652" lon="6.54267">
        <ele>15</ele>
        <time>2016-05-18T07:55:35Z</time>
      </trkpt>
      <trkpt lat="43.23643" lon="6.54273">
        <ele>15.4</ele>
        <time>2016-05-18T07:55:43Z</time>
      </trkpt>
      <trkpt lat="43.23638" lon="6.54283">
        <ele>15.8</ele>
        <time>2016-05-18T07:55:52Z</time>
      </trkpt>
      <trkpt lat="43.23631" lon="6.54293">
        <ele>16.2</ele>
        <time>2016-05-18T07:55:59Z</time>
      </trkpt>
      <trkpt lat="43.23624" lon="6.54301">
        <ele>16.7</ele>
        <time>2016-05-18T07:56:08Z</time>
      </trkpt>
      <trkpt lat="43.23618" lon="6.54311">
        <ele>17.4</ele>
        <time>2016-05-18T07:56:19Z</time>
      </trkpt>
      <trkpt lat="43.23613" lon="6.54322">
        <ele>17.9</ele>
        <time>2016-05-18T07:56:26Z</time>
      </trkpt>
      <trkpt lat="43.23606" lon="6.5433">
        <ele>18.4</ele>
        <time>2016-05-18T07:56:34Z</time>
      </trkpt>
      <trkpt lat="43.236" lon="6.54341">
        <ele>19</ele>
        <time>2016-05-18T07:56:42Z</time>
      </trkpt>
      <trkpt lat="43.23593" lon="6.54351">
        <ele>19.8</ele>
        <time>2016-05-18T07:56:50Z</time>
      </trkpt>
      <trkpt lat="43.23587" lon="6.5436">
        <ele>21.6</ele>
        <time>2016-05-18T07:57:12Z</time>
      </trkpt>
      <trkpt lat="43.23581" lon="6.5437">
        <ele>22.1</ele>
        <time>2016-05-18T07:57:20Z</time>
      </trkpt>
      <trkpt lat="43.23574" lon="6.5438">
        <ele>22.9</ele>
        <time>2016-05-18T07:57:29Z</time>
      </trkpt>
      <trkpt lat="43.23567" lon="6.54388">
        <ele>23.5</ele>
        <time>2016-05-18T07:57:35Z</time>
      </trkpt>
      <trkpt lat="43.23562" lon="6.54399">
        <ele>24.5</ele>
        <time>2016-05-18T07:57:51Z</time>
      </trkpt>
      <trkpt lat="43.23555" lon="6.54408">
        <ele>25</ele>
        <time>2016-05-18T07:58:00Z</time>
      </trkpt>
      <trkpt lat="43.23548" lon="6.54416">
        <ele>25.4</ele>
        <time>2016-05-18T07:58:09Z</time>
      </trkpt>
      <trkpt lat="43.23542" lon="6.54426">
        <ele>25.9</ele>
        <time>2016-05-18T07:58:19Z</time>
      </trkpt>
      <trkpt lat="43.23535" lon="6.54435">
        <ele>26.2</ele>
        <time>2016-05-18T07:58:27Z</time>
      </trkpt>
      <trkpt lat="43.23528" lon="6.54445">
        <ele>27</ele>
        <time>2016-05-18T07:58:38Z</time>
      </trkpt>
      <trkpt lat="43.2352" lon="6.54451">
        <ele>27.8</ele>
        <time>2016-05-18T07:58:48Z</time>
      </trkpt>
      <trkpt lat="43.23511" lon="6.54456">
        <ele>28.4</ele>
        <time>2016-05-18T07:58:57Z</time>
      </trkpt>
      <trkpt lat="43.23501" lon="6.54459">
        <ele>29.3</ele>
        <time>2016-05-18T07:59:08Z</time>
      </trkpt>
      <trkpt lat="43.23492" lon="6.54464">
        <ele>30.3</ele>
        <time>2016-05-18T07:59:19Z</time>
      </trkpt>
      <trkpt lat="43.23482" lon="6.54465">
        <ele>30.9</ele>
        <time>2016-05-18T07:59:27Z</time>
      </trkpt>
      <trkpt lat="43.23473" lon="6.54467">
        <ele>31.6</ele>
        <time>2016-05-18T07:59:36Z</time>
      </trkpt>
      <trkpt lat="43.23464" lon="6.54468">
        <ele>31.9</ele>
        <time>2016-05-18T07:59:43Z</time>
      </trkpt>
      <trkpt lat="43.23455" lon="6.54472">
        <ele>32.1</ele>
        <time>2016-05-18T07:59:51Z</time>
      </trkpt>
      <trkpt lat="43.23446" lon="6.54474">
        <ele>32.3</ele>
        <time>2016-05-18T07:59:59Z</time>
      </trkpt>
      <trkpt lat="43.23437" lon="6.54474">
        <ele>32.3</ele>
        <time>2016-05-18T08:00:09Z</time>
      </trkpt>
      <trkpt lat="43.23428" lon="6.54479">
        <ele>32.3</ele>
        <time>2016-05-18T08:00:16Z</time>
      </trkpt>
      <trkpt lat="43.2342" lon="6.54483">
        <ele>32</ele>
        <time>2016-05-18T08:00:25Z</time>
      </trkpt>
      <trkpt lat="43.23411" lon="6.54488">
        <ele>31.8</ele>
        <time>2016-05-18T08:00:33Z</time>
      </trkpt>
      <trkpt lat="43.23401" lon="6.54494">
        <ele>31.7</ele>
        <time>2016-05-18T08:00:41Z</time>
      </trkpt>
      <trkpt lat="43.23391" lon="6.54494">
        <ele>31.6</ele>
        <time>2016-05-18T08:00:48Z</time>
      </trkpt>
      <trkpt lat="43.23383" lon="6.545">
        <ele>31.5</ele>
        <time>2016-05-18T08:00:56Z</time>
      </trkpt>
      <trkpt lat="43.23373" lon="6.54502">
        <ele>31.3</ele>
        <time>2016-05-18T08:01:04Z</time>
      </trkpt>
      <trkpt lat="43.23364" lon="6.54507">
        <ele>31.1</ele>
        <time>2016-05-18T08:01:15Z</time>
      </trkpt>
      <trkpt lat="43.23355" lon="6.54511">
        <ele>31</ele>
        <time>2016-05-18T08:01:23Z</time>
      </trkpt>
      <trkpt lat="43.23345" lon="6.54514">
        <ele>30.9</ele>
        <time>2016-05-18T08:01:32Z</time>
      </trkpt>
      <trkpt lat="43.23337" lon="6.5452">
        <ele>30.8</ele>
        <time>2016-05-18T08:01:40Z</time>
      </trkpt>
      <trkpt lat="43.23329" lon="6.54527">
        <ele>30.8</ele>
        <time>2016-05-18T08:01:46Z</time>
      </trkpt>
      <trkpt lat="43.23321" lon="6.54535">
        <ele>31</ele>
        <time>2016-05-18T08:01:55Z</time>
      </trkpt>
      <trkpt lat="43.23314" lon="6.54543">
        <ele>31.3</ele>
        <time>2016-05-18T08:02:05Z</time>
      </trkpt>
      <trkpt lat="43.2331" lon="6.54555">
        <ele>31.4</ele>
        <time>2016-05-18T08:02:13Z</time>
      </trkpt>
      <trkpt lat="43.23303" lon="6.54564">
        <ele>31.7</ele>
        <time>2016-05-18T08:02:21Z</time>
      </trkpt>
      <trkpt lat="43.23296" lon="6.54575">
        <ele>32.1</ele>
        <time>2016-05-18T08:02:31Z</time>
      </trkpt>
      <trkpt lat="43.2329" lon="6.54584">
        <ele>32.8</ele>
        <time>2016-05-18T08:02:40Z</time>
      </trkpt>
      <trkpt lat="43.23282" lon="6.54592">
        <ele>33.3</ele>
        <time>2016-05-18T08:02:48Z</time>
      </trkpt>
      <trkpt lat="43.23276" lon="6.54602">
        <ele>33.9</ele>
        <time>2016-05-18T08:02:56Z</time>
      </trkpt>
      <trkpt lat="43.2327" lon="6.54612">
        <ele>34.4</ele>
        <time>2016-05-18T08:03:05Z</time>
      </trkpt>
      <trkpt lat="43.23264" lon="6.54623">
        <ele>35</ele>
        <time>2016-05-18T08:03:14Z</time>
      </trkpt>
      <trkpt lat="43.23254" lon="6.54626">
        <ele>35.7</ele>
        <time>2016-05-18T08:03:24Z</time>
      </trkpt>
      <trkpt lat="43.23245" lon="6.54628">
        <ele>36.3</ele>
        <time>2016-05-18T08:03:32Z</time>
      </trkpt>
      <trkpt lat="43.23236" lon="6.54627">
        <ele>37.2</ele>
        <time>2016-05-18T08:03:42Z</time>
      </trkpt>
      <trkpt lat="43.23227" lon="6.54627">
        <ele>38.2</ele>
        <time>2016-05-18T08:03:51Z</time>
      </trkpt>
      <trkpt lat="43.23217" lon="6.54628">
        <ele>39.1</ele>
        <time>2016-05-18T08:04:01Z</time>
      </trkpt>
      <trkpt lat="43.23208" lon="6.54625">
        <ele>40.3</ele>
        <time>2016-05-18T08:04:12Z</time>
      </trkpt>
      <trkpt lat="43.23198" lon="6.54624">
        <ele>41.4</ele>
        <time>2016-05-18T08:04:21Z</time>
      </trkpt>
      <trkpt lat="43.23191" lon="6.54633">
        <ele>42.6</ele>
        <time>2016-05-18T08:04:34Z</time>
      </trkpt>
      <trkpt lat="43.23184" lon="6.54643">
        <ele>43.6</ele>
        <time>2016-05-18T08:04:45Z</time>
      </trkpt>
      <trkpt lat="43.23176" lon="6.5465">
        <ele>44.8</ele>
        <time>2016-05-18T08:04:56Z</time>
      </trkpt>
      <trkpt lat="43.23168" lon="6.54656">
        <ele>45.9</ele>
        <time>2016-05-18T08:05:06Z</time>
      </trkpt>
      <trkpt lat="43.23161" lon="6.54666">
        <ele>46.8</ele>
        <time>2016-05-18T08:05:14Z</time>
      </trkpt>
      <trkpt lat="43.23155" lon="6.54675">
        <ele>47.8</ele>
        <time>2016-05-18T08:05:23Z</time>
      </trkpt>
      <trkpt lat="43.23148" lon="6.54685">
        <ele>48.9</ele>
        <time>2016-05-18T08:05:32Z</time>
      </trkpt>
      <trkpt lat="43.23142" lon="6.54695">
        <ele>50.2</ele>
        <time>2016-05-18T08:05:41Z</time>
      </trkpt>
      <trkpt lat="43.23137" lon="6.54705">
        <ele>51.5</ele>
        <time>2016-05-18T08:05:51Z</time>
      </trkpt>
      <trkpt lat="43.23133" lon="6.54718">
        <ele>53</ele>
        <time>2016-05-18T08:06:02Z</time>
      </trkpt>
      <trkpt lat="43.23133" lon="6.54731">
        <ele>54.3</ele>
        <time>2016-05-18T08:06:12Z</time>
      </trkpt>
      <trkpt lat="43.23142" lon="6.54737">
        <ele>55.6</ele>
        <time>2016-05-18T08:06:23Z</time>
      </trkpt>
      <trkpt lat="43.23152" lon="6.54737">
        <ele>56.2</ele>
        <time>2016-05-18T08:06:30Z</time>
      </trkpt>
      <trkpt lat="43.23161" lon="6.54735">
        <ele>56.8</ele>
        <time>2016-05-18T08:06:37Z</time>
      </trkpt>
      <trkpt lat="43.2317" lon="6.54733">
        <ele>57.6</ele>
        <time>2016-05-18T08:06:46Z</time>
      </trkpt>
      <trkpt lat="43.23178" lon="6.5474">
        <ele>58.4</ele>
        <time>2016-05-18T08:06:57Z</time>
      </trkpt>
      <trkpt lat="43.23186" lon="6.54747">
        <ele>58.9</ele>
        <time>2016-05-18T08:07:06Z</time>
      </trkpt>
      <trkpt lat="43.2319" lon="6.54759">
        <ele>59.5</ele>
        <time>2016-05-18T08:07:16Z</time>
      </trkpt>
      <trkpt lat="43.23195" lon="6.54771">
        <ele>60.2</ele>
        <time>2016-05-18T08:07:25Z</time>
      </trkpt>
      <trkpt lat="43.23198" lon="6.54784">
        <ele>61.1</ele>
        <time>2016-05-18T08:07:35Z</time>
      </trkpt>
      <trkpt lat="43.23199" lon="6.54797">
        <ele>61.9</ele>
        <time>2016-05-18T08:07:43Z</time>
      </trkpt>
      <trkpt lat="43.23195" lon="6.54809">
        <ele>62.6</ele>
        <time>2016-05-18T08:07:51Z</time>
      </trkpt>
      <trkpt lat="43.23189" lon="6.54819">
        <ele>63.1</ele>
        <time>2016-05-18T08:08:00Z</time>
      </trkpt>
      <trkpt lat="43.2318" lon="6.54823">
        <ele>63.7</ele>
        <time>2016-05-18T08:08:13Z</time>
      </trkpt>
      <trkpt lat="43.23172" lon="6.54826">
        <ele>64</ele>
        <time>2016-05-18T08:08:20Z</time>
      </trkpt>
      <trkpt lat="43.23162" lon="6.54829">
        <ele>64.3</ele>
        <time>2016-05-18T08:08:29Z</time>
      </trkpt>
      <trkpt lat="43.23152" lon="6.54832">
        <ele>64.8</ele>
        <time>2016-05-18T08:08:39Z</time>
      </trkpt>
      <trkpt lat="43.23141" lon="6.54835">
        <ele>65.3</ele>
        <time>2016-05-18T08:08:47Z</time>
      </trkpt>
      <trkpt lat="43.23132" lon="6.54837">
        <ele>65.7</ele>
        <time>2016-05-18T08:08:53Z</time>
      </trkpt>
      <trkpt lat="43.23123" lon="6.54839">
        <ele>66.3</ele>
        <time>2016-05-18T08:09:03Z</time>
      </trkpt>
      <trkpt lat="43.23114" lon="6.54842">
        <ele>66.5</ele>
        <time>2016-05-18T08:09:11Z</time>
      </trkpt>
      <trkpt lat="43.23106" lon="6.54848">
        <ele>66.7</ele>
        <time>2016-05-18T08:09:18Z</time>
      </trkpt>
      <trkpt lat="43.23099" lon="6.54858">
        <ele>66.8</ele>
        <time>2016-05-18T08:09:27Z</time>
      </trkpt>
      <trkpt lat="43.23093" lon="6.54868">
        <ele>67</ele>
        <time>2016-05-18T08:09:34Z</time>
      </trkpt>
      <trkpt lat="43.23087" lon="6.54878">
        <ele>67.1</ele>
        <time>2016-05-18T08:09:42Z</time>
      </trkpt>
      <trkpt lat="43.23082" lon="6.5489">
        <ele>67.2</ele>
        <time>2016-05-18T08:09:50Z</time>
      </trkpt>
      <trkpt lat="43.23076" lon="6.549">
        <ele>67.2</ele>
        <time>2016-05-18T08:09:57Z</time>
      </trkpt>
      <trkpt lat="43.23068" lon="6.5491">
        <ele>67.3</ele>
        <time>2016-05-18T08:10:04Z</time>
      </trkpt>
      <trkpt lat="43.23061" lon="6.54918">
        <ele>67.4</ele>
        <time>2016-05-18T08:10:11Z</time>
      </trkpt>
      <trkpt lat="43.23053" lon="6.54926">
        <ele>67.6</ele>
        <time>2016-05-18T08:10:19Z</time>
      </trkpt>
      <trkpt lat="43.23047" lon="6.54935">
        <ele>67.9</ele>
        <time>2016-05-18T08:10:26Z</time>
      </trkpt>
      <trkpt lat="43.23037" lon="6.54939">
        <ele>68.2</ele>
        <time>2016-05-18T08:10:34Z</time>
      </trkpt>
      <trkpt lat="43.23029" lon="6.54944">
        <ele>68.3</ele>
        <time>2016-05-18T08:10:42Z</time>
      </trkpt>
      <trkpt lat="43.2302" lon="6.54952">
        <ele>68.4</ele>
        <time>2016-05-18T08:10:50Z</time>
      </trkpt>
      <trkpt lat="43.23012" lon="6.54956">
        <ele>68.4</ele>
        <time>2016-05-18T08:10:56Z</time>
      </trkpt>
      <trkpt lat="43.23003" lon="6.54962">
        <ele>68.2</ele>
        <time>2016-05-18T08:11:04Z</time>
      </trkpt>
      <trkpt lat="43.22995" lon="6.54969">
        <ele>67.9</ele>
        <time>2016-05-18T08:11:11Z</time>
      </trkpt>
      <trkpt lat="43.22987" lon="6.54976">
        <ele>67.6</ele>
        <time>2016-05-18T08:11:18Z</time>
      </trkpt>
      <trkpt lat="43.22978" lon="6.5498">
        <ele>67.5</ele>
        <time>2016-05-18T08:11:25Z</time>
      </trkpt>
      <trkpt lat="43.2297" lon="6.54987">
        <ele>67.3</ele>
        <time>2016-05-18T08:11:33Z</time>
      </trkpt>
      <trkpt lat="43.2296" lon="6.5499">
        <ele>67.3</ele>
        <time>2016-05-18T08:11:41Z</time>
      </trkpt>
      <trkpt lat="43.22949" lon="6.54992">
        <ele>67.2</ele>
        <time>2016-05-18T08:11:48Z</time>
      </trkpt>
      <trkpt lat="43.22939" lon="6.54995">
        <ele>67.2</ele>
        <time>2016-05-18T08:11:56Z</time>
      </trkpt>
      <trkpt lat="43.22931" lon="6.54998">
        <ele>67.2</ele>
        <time>2016-05-18T08:12:02Z</time>
      </trkpt>
      <trkpt lat="43.22921" lon="6.55001">
        <ele>67.2</ele>
        <time>2016-05-18T08:12:11Z</time>
      </trkpt>
      <trkpt lat="43.22913" lon="6.55008">
        <ele>67.7</ele>
        <time>2016-05-18T08:15:10Z</time>
      </trkpt>
      <trkpt lat="43.22905" lon="6.55017">
        <ele>67.9</ele>
        <time>2016-05-18T08:15:16Z</time>
      </trkpt>
      <trkpt lat="43.22896" lon="6.55022">
        <ele>68.5</ele>
        <time>2016-05-18T08:15:25Z</time>
      </trkpt>
      <trkpt lat="43.22887" lon="6.55024">
        <ele>69.3</ele>
        <time>2016-05-18T08:15:34Z</time>
      </trkpt>
      <trkpt lat="43.22878" lon="6.55026">
        <ele>70</ele>
        <time>2016-05-18T08:15:40Z</time>
      </trkpt>
      <trkpt lat="43.22869" lon="6.55027">
        <ele>70.9</ele>
        <time>2016-05-18T08:15:49Z</time>
      </trkpt>
      <trkpt lat="43.22859" lon="6.55029">
        <ele>71.8</ele>
        <time>2016-05-18T08:15:58Z</time>
      </trkpt>
      <trkpt lat="43.2285" lon="6.55034">
        <ele>72.6</ele>
        <time>2016-05-18T08:16:05Z</time>
      </trkpt>
      <trkpt lat="43.2284" lon="6.55033">
        <ele>73.4</ele>
        <time>2016-05-18T08:16:14Z</time>
      </trkpt>
      <trkpt lat="43.22831" lon="6.55027">
        <ele>73.9</ele>
        <time>2016-05-18T08:16:23Z</time>
      </trkpt>
      <trkpt lat="43.22822" lon="6.55022">
        <ele>74.3</ele>
        <time>2016-05-18T08:16:31Z</time>
      </trkpt>
      <trkpt lat="43.22814" lon="6.55016">
        <ele>74.5</ele>
        <time>2016-05-18T08:16:39Z</time>
      </trkpt>
      <trkpt lat="43.22806" lon="6.5501">
        <ele>74.7</ele>
        <time>2016-05-18T08:16:48Z</time>
      </trkpt>
      <trkpt lat="43.22798" lon="6.55002">
        <ele>74.8</ele>
        <time>2016-05-18T08:16:56Z</time>
      </trkpt>
      <trkpt lat="43.22789" lon="6.54997">
        <ele>75</ele>
        <time>2016-05-18T08:17:04Z</time>
      </trkpt>
      <trkpt lat="43.22781" lon="6.5499">
        <ele>75.1</ele>
        <time>2016-05-18T08:17:11Z</time>
      </trkpt>
      <trkpt lat="43.22772" lon="6.54986">
        <ele>75.3</ele>
        <time>2016-05-18T08:17:18Z</time>
      </trkpt>
      <trkpt lat="43.22763" lon="6.54981">
        <ele>75.7</ele>
        <time>2016-05-18T08:17:26Z</time>
      </trkpt>
      <trkpt lat="43.22754" lon="6.54978">
        <ele>76.1</ele>
        <time>2016-05-18T08:17:33Z</time>
      </trkpt>
      <trkpt lat="43.22746" lon="6.54973">
        <ele>76.5</ele>
        <time>2016-05-18T08:17:40Z</time>
      </trkpt>
      <trkpt lat="43.22737" lon="6.54971">
        <ele>76.9</ele>
        <time>2016-05-18T08:17:47Z</time>
      </trkpt>
      <trkpt lat="43.22728" lon="6.54971">
        <ele>77.2</ele>
        <time>2016-05-18T08:17:53Z</time>
      </trkpt>
      <trkpt lat="43.22718" lon="6.54973">
        <ele>77.4</ele>
        <time>2016-05-18T08:18:01Z</time>
      </trkpt>
      <trkpt lat="43.22709" lon="6.54972">
        <ele>77.5</ele>
        <time>2016-05-18T08:18:07Z</time>
      </trkpt>
      <trkpt lat="43.227" lon="6.54973">
        <ele>77.7</ele>
        <time>2016-05-18T08:18:15Z</time>
      </trkpt>
      <trkpt lat="43.2269" lon="6.54974">
        <ele>78</ele>
        <time>2016-05-18T08:18:24Z</time>
      </trkpt>
      <trkpt lat="43.2268" lon="6.54974">
        <ele>78.3</ele>
        <time>2016-05-18T08:18:32Z</time>
      </trkpt>
      <trkpt lat="43.22671" lon="6.54974">
        <ele>78.6</ele>
        <time>2016-05-18T08:18:40Z</time>
      </trkpt>
      <trkpt lat="43.22662" lon="6.54969">
        <ele>79</ele>
        <time>2016-05-18T08:18:49Z</time>
      </trkpt>
      <trkpt lat="43.22655" lon="6.54958">
        <ele>79.9</ele>
        <time>2016-05-18T08:20:15Z</time>
      </trkpt>
      <trkpt lat="43.22648" lon="6.5495">
        <ele>79.9</ele>
        <time>2016-05-18T08:20:23Z</time>
      </trkpt>
      <trkpt lat="43.22642" lon="6.54941">
        <ele>79.9</ele>
        <time>2016-05-18T08:20:31Z</time>
      </trkpt>
      <trkpt lat="43.22635" lon="6.54933">
        <ele>79.9</ele>
        <time>2016-05-18T08:20:39Z</time>
      </trkpt>
      <trkpt lat="43.22628" lon="6.54923">
        <ele>80</ele>
        <time>2016-05-18T08:20:47Z</time>
      </trkpt>
      <trkpt lat="43.22621" lon="6.54914">
        <ele>80.1</ele>
        <time>2016-05-18T08:20:55Z</time>
      </trkpt>
      <trkpt lat="43.22614" lon="6.54906">
        <ele>80.3</ele>
        <time>2016-05-18T08:21:04Z</time>
      </trkpt>
      <trkpt lat="43.22606" lon="6.54898">
        <ele>80.6</ele>
        <time>2016-05-18T08:21:13Z</time>
      </trkpt>
      <trkpt lat="43.22598" lon="6.5489">
        <ele>81</ele>
        <time>2016-05-18T08:21:21Z</time>
      </trkpt>
      <trkpt lat="43.22592" lon="6.5488">
        <ele>81.7</ele>
        <time>2016-05-18T08:21:33Z</time>
      </trkpt>
      <trkpt lat="43.22584" lon="6.54873">
        <ele>82.5</ele>
        <time>2016-05-18T08:21:46Z</time>
      </trkpt>
      <trkpt lat="43.22579" lon="6.54862">
        <ele>83</ele>
        <time>2016-05-18T08:21:56Z</time>
      </trkpt>
      <trkpt lat="43.22575" lon="6.5485">
        <ele>83.6</ele>
        <time>2016-05-18T08:22:06Z</time>
      </trkpt>
      <trkpt lat="43.2257" lon="6.54839">
        <ele>84.2</ele>
        <time>2016-05-18T08:22:17Z</time>
      </trkpt>
      <trkpt lat="43.22567" lon="6.54826">
        <ele>84.6</ele>
        <time>2016-05-18T08:22:25Z</time>
      </trkpt>
      <trkpt lat="43.2256" lon="6.54816">
        <ele>85.3</ele>
        <time>2016-05-18T08:22:33Z</time>
      </trkpt>
      <trkpt lat="43.22553" lon="6.54806">
        <ele>85.8</ele>
        <time>2016-05-18T08:22:40Z</time>
      </trkpt>
      <trkpt lat="43.22546" lon="6.54798">
        <ele>86.6</ele>
        <time>2016-05-18T08:22:48Z</time>
      </trkpt>
      <trkpt lat="43.22539" lon="6.54789">
        <ele>87.6</ele>
        <time>2016-05-18T08:22:57Z</time>
      </trkpt>
      <trkpt lat="43.22533" lon="6.54779">
        <ele>88.4</ele>
        <time>2016-05-18T08:23:05Z</time>
      </trkpt>
      <trkpt lat="43.22527" lon="6.5477">
        <ele>89.1</ele>
        <time>2016-05-18T08:23:13Z</time>
      </trkpt>
      <trkpt lat="43.22522" lon="6.54759">
        <ele>89.7</ele>
        <time>2016-05-18T08:23:21Z</time>
      </trkpt>
      <trkpt lat="43.22518" lon="6.54746">
        <ele>90.2</ele>
        <time>2016-05-18T08:23:29Z</time>
      </trkpt>
      <trkpt lat="43.22517" lon="6.54732">
        <ele>90.7</ele>
        <time>2016-05-18T08:23:38Z</time>
      </trkpt>
      <trkpt lat="43.22516" lon="6.54719">
        <ele>91.3</ele>
        <time>2016-05-18T08:23:47Z</time>
      </trkpt>
      <trkpt lat="43.22515" lon="6.54705">
        <ele>92</ele>
        <time>2016-05-18T08:23:56Z</time>
      </trkpt>
      <trkpt lat="43.22517" lon="6.54692">
        <ele>92.9</ele>
        <time>2016-05-18T08:24:08Z</time>
      </trkpt>
      <trkpt lat="43.2252" lon="6.54679">
        <ele>93.6</ele>
        <time>2016-05-18T08:24:18Z</time>
      </trkpt>
      <trkpt lat="43.22523" lon="6.54666">
        <ele>94.2</ele>
        <time>2016-05-18T08:24:26Z</time>
      </trkpt>
      <trkpt lat="43.22524" lon="6.54654">
        <ele>94.9</ele>
        <time>2016-05-18T08:24:35Z</time>
      </trkpt>
      <trkpt lat="43.22522" lon="6.5464">
        <ele>95.6</ele>
        <time>2016-05-18T08:24:47Z</time>
      </trkpt>
      <trkpt lat="43.22515" lon="6.54632">
        <ele>96.2</ele>
        <time>2016-05-18T08:24:55Z</time>
      </trkpt>
      <trkpt lat="43.22508" lon="6.54623">
        <ele>96.8</ele>
        <time>2016-05-18T08:25:03Z</time>
      </trkpt>
      <trkpt lat="43.22502" lon="6.54613">
        <ele>97.4</ele>
        <time>2016-05-18T08:25:10Z</time>
      </trkpt>
      <trkpt lat="43.22495" lon="6.54604">
        <ele>98.5</ele>
        <time>2016-05-18T08:25:20Z</time>
      </trkpt>
      <trkpt lat="43.2249" lon="6.54592">
        <ele>99.3</ele>
        <time>2016-05-18T08:25:29Z</time>
      </trkpt>
      <trkpt lat="43.22486" lon="6.54581">
        <ele>100</ele>
        <time>2016-05-18T08:25:37Z</time>
      </trkpt>
      <trkpt lat="43.22485" lon="6.54567">
        <ele>100.9</ele>
        <time>2016-05-18T08:25:46Z</time>
      </trkpt>
      <trkpt lat="43.22484" lon="6.54554">
        <ele>101.7</ele>
        <time>2016-05-18T08:25:55Z</time>
      </trkpt>
      <trkpt lat="43.22483" lon="6.5454">
        <ele>102.5</ele>
        <time>2016-05-18T08:26:04Z</time>
      </trkpt>
      <trkpt lat="43.22481" lon="6.54528">
        <ele>103</ele>
        <time>2016-05-18T08:26:12Z</time>
      </trkpt>
      <trkpt lat="43.22476" lon="6.54517">
        <ele>103.6</ele>
        <time>2016-05-18T08:26:21Z</time>
      </trkpt>
      <trkpt lat="43.22471" lon="6.54507">
        <ele>104.3</ele>
        <time>2016-05-18T08:26:29Z</time>
      </trkpt>
      <trkpt lat="43.22465" lon="6.54497">
        <ele>105.3</ele>
        <time>2016-05-18T08:26:40Z</time>
      </trkpt>
      <trkpt lat="43.2246" lon="6.54486">
        <ele>106.3</ele>
        <time>2016-05-18T08:26:49Z</time>
      </trkpt>
      <trkpt lat="43.22455" lon="6.54475">
        <ele>107.2</ele>
        <time>2016-05-18T08:26:58Z</time>
      </trkpt>
      <trkpt lat="43.22449" lon="6.54465">
        <ele>108</ele>
        <time>2016-05-18T08:27:07Z</time>
      </trkpt>
      <trkpt lat="43.22443" lon="6.54454">
        <ele>108.9</ele>
        <time>2016-05-18T08:27:16Z</time>
      </trkpt>
      <trkpt lat="43.22439" lon="6.54442">
        <ele>109.8</ele>
        <time>2016-05-18T08:27:25Z</time>
      </trkpt>
      <trkpt lat="43.22435" lon="6.54431">
        <ele>110.7</ele>
        <time>2016-05-18T08:27:34Z</time>
      </trkpt>
      <trkpt lat="43.22431" lon="6.54419">
        <ele>111.7</ele>
        <time>2016-05-18T08:27:44Z</time>
      </trkpt>
      <trkpt lat="43.22427" lon="6.54406">
        <ele>112.1</ele>
        <time>2016-05-18T08:27:52Z</time>
      </trkpt>
      <trkpt lat="43.22424" lon="6.54393">
        <ele>112.8</ele>
        <time>2016-05-18T08:28:01Z</time>
      </trkpt>
      <trkpt lat="43.22419" lon="6.54383">
        <ele>113.6</ele>
        <time>2016-05-18T08:28:10Z</time>
      </trkpt>
      <trkpt lat="43.22412" lon="6.54373">
        <ele>114.1</ele>
        <time>2016-05-18T08:28:18Z</time>
      </trkpt>
      <trkpt lat="43.22405" lon="6.54365">
        <ele>114.5</ele>
        <time>2016-05-18T08:28:25Z</time>
      </trkpt>
      <trkpt lat="43.22398" lon="6.54356">
        <ele>115.4</ele>
        <time>2016-05-18T08:28:34Z</time>
      </trkpt>
      <trkpt lat="43.22388" lon="6.54347">
        <ele>122.3</ele>
        <time>2016-05-18T08:30:05Z</time>
      </trkpt>
      <trkpt lat="43.22387" lon="6.54332">
        <ele>122.9</ele>
        <time>2016-05-18T08:30:13Z</time>
      </trkpt>
      <trkpt lat="43.22378" lon="6.54316">
        <ele>123.1</ele>
        <time>2016-05-18T08:30:16Z</time>
      </trkpt>
      <trkpt lat="43.2237" lon="6.54301">
        <ele>123.3</ele>
        <time>2016-05-18T08:30:18Z</time>
      </trkpt>
      <trkpt lat="43.22367" lon="6.54285">
        <ele>123.9</ele>
        <time>2016-05-18T08:30:26Z</time>
      </trkpt>
      <trkpt lat="43.22362" lon="6.54274">
        <ele>124.1</ele>
        <time>2016-05-18T08:30:29Z</time>
      </trkpt>
      <trkpt lat="43.22355" lon="6.54257">
        <ele>124.4</ele>
        <time>2016-05-18T08:30:32Z</time>
      </trkpt>
      <trkpt lat="43.2235" lon="6.54239">
        <ele>126.4</ele>
        <time>2016-05-18T08:30:53Z</time>
      </trkpt>
      <trkpt lat="43.22346" lon="6.54227">
        <ele>126.9</ele>
        <time>2016-05-18T08:30:58Z</time>
      </trkpt>
      <trkpt lat="43.2234" lon="6.54217">
        <ele>127.3</ele>
        <time>2016-05-18T08:31:02Z</time>
      </trkpt>
      <trkpt lat="43.22335" lon="6.54206">
        <ele>127.7</ele>
        <time>2016-05-18T08:31:06Z</time>
      </trkpt>
      <trkpt lat="43.2233" lon="6.54195">
        <ele>128.2</ele>
        <time>2016-05-18T08:31:11Z</time>
      </trkpt>
      <trkpt lat="43.22326" lon="6.54182">
        <ele>128.8</ele>
        <time>2016-05-18T08:31:17Z</time>
      </trkpt>
      <trkpt lat="43.22322" lon="6.5417">
        <ele>129.3</ele>
        <time>2016-05-18T08:31:22Z</time>
      </trkpt>
      <trkpt lat="43.22317" lon="6.54159">
        <ele>129.8</ele>
        <time>2016-05-18T08:31:28Z</time>
      </trkpt>
      <trkpt lat="43.22311" lon="6.54149">
        <ele>130.5</ele>
        <time>2016-05-18T08:31:34Z</time>
      </trkpt>
      <trkpt lat="43.22305" lon="6.54139">
        <ele>131.2</ele>
        <time>2016-05-18T08:31:39Z</time>
      </trkpt>
      <trkpt lat="43.223" lon="6.54128">
        <ele>131.6</ele>
        <time>2016-05-18T08:31:42Z</time>
      </trkpt>
      <trkpt lat="43.22295" lon="6.54117">
        <ele>132.2</ele>
        <time>2016-05-18T08:31:46Z</time>
      </trkpt>
      <trkpt lat="43.22288" lon="6.54108">
        <ele>133</ele>
        <time>2016-05-18T08:31:51Z</time>
      </trkpt>
      <trkpt lat="43.22281" lon="6.541">
        <ele>133.8</ele>
        <time>2016-05-18T08:31:57Z</time>
      </trkpt>
      <trkpt lat="43.22273" lon="6.54092">
        <ele>134.7</ele>
        <time>2016-05-18T08:32:05Z</time>
      </trkpt>
      <trkpt lat="43.22267" lon="6.54081">
        <ele>136</ele>
        <time>2016-05-18T08:32:17Z</time>
      </trkpt>
      <trkpt lat="43.22262" lon="6.54068">
        <ele>137.1</ele>
        <time>2016-05-18T08:32:27Z</time>
      </trkpt>
      <trkpt lat="43.2226" lon="6.54054">
        <ele>138</ele>
        <time>2016-05-18T08:32:37Z</time>
      </trkpt>
      <trkpt lat="43.22258" lon="6.54042">
        <ele>138.9</ele>
        <time>2016-05-18T08:32:47Z</time>
      </trkpt>
      <trkpt lat="43.22255" lon="6.54029">
        <ele>139.6</ele>
        <time>2016-05-18T08:32:57Z</time>
      </trkpt>
      <trkpt lat="43.22252" lon="6.54017">
        <ele>140.4</ele>
        <time>2016-05-18T08:33:07Z</time>
      </trkpt>
      <trkpt lat="43.22249" lon="6.54004">
        <ele>141.1</ele>
        <time>2016-05-18T08:33:18Z</time>
      </trkpt>
      <trkpt lat="43.22246" lon="6.53993">
        <ele>141.7</ele>
        <time>2016-05-18T08:33:28Z</time>
      </trkpt>
      <trkpt lat="43.22242" lon="6.53981">
        <ele>142.3</ele>
        <time>2016-05-18T08:33:38Z</time>
      </trkpt>
      <trkpt lat="43.22239" lon="6.53969">
        <ele>143</ele>
        <time>2016-05-18T08:33:49Z</time>
      </trkpt>
      <trkpt lat="43.22235" lon="6.53957">
        <ele>143.6</ele>
        <time>2016-05-18T08:33:58Z</time>
      </trkpt>
      <trkpt lat="43.2223" lon="6.53947">
        <ele>144.4</ele>
        <time>2016-05-18T08:34:07Z</time>
      </trkpt>
      <trkpt lat="43.22224" lon="6.53937">
        <ele>145.1</ele>
        <time>2016-05-18T08:34:16Z</time>
      </trkpt>
      <trkpt lat="43.22217" lon="6.53929">
        <ele>145.9</ele>
        <time>2016-05-18T08:34:26Z</time>
      </trkpt>
      <trkpt lat="43.22209" lon="6.53922">
        <ele>146.7</ele>
        <time>2016-05-18T08:34:35Z</time>
      </trkpt>
      <trkpt lat="43.22201" lon="6.53918">
        <ele>147.4</ele>
        <time>2016-05-18T08:34:43Z</time>
      </trkpt>
      <trkpt lat="43.22191" lon="6.53913">
        <ele>148</ele>
        <time>2016-05-18T08:34:51Z</time>
      </trkpt>
      <trkpt lat="43.22183" lon="6.53908">
        <ele>148.6</ele>
        <time>2016-05-18T08:35:00Z</time>
      </trkpt>
      <trkpt lat="43.22174" lon="6.53903">
        <ele>149.5</ele>
        <time>2016-05-18T08:35:09Z</time>
      </trkpt>
      <trkpt lat="43.22165" lon="6.53897">
        <ele>150.5</ele>
        <time>2016-05-18T08:35:18Z</time>
      </trkpt>
      <trkpt lat="43.22156" lon="6.53893">
        <ele>151.1</ele>
        <time>2016-05-18T08:35:25Z</time>
      </trkpt>
      <trkpt lat="43.22146" lon="6.53892">
        <ele>151.7</ele>
        <time>2016-05-18T08:35:33Z</time>
      </trkpt>
      <trkpt lat="43.22138" lon="6.53885">
        <ele>152.3</ele>
        <time>2016-05-18T08:35:41Z</time>
      </trkpt>
      <trkpt lat="43.22131" lon="6.53877">
        <ele>153.8</ele>
        <time>2016-05-18T08:35:56Z</time>
      </trkpt>
      <trkpt lat="43.22122" lon="6.53876">
        <ele>154.9</ele>
        <time>2016-05-18T08:36:13Z</time>
      </trkpt>
      <trkpt lat="43.22113" lon="6.5387">
        <ele>155.6</ele>
        <time>2016-05-18T08:36:21Z</time>
      </trkpt>
      <trkpt lat="43.22103" lon="6.53868">
        <ele>156.5</ele>
        <time>2016-05-18T08:36:32Z</time>
      </trkpt>
      <trkpt lat="43.22094" lon="6.53866">
        <ele>157.5</ele>
        <time>2016-05-18T08:36:41Z</time>
      </trkpt>
      <trkpt lat="43.22086" lon="6.53859">
        <ele>158.5</ele>
        <time>2016-05-18T08:36:51Z</time>
      </trkpt>
      <trkpt lat="43.22077" lon="6.53856">
        <ele>159.5</ele>
        <time>2016-05-18T08:37:00Z</time>
      </trkpt>
      <trkpt lat="43.22068" lon="6.53852">
        <ele>160.8</ele>
        <time>2016-05-18T08:37:10Z</time>
      </trkpt>
      <trkpt lat="43.22059" lon="6.5385">
        <ele>162</ele>
        <time>2016-05-18T08:37:20Z</time>
      </trkpt>
      <trkpt lat="43.22049" lon="6.53848">
        <ele>163.1</ele>
        <time>2016-05-18T08:37:31Z</time>
      </trkpt>
      <trkpt lat="43.2204" lon="6.53846">
        <ele>164.3</ele>
        <time>2016-05-18T08:37:42Z</time>
      </trkpt>
      <trkpt lat="43.22031" lon="6.53842">
        <ele>165.1</ele>
        <time>2016-05-18T08:37:51Z</time>
      </trkpt>
      <trkpt lat="43.22022" lon="6.53839">
        <ele>166.1</ele>
        <time>2016-05-18T08:38:01Z</time>
      </trkpt>
      <trkpt lat="43.22013" lon="6.53835">
        <ele>167.1</ele>
        <time>2016-05-18T08:38:10Z</time>
      </trkpt>
      <trkpt lat="43.22003" lon="6.53831">
        <ele>168.3</ele>
        <time>2016-05-18T08:38:21Z</time>
      </trkpt>
      <trkpt lat="43.21993" lon="6.53828">
        <ele>169.3</ele>
        <time>2016-05-18T08:38:32Z</time>
      </trkpt>
      <trkpt lat="43.21985" lon="6.5383">
        <ele>170.3</ele>
        <time>2016-05-18T08:38:43Z</time>
      </trkpt>
      <trkpt lat="43.21976" lon="6.53835">
        <ele>171.1</ele>
        <time>2016-05-18T08:38:51Z</time>
      </trkpt>
      <trkpt lat="43.21968" lon="6.53842">
        <ele>171.6</ele>
        <time>2016-05-18T08:38:56Z</time>
      </trkpt>
      <trkpt lat="43.21959" lon="6.53847">
        <ele>172.7</ele>
        <time>2016-05-18T08:39:06Z</time>
      </trkpt>
      <trkpt lat="43.2195" lon="6.53849">
        <ele>173.9</ele>
        <time>2016-05-18T08:39:16Z</time>
      </trkpt>
      <trkpt lat="43.2194" lon="6.53851">
        <ele>174.8</ele>
        <time>2016-05-18T08:39:25Z</time>
      </trkpt>
      <trkpt lat="43.21931" lon="6.53849">
        <ele>175.6</ele>
        <time>2016-05-18T08:39:31Z</time>
      </trkpt>
      <trkpt lat="43.21922" lon="6.53851">
        <ele>176</ele>
        <time>2016-05-18T08:39:35Z</time>
      </trkpt>
      <trkpt lat="43.21915" lon="6.53859">
        <ele>176.6</ele>
        <time>2016-05-18T08:39:40Z</time>
      </trkpt>
      <trkpt lat="43.21911" lon="6.53871">
        <ele>177.3</ele>
        <time>2016-05-18T08:39:49Z</time>
      </trkpt>
      <trkpt lat="43.21915" lon="6.53881">
        <ele>177.9</ele>
        <time>2016-05-18T08:39:56Z</time>
      </trkpt>
      <trkpt lat="43.21917" lon="6.53894">
        <ele>179.5</ele>
        <time>2016-05-18T08:40:10Z</time>
      </trkpt>
      <trkpt lat="43.21922" lon="6.53905">
        <ele>181</ele>
        <time>2016-05-18T08:40:23Z</time>
      </trkpt>
      <trkpt lat="43.21922" lon="6.53918">
        <ele>182.4</ele>
        <time>2016-05-18T08:40:35Z</time>
      </trkpt>
      <trkpt lat="43.21918" lon="6.5393">
        <ele>183.5</ele>
        <time>2016-05-18T08:40:46Z</time>
      </trkpt>
      <trkpt lat="43.21916" lon="6.53943">
        <ele>184.3</ele>
        <time>2016-05-18T08:40:55Z</time>
      </trkpt>
      <trkpt lat="43.21917" lon="6.53955">
        <ele>185.3</ele>
        <time>2016-05-18T08:41:05Z</time>
      </trkpt>
      <trkpt lat="43.21911" lon="6.53967">
        <ele>186.2</ele>
        <time>2016-05-18T08:41:15Z</time>
      </trkpt>
      <trkpt lat="43.21904" lon="6.53974">
        <ele>186.8</ele>
        <time>2016-05-18T08:41:22Z</time>
      </trkpt>
      <trkpt lat="43.21899" lon="6.53985">
        <ele>187.4</ele>
        <time>2016-05-18T08:41:30Z</time>
      </trkpt>
      <trkpt lat="43.21892" lon="6.53993">
        <ele>187.9</ele>
        <time>2016-05-18T08:41:38Z</time>
      </trkpt>
      <trkpt lat="43.21885" lon="6.54001">
        <ele>188.7</ele>
        <time>2016-05-18T08:41:47Z</time>
      </trkpt>
      <trkpt lat="43.21877" lon="6.54007">
        <ele>189.4</ele>
        <time>2016-05-18T08:41:55Z</time>
      </trkpt>
      <trkpt lat="43.21869" lon="6.54016">
        <ele>190.6</ele>
        <time>2016-05-18T08:42:06Z</time>
      </trkpt>
      <trkpt lat="43.21862" lon="6.54024">
        <ele>192.5</ele>
        <time>2016-05-18T08:42:16Z</time>
      </trkpt>
      <trkpt lat="43.21856" lon="6.54036">
        <ele>193.1</ele>
        <time>2016-05-18T08:42:25Z</time>
      </trkpt>
      <trkpt lat="43.21846" lon="6.54037">
        <ele>194.6</ele>
        <time>2016-05-18T08:42:35Z</time>
      </trkpt>
      <trkpt lat="43.21839" lon="6.5403">
        <ele>195.5</ele>
        <time>2016-05-18T08:42:44Z</time>
      </trkpt>
      <trkpt lat="43.21845" lon="6.54022">
        <ele>196.7</ele>
        <time>2016-05-18T08:43:06Z</time>
      </trkpt>
      <trkpt lat="43.21835" lon="6.54018">
        <ele>198.7</ele>
        <time>2016-05-18T08:43:29Z</time>
      </trkpt>
      <trkpt lat="43.21825" lon="6.5402">
        <ele>199.4</ele>
        <time>2016-05-18T08:43:37Z</time>
      </trkpt>
      <trkpt lat="43.21813" lon="6.54025">
        <ele>200.7</ele>
        <time>2016-05-18T08:43:52Z</time>
      </trkpt>
      <trkpt lat="43.21806" lon="6.54032">
        <ele>201</ele>
        <time>2016-05-18T08:43:56Z</time>
      </trkpt>
      <trkpt lat="43.21797" lon="6.54038">
        <ele>201.3</ele>
        <time>2016-05-18T08:43:59Z</time>
      </trkpt>
      <trkpt lat="43.21789" lon="6.54048">
        <ele>201.8</ele>
        <time>2016-05-18T08:44:04Z</time>
      </trkpt>
      <trkpt lat="43.21784" lon="6.54059">
        <ele>202.4</ele>
        <time>2016-05-18T08:44:11Z</time>
      </trkpt>
      <trkpt lat="43.21771" lon="6.54065">
        <ele>203.6</ele>
        <time>2016-05-18T08:44:27Z</time>
      </trkpt>
      <trkpt lat="43.21761" lon="6.5406">
        <ele>204</ele>
        <time>2016-05-18T08:44:32Z</time>
      </trkpt>
      <trkpt lat="43.21752" lon="6.54051">
        <ele>204.4</ele>
        <time>2016-05-18T08:44:36Z</time>
      </trkpt>
      <trkpt lat="43.21744" lon="6.54043">
        <ele>204.8</ele>
        <time>2016-05-18T08:44:41Z</time>
      </trkpt>
      <trkpt lat="43.21736" lon="6.5403">
        <ele>205</ele>
        <time>2016-05-18T08:44:44Z</time>
      </trkpt>
      <trkpt lat="43.21727" lon="6.54024">
        <ele>205.5</ele>
        <time>2016-05-18T08:44:50Z</time>
      </trkpt>
      <trkpt lat="43.2172" lon="6.54035">
        <ele>205.7</ele>
        <time>2016-05-18T08:44:55Z</time>
      </trkpt>
      <trkpt lat="43.21716" lon="6.54048">
        <ele>205.9</ele>
        <time>2016-05-18T08:44:59Z</time>
      </trkpt>
      <trkpt lat="43.21713" lon="6.54061">
        <ele>206.1</ele>
        <time>2016-05-18T08:45:03Z</time>
      </trkpt>
      <trkpt lat="43.21714" lon="6.54074">
        <ele>206.5</ele>
        <time>2016-05-18T08:45:10Z</time>
      </trkpt>
      <trkpt lat="43.21722" lon="6.5408">
        <ele>207.1</ele>
        <time>2016-05-18T08:45:18Z</time>
      </trkpt>
      <trkpt lat="43.21731" lon="6.54085">
        <ele>207.8</ele>
        <time>2016-05-18T08:45:29Z</time>
      </trkpt>
      <trkpt lat="43.21738" lon="6.54092">
        <ele>208.6</ele>
        <time>2016-05-18T08:45:39Z</time>
      </trkpt>
      <trkpt lat="43.21744" lon="6.54103">
        <ele>209.6</ele>
        <time>2016-05-18T08:45:49Z</time>
      </trkpt>
      <trkpt lat="43.21747" lon="6.54115">
        <ele>210.5</ele>
        <time>2016-05-18T08:45:59Z</time>
      </trkpt>
      <trkpt lat="43.21756" lon="6.54119">
        <ele>211.5</ele>
        <time>2016-05-18T08:46:11Z</time>
      </trkpt>
      <trkpt lat="43.21769" lon="6.5411">
        <ele>212.6</ele>
        <time>2016-05-18T08:46:22Z</time>
      </trkpt>
      <trkpt lat="43.21778" lon="6.54106">
        <ele>213.1</ele>
        <time>2016-05-18T08:46:28Z</time>
      </trkpt>
      <trkpt lat="43.21788" lon="6.54105">
        <ele>213.9</ele>
        <time>2016-05-18T08:46:37Z</time>
      </trkpt>
      <trkpt lat="43.21797" lon="6.54109">
        <ele>214.6</ele>
        <time>2016-05-18T08:46:45Z</time>
      </trkpt>
      <trkpt lat="43.21807" lon="6.54112">
        <ele>215.2</ele>
        <time>2016-05-18T08:46:53Z</time>
      </trkpt>
      <trkpt lat="43.21816" lon="6.54116">
        <ele>215.7</ele>
        <time>2016-05-18T08:47:01Z</time>
      </trkpt>
      <trkpt lat="43.21826" lon="6.5412">
        <ele>216.5</ele>
        <time>2016-05-18T08:47:10Z</time>
      </trkpt>
      <trkpt lat="43.21834" lon="6.54126">
        <ele>217.2</ele>
        <time>2016-05-18T08:47:20Z</time>
      </trkpt>
      <trkpt lat="43.21843" lon="6.54133">
        <ele>218.1</ele>
        <time>2016-05-18T08:47:29Z</time>
      </trkpt>
      <trkpt lat="43.21852" lon="6.54134">
        <ele>218.7</ele>
        <time>2016-05-18T08:47:38Z</time>
      </trkpt>
      <trkpt lat="43.21861" lon="6.54136">
        <ele>219.6</ele>
        <time>2016-05-18T08:47:48Z</time>
      </trkpt>
      <trkpt lat="43.2187" lon="6.54141">
        <ele>220.3</ele>
        <time>2016-05-18T08:47:56Z</time>
      </trkpt>
      <trkpt lat="43.21879" lon="6.54144">
        <ele>221.4</ele>
        <time>2016-05-18T08:48:06Z</time>
      </trkpt>
      <trkpt lat="43.21888" lon="6.54144">
        <ele>222.2</ele>
        <time>2016-05-18T08:48:14Z</time>
      </trkpt>
      <trkpt lat="43.21898" lon="6.54146">
        <ele>222.9</ele>
        <time>2016-05-18T08:48:23Z</time>
      </trkpt>
      <trkpt lat="43.21907" lon="6.54145">
        <ele>223.7</ele>
        <time>2016-05-18T08:48:32Z</time>
      </trkpt>
      <trkpt lat="43.21916" lon="6.54147">
        <ele>224.4</ele>
        <time>2016-05-18T08:48:40Z</time>
      </trkpt>
      <trkpt lat="43.21925" lon="6.5415">
        <ele>225.4</ele>
        <time>2016-05-18T08:48:50Z</time>
      </trkpt>
      <trkpt lat="43.21934" lon="6.54153">
        <ele>226.6</ele>
        <time>2016-05-18T08:49:00Z</time>
      </trkpt>
      <trkpt lat="43.21944" lon="6.54157">
        <ele>227.8</ele>
        <time>2016-05-18T08:49:11Z</time>
      </trkpt>
      <trkpt lat="43.21949" lon="6.54168">
        <ele>228.9</ele>
        <time>2016-05-18T08:49:20Z</time>
      </trkpt>
      <trkpt lat="43.21953" lon="6.54181">
        <ele>229.9</ele>
        <time>2016-05-18T08:49:30Z</time>
      </trkpt>
      <trkpt lat="43.21956" lon="6.54192">
        <ele>230.9</ele>
        <time>2016-05-18T08:49:40Z</time>
      </trkpt>
      <trkpt lat="43.2196" lon="6.54205">
        <ele>232.1</ele>
        <time>2016-05-18T08:49:50Z</time>
      </trkpt>
      <trkpt lat="43.21962" lon="6.54217">
        <ele>233.1</ele>
        <time>2016-05-18T08:49:59Z</time>
      </trkpt>
      <trkpt lat="43.21965" lon="6.54229">
        <ele>234.2</ele>
        <time>2016-05-18T08:50:09Z</time>
      </trkpt>
      <trkpt lat="43.21963" lon="6.54241">
        <ele>235</ele>
        <time>2016-05-18T08:50:19Z</time>
      </trkpt>
      <trkpt lat="43.21958" lon="6.54253">
        <ele>235.8</ele>
        <time>2016-05-18T08:50:29Z</time>
      </trkpt>
      <trkpt lat="43.21953" lon="6.54264">
        <ele>236.5</ele>
        <time>2016-05-18T08:50:38Z</time>
      </trkpt>
      <trkpt lat="43.21946" lon="6.54272">
        <ele>237.5</ele>
        <time>2016-05-18T08:50:48Z</time>
      </trkpt>
      <trkpt lat="43.21937" lon="6.54278">
        <ele>238.3</ele>
        <time>2016-05-18T08:50:58Z</time>
      </trkpt>
      <trkpt lat="43.2193" lon="6.54287">
        <ele>239.2</ele>
        <time>2016-05-18T08:51:08Z</time>
      </trkpt>
      <trkpt lat="43.21922" lon="6.54293">
        <ele>240.1</ele>
        <time>2016-05-18T08:51:19Z</time>
      </trkpt>
      <trkpt lat="43.21912" lon="6.54298">
        <ele>241.2</ele>
        <time>2016-05-18T08:51:31Z</time>
      </trkpt>
      <trkpt lat="43.21903" lon="6.54297">
        <ele>241.6</ele>
        <time>2016-05-18T08:51:36Z</time>
      </trkpt>
      <trkpt lat="43.21894" lon="6.54299">
        <ele>242.5</ele>
        <time>2016-05-18T08:51:45Z</time>
      </trkpt>
      <trkpt lat="43.21885" lon="6.54302">
        <ele>243.8</ele>
        <time>2016-05-18T08:51:58Z</time>
      </trkpt>
      <trkpt lat="43.21845" lon="6.5426">
        <ele>252.9</ele>
        <time>2016-05-18T08:54:47Z</time>
      </trkpt>
      <trkpt lat="43.21843" lon="6.54261">
        <ele>256.2</ele>
        <time>2016-05-18T08:58:02Z</time>
      </trkpt>
      <trkpt lat="43.21835" lon="6.54265">
        <ele>257.3</ele>
        <time>2016-05-18T08:59:10Z</time>
      </trkpt>
      <trkpt lat="43.21825" lon="6.5426">
        <ele>257.7</ele>
        <time>2016-05-18T08:59:28Z</time>
      </trkpt>
      <trkpt lat="43.21816" lon="6.54257">
        <ele>258.2</ele>
        <time>2016-05-18T08:59:42Z</time>
      </trkpt>
      <trkpt lat="43.21806" lon="6.54257">
        <ele>258.8</ele>
        <time>2016-05-18T08:59:53Z</time>
      </trkpt>
      <trkpt lat="43.21797" lon="6.54257">
        <ele>259.1</ele>
        <time>2016-05-18T09:00:02Z</time>
      </trkpt>
      <trkpt lat="43.21788" lon="6.54261">
        <ele>259.7</ele>
        <time>2016-05-18T09:00:11Z</time>
      </trkpt>
      <trkpt lat="43.21778" lon="6.54264">
        <ele>260.3</ele>
        <time>2016-05-18T09:00:21Z</time>
      </trkpt>
      <trkpt lat="43.21769" lon="6.54268">
        <ele>260.9</ele>
        <time>2016-05-18T09:00:30Z</time>
      </trkpt>
      <trkpt lat="43.21761" lon="6.54272">
        <ele>261.4</ele>
        <time>2016-05-18T09:00:37Z</time>
      </trkpt>
      <trkpt lat="43.21751" lon="6.54275">
        <ele>262.1</ele>
        <time>2016-05-18T09:00:45Z</time>
      </trkpt>
      <trkpt lat="43.21741" lon="6.54275">
        <ele>262.5</ele>
        <time>2016-05-18T09:00:53Z</time>
      </trkpt>
      <trkpt lat="43.21732" lon="6.54275">
        <ele>262.8</ele>
        <time>2016-05-18T09:01:01Z</time>
      </trkpt>
      <trkpt lat="43.21723" lon="6.54272">
        <ele>263.1</ele>
        <time>2016-05-18T09:01:11Z</time>
      </trkpt>
      <trkpt lat="43.21713" lon="6.54269">
        <ele>263.6</ele>
        <time>2016-05-18T09:01:25Z</time>
      </trkpt>
      <trkpt lat="43.21707" lon="6.54259">
        <ele>263.9</ele>
        <time>2016-05-18T09:01:33Z</time>
      </trkpt>
      <trkpt lat="43.21705" lon="6.54247">
        <ele>264.1</ele>
        <time>2016-05-18T09:01:40Z</time>
      </trkpt>
      <trkpt lat="43.21704" lon="6.54234">
        <ele>264.6</ele>
        <time>2016-05-18T09:01:49Z</time>
      </trkpt>
      <trkpt lat="43.21702" lon="6.5422">
        <ele>265.1</ele>
        <time>2016-05-18T09:01:57Z</time>
      </trkpt>
      <trkpt lat="43.21701" lon="6.54208">
        <ele>265.7</ele>
        <time>2016-05-18T09:02:06Z</time>
      </trkpt>
      <trkpt lat="43.21699" lon="6.54196">
        <ele>266.4</ele>
        <time>2016-05-18T09:02:16Z</time>
      </trkpt>
      <trkpt lat="43.21697" lon="6.54183">
        <ele>266.8</ele>
        <time>2016-05-18T09:02:24Z</time>
      </trkpt>
      <trkpt lat="43.2169" lon="6.54173">
        <ele>267.2</ele>
        <time>2016-05-18T09:02:34Z</time>
      </trkpt>
      <trkpt lat="43.21681" lon="6.5417">
        <ele>267.4</ele>
        <time>2016-05-18T09:02:39Z</time>
      </trkpt>
      <trkpt lat="43.21673" lon="6.54165">
        <ele>268.1</ele>
        <time>2016-05-18T09:02:46Z</time>
      </trkpt>
      <trkpt lat="43.21666" lon="6.54157">
        <ele>268.8</ele>
        <time>2016-05-18T09:02:55Z</time>
      </trkpt>
      <trkpt lat="43.21657" lon="6.54151">
        <ele>269.4</ele>
        <time>2016-05-18T09:03:03Z</time>
      </trkpt>
      <trkpt lat="43.21648" lon="6.54149">
        <ele>270</ele>
        <time>2016-05-18T09:03:12Z</time>
      </trkpt>
      <trkpt lat="43.21639" lon="6.54148">
        <ele>270.5</ele>
        <time>2016-05-18T09:03:20Z</time>
      </trkpt>
      <trkpt lat="43.2163" lon="6.54144">
        <ele>271</ele>
        <time>2016-05-18T09:03:30Z</time>
      </trkpt>
      <trkpt lat="43.2162" lon="6.54143">
        <ele>271.6</ele>
        <time>2016-05-18T09:03:42Z</time>
      </trkpt>
      <trkpt lat="43.21611" lon="6.54142">
        <ele>272</ele>
        <time>2016-05-18T09:03:51Z</time>
      </trkpt>
      <trkpt lat="43.21602" lon="6.54138">
        <ele>272.4</ele>
        <time>2016-05-18T09:04:00Z</time>
      </trkpt>
      <trkpt lat="43.21593" lon="6.54132">
        <ele>272.9</ele>
        <time>2016-05-18T09:04:10Z</time>
      </trkpt>
      <trkpt lat="43.21586" lon="6.54123">
        <ele>273.4</ele>
        <time>2016-05-18T09:04:19Z</time>
      </trkpt>
      <trkpt lat="43.21579" lon="6.54115">
        <ele>273.8</ele>
        <time>2016-05-18T09:04:29Z</time>
      </trkpt>
      <trkpt lat="43.2157" lon="6.54108">
        <ele>274.2</ele>
        <time>2016-05-18T09:04:38Z</time>
      </trkpt>
      <trkpt lat="43.21563" lon="6.54098">
        <ele>274.5</ele>
        <time>2016-05-18T09:04:47Z</time>
      </trkpt>
      <trkpt lat="43.21557" lon="6.54089">
        <ele>274.9</ele>
        <time>2016-05-18T09:04:58Z</time>
      </trkpt>
      <trkpt lat="43.21552" lon="6.54078">
        <ele>275.1</ele>
        <time>2016-05-18T09:05:06Z</time>
      </trkpt>
      <trkpt lat="43.21545" lon="6.54069">
        <ele>275.4</ele>
        <time>2016-05-18T09:05:15Z</time>
      </trkpt>
      <trkpt lat="43.21538" lon="6.5406">
        <ele>275.9</ele>
        <time>2016-05-18T09:05:27Z</time>
      </trkpt>
      <trkpt lat="43.21528" lon="6.54056">
        <ele>276.2</ele>
        <time>2016-05-18T09:05:33Z</time>
      </trkpt>
      <trkpt lat="43.21519" lon="6.54051">
        <ele>276.7</ele>
        <time>2016-05-18T09:05:42Z</time>
      </trkpt>
      <trkpt lat="43.2151" lon="6.54048">
        <ele>277.1</ele>
        <time>2016-05-18T09:05:53Z</time>
      </trkpt>
      <trkpt lat="43.215" lon="6.54052">
        <ele>277.7</ele>
        <time>2016-05-18T09:06:03Z</time>
      </trkpt>
      <trkpt lat="43.21493" lon="6.54062">
        <ele>278.4</ele>
        <time>2016-05-18T09:06:14Z</time>
      </trkpt>
      <trkpt lat="43.21486" lon="6.54069">
        <ele>279</ele>
        <time>2016-05-18T09:06:24Z</time>
      </trkpt>
      <trkpt lat="43.21477" lon="6.5407">
        <ele>279.4</ele>
        <time>2016-05-18T09:06:33Z</time>
      </trkpt>
      <trkpt lat="43.21468" lon="6.54069">
        <ele>280</ele>
        <time>2016-05-18T09:06:42Z</time>
      </trkpt>
      <trkpt lat="43.21458" lon="6.54067">
        <ele>280.6</ele>
        <time>2016-05-18T09:06:53Z</time>
      </trkpt>
      <trkpt lat="43.21449" lon="6.54063">
        <ele>281.5</ele>
        <time>2016-05-18T09:07:06Z</time>
      </trkpt>
      <trkpt lat="43.2144" lon="6.54064">
        <ele>282.5</ele>
        <time>2016-05-18T09:07:16Z</time>
      </trkpt>
      <trkpt lat="43.2143" lon="6.54064">
        <ele>283.6</ele>
        <time>2016-05-18T09:07:27Z</time>
      </trkpt>
      <trkpt lat="43.21421" lon="6.54069">
        <ele>284.9</ele>
        <time>2016-05-18T09:07:39Z</time>
      </trkpt>
      <trkpt lat="43.21414" lon="6.54078">
        <ele>285.9</ele>
        <time>2016-05-18T09:07:50Z</time>
      </trkpt>
      <trkpt lat="43.21408" lon="6.54087">
        <ele>286.9</ele>
        <time>2016-05-18T09:08:01Z</time>
      </trkpt>
      <trkpt lat="43.21401" lon="6.54097">
        <ele>287.5</ele>
        <time>2016-05-18T09:08:13Z</time>
      </trkpt>
      <trkpt lat="43.21393" lon="6.54094">
        <ele>287.8</ele>
        <time>2016-05-18T09:08:21Z</time>
      </trkpt>
      <trkpt lat="43.2139" lon="6.54081">
        <ele>288.4</ele>
        <time>2016-05-18T09:08:32Z</time>
      </trkpt>
      <trkpt lat="43.21388" lon="6.54068">
        <ele>289.5</ele>
        <time>2016-05-18T09:08:44Z</time>
      </trkpt>
      <trkpt lat="43.21385" lon="6.54055">
        <ele>290.3</ele>
        <time>2016-05-18T09:08:54Z</time>
      </trkpt>
      <trkpt lat="43.21379" lon="6.54045">
        <ele>291</ele>
        <time>2016-05-18T09:09:03Z</time>
      </trkpt>
      <trkpt lat="43.21373" lon="6.54036">
        <ele>291.7</ele>
        <time>2016-05-18T09:09:12Z</time>
      </trkpt>
      <trkpt lat="43.21364" lon="6.5403">
        <ele>292.6</ele>
        <time>2016-05-18T09:09:22Z</time>
      </trkpt>
      <trkpt lat="43.21356" lon="6.54025">
        <ele>293.4</ele>
        <time>2016-05-18T09:09:32Z</time>
      </trkpt>
      <trkpt lat="43.21348" lon="6.54019">
        <ele>294</ele>
        <time>2016-05-18T09:09:43Z</time>
      </trkpt>
      <trkpt lat="43.21338" lon="6.54015">
        <ele>294.7</ele>
        <time>2016-05-18T09:09:54Z</time>
      </trkpt>
      <trkpt lat="43.21329" lon="6.5401">
        <ele>295.3</ele>
        <time>2016-05-18T09:10:05Z</time>
      </trkpt>
      <trkpt lat="43.21321" lon="6.54004">
        <ele>296.2</ele>
        <time>2016-05-18T09:10:16Z</time>
      </trkpt>
      <trkpt lat="43.21312" lon="6.54">
        <ele>297.2</ele>
        <time>2016-05-18T09:10:28Z</time>
      </trkpt>
      <trkpt lat="43.21302" lon="6.53997">
        <ele>298.4</ele>
        <time>2016-05-18T09:10:41Z</time>
      </trkpt>
      <trkpt lat="43.21293" lon="6.53999">
        <ele>299</ele>
        <time>2016-05-18T09:10:51Z</time>
      </trkpt>
      <trkpt lat="43.21283" lon="6.54001">
        <ele>299.6</ele>
        <time>2016-05-18T09:11:00Z</time>
      </trkpt>
      <trkpt lat="43.21274" lon="6.54003">
        <ele>300.4</ele>
        <time>2016-05-18T09:11:10Z</time>
      </trkpt>
      <trkpt lat="43.21264" lon="6.54004">
        <ele>301.4</ele>
        <time>2016-05-18T09:11:24Z</time>
      </trkpt>
      <trkpt lat="43.21255" lon="6.53999">
        <ele>302.1</ele>
        <time>2016-05-18T09:11:35Z</time>
      </trkpt>
      <trkpt lat="43.21255" lon="6.53985">
        <ele>302.6</ele>
        <time>2016-05-18T09:11:45Z</time>
      </trkpt>
      <trkpt lat="43.21261" lon="6.53975">
        <ele>303.3</ele>
        <time>2016-05-18T09:11:54Z</time>
      </trkpt>
      <trkpt lat="43.21265" lon="6.53964">
        <ele>304.3</ele>
        <time>2016-05-18T09:12:05Z</time>
      </trkpt>
      <trkpt lat="43.2127" lon="6.53953">
        <ele>305.4</ele>
        <time>2016-05-18T09:12:16Z</time>
      </trkpt>
      <trkpt lat="43.21268" lon="6.5394">
        <ele>306.8</ele>
        <time>2016-05-18T09:12:37Z</time>
      </trkpt>
      <trkpt lat="43.21267" lon="6.53927">
        <ele>307.4</ele>
        <time>2016-05-18T09:12:46Z</time>
      </trkpt>
      <trkpt lat="43.21263" lon="6.53916">
        <ele>308.1</ele>
        <time>2016-05-18T09:12:55Z</time>
      </trkpt>
      <trkpt lat="43.21259" lon="6.53903">
        <ele>308.8</ele>
        <time>2016-05-18T09:13:05Z</time>
      </trkpt>
      <trkpt lat="43.21253" lon="6.53893">
        <ele>309.3</ele>
        <time>2016-05-18T09:13:15Z</time>
      </trkpt>
      <trkpt lat="43.21248" lon="6.53882">
        <ele>310</ele>
        <time>2016-05-18T09:13:27Z</time>
      </trkpt>
      <trkpt lat="43.21244" lon="6.5387">
        <ele>310.6</ele>
        <time>2016-05-18T09:13:38Z</time>
      </trkpt>
      <trkpt lat="43.21239" lon="6.53859">
        <ele>311.2</ele>
        <time>2016-05-18T09:13:47Z</time>
      </trkpt>
      <trkpt lat="43.21235" lon="6.53847">
        <ele>312</ele>
        <time>2016-05-18T09:13:57Z</time>
      </trkpt>
      <trkpt lat="43.2123" lon="6.53836">
        <ele>312.7</ele>
        <time>2016-05-18T09:14:07Z</time>
      </trkpt>
      <trkpt lat="43.21223" lon="6.53827">
        <ele>313.3</ele>
        <time>2016-05-18T09:14:16Z</time>
      </trkpt>
      <trkpt lat="43.21216" lon="6.53818">
        <ele>314.4</ele>
        <time>2016-05-18T09:14:25Z</time>
      </trkpt>
      <trkpt lat="43.21209" lon="6.5381">
        <ele>315.4</ele>
        <time>2016-05-18T09:14:36Z</time>
      </trkpt>
      <trkpt lat="43.21202" lon="6.53802">
        <ele>316.2</ele>
        <time>2016-05-18T09:14:46Z</time>
      </trkpt>
      <trkpt lat="43.21193" lon="6.53797">
        <ele>317.2</ele>
        <time>2016-05-18T09:14:59Z</time>
      </trkpt>
      <trkpt lat="43.21185" lon="6.53793">
        <ele>318.2</ele>
        <time>2016-05-18T09:15:11Z</time>
      </trkpt>
      <trkpt lat="43.21176" lon="6.5379">
        <ele>319.2</ele>
        <time>2016-05-18T09:15:23Z</time>
      </trkpt>
      <trkpt lat="43.21168" lon="6.53783">
        <ele>319.9</ele>
        <time>2016-05-18T09:15:34Z</time>
      </trkpt>
      <trkpt lat="43.21159" lon="6.53777">
        <ele>320.5</ele>
        <time>2016-05-18T09:15:45Z</time>
      </trkpt>
      <trkpt lat="43.2115" lon="6.53773">
        <ele>321.1</ele>
        <time>2016-05-18T09:15:54Z</time>
      </trkpt>
      <trkpt lat="43.21141" lon="6.53768">
        <ele>322</ele>
        <time>2016-05-18T09:16:05Z</time>
      </trkpt>
      <trkpt lat="43.21132" lon="6.53764">
        <ele>322.9</ele>
        <time>2016-05-18T09:16:18Z</time>
      </trkpt>
      <trkpt lat="43.21123" lon="6.53759">
        <ele>323.7</ele>
        <time>2016-05-18T09:16:29Z</time>
      </trkpt>
      <trkpt lat="43.21114" lon="6.53752">
        <ele>324.3</ele>
        <time>2016-05-18T09:16:39Z</time>
      </trkpt>
      <trkpt lat="43.21106" lon="6.53746">
        <ele>325</ele>
        <time>2016-05-18T09:16:51Z</time>
      </trkpt>
      <trkpt lat="43.21097" lon="6.53742">
        <ele>325.7</ele>
        <time>2016-05-18T09:17:01Z</time>
      </trkpt>
      <trkpt lat="43.21087" lon="6.53738">
        <ele>326.6</ele>
        <time>2016-05-18T09:17:11Z</time>
      </trkpt>
      <trkpt lat="43.21078" lon="6.53734">
        <ele>327.4</ele>
        <time>2016-05-18T09:17:20Z</time>
      </trkpt>
      <trkpt lat="43.2107" lon="6.53728">
        <ele>328</ele>
        <time>2016-05-18T09:17:29Z</time>
      </trkpt>
      <trkpt lat="43.21061" lon="6.53723">
        <ele>328.7</ele>
        <time>2016-05-18T09:17:39Z</time>
      </trkpt>
      <trkpt lat="43.21052" lon="6.53723">
        <ele>329.4</ele>
        <time>2016-05-18T09:17:49Z</time>
      </trkpt>
      <trkpt lat="43.21043" lon="6.53722">
        <ele>330.2</ele>
        <time>2016-05-18T09:18:01Z</time>
      </trkpt>
      <trkpt lat="43.21034" lon="6.53717">
        <ele>331.1</ele>
        <time>2016-05-18T09:18:15Z</time>
      </trkpt>
      <trkpt lat="43.21025" lon="6.53714">
        <ele>331.3</ele>
        <time>2016-05-18T09:19:40Z</time>
      </trkpt>
      <trkpt lat="43.21015" lon="6.53718">
        <ele>331.3</ele>
        <time>2016-05-18T09:19:52Z</time>
      </trkpt>
      <trkpt lat="43.21006" lon="6.53722">
        <ele>331.3</ele>
        <time>2016-05-18T09:20:01Z</time>
      </trkpt>
      <trkpt lat="43.20997" lon="6.53726">
        <ele>331.4</ele>
        <time>2016-05-18T09:20:11Z</time>
      </trkpt>
      <trkpt lat="43.20989" lon="6.53732">
        <ele>331.5</ele>
        <time>2016-05-18T09:20:21Z</time>
      </trkpt>
      <trkpt lat="43.20981" lon="6.53737">
        <ele>331.6</ele>
        <time>2016-05-18T09:20:33Z</time>
      </trkpt>
      <trkpt lat="43.20972" lon="6.53741">
        <ele>332.1</ele>
        <time>2016-05-18T09:20:44Z</time>
      </trkpt>
      <trkpt lat="43.20963" lon="6.53743">
        <ele>332.5</ele>
        <time>2016-05-18T09:20:55Z</time>
      </trkpt>
      <trkpt lat="43.20953" lon="6.53742">
        <ele>332.9</ele>
        <time>2016-05-18T09:21:05Z</time>
      </trkpt>
      <trkpt lat="43.20944" lon="6.53741">
        <ele>333.1</ele>
        <time>2016-05-18T09:21:13Z</time>
      </trkpt>
      <trkpt lat="43.20933" lon="6.53739">
        <ele>333.6</ele>
        <time>2016-05-18T09:21:22Z</time>
      </trkpt>
      <trkpt lat="43.20925" lon="6.53735">
        <ele>333.7</ele>
        <time>2016-05-18T09:21:30Z</time>
      </trkpt>
      <trkpt lat="43.20915" lon="6.53737">
        <ele>333.8</ele>
        <time>2016-05-18T09:21:38Z</time>
      </trkpt>
      <trkpt lat="43.20906" lon="6.53734">
        <ele>333.7</ele>
        <time>2016-05-18T09:21:44Z</time>
      </trkpt>
      <trkpt lat="43.20897" lon="6.53729">
        <ele>333.7</ele>
        <time>2016-05-18T09:21:53Z</time>
      </trkpt>
      <trkpt lat="43.20888" lon="6.53724">
        <ele>333.6</ele>
        <time>2016-05-18T09:22:01Z</time>
      </trkpt>
      <trkpt lat="43.2088" lon="6.53718">
        <ele>333.6</ele>
        <time>2016-05-18T09:22:10Z</time>
      </trkpt>
      <trkpt lat="43.20871" lon="6.53712">
        <ele>333.5</ele>
        <time>2016-05-18T09:22:19Z</time>
      </trkpt>
      <trkpt lat="43.20864" lon="6.53704">
        <ele>333.8</ele>
        <time>2016-05-18T09:22:29Z</time>
      </trkpt>
      <trkpt lat="43.20856" lon="6.53698">
        <ele>334.5</ele>
        <time>2016-05-18T09:22:39Z</time>
      </trkpt>
      <trkpt lat="43.20847" lon="6.53691">
        <ele>334.9</ele>
        <time>2016-05-18T09:22:48Z</time>
      </trkpt>
      <trkpt lat="43.20839" lon="6.53682">
        <ele>335.1</ele>
        <time>2016-05-18T09:22:57Z</time>
      </trkpt>
      <trkpt lat="43.20833" lon="6.53674">
        <ele>335.4</ele>
        <time>2016-05-18T09:23:05Z</time>
      </trkpt>
      <trkpt lat="43.20826" lon="6.53665">
        <ele>335.8</ele>
        <time>2016-05-18T09:23:14Z</time>
      </trkpt>
      <trkpt lat="43.20817" lon="6.53661">
        <ele>335.9</ele>
        <time>2016-05-18T09:23:23Z</time>
      </trkpt>
      <trkpt lat="43.20808" lon="6.53657">
        <ele>336</ele>
        <time>2016-05-18T09:23:34Z</time>
      </trkpt>
      <trkpt lat="43.20799" lon="6.53654">
        <ele>336.2</ele>
        <time>2016-05-18T09:23:42Z</time>
      </trkpt>
      <trkpt lat="43.2079" lon="6.53653">
        <ele>336.3</ele>
        <time>2016-05-18T09:23:50Z</time>
      </trkpt>
      <trkpt lat="43.2078" lon="6.5365">
        <ele>336.2</ele>
        <time>2016-05-18T09:23:58Z</time>
      </trkpt>
      <trkpt lat="43.20772" lon="6.53645">
        <ele>336.2</ele>
        <time>2016-05-18T09:24:06Z</time>
      </trkpt>
      <trkpt lat="43.20763" lon="6.5364">
        <ele>335.9</ele>
        <time>2016-05-18T09:24:14Z</time>
      </trkpt>
      <trkpt lat="43.20755" lon="6.53633">
        <ele>335.3</ele>
        <time>2016-05-18T09:24:23Z</time>
      </trkpt>
      <trkpt lat="43.20749" lon="6.53624">
        <ele>334.4</ele>
        <time>2016-05-18T09:24:32Z</time>
      </trkpt>
      <trkpt lat="43.2074" lon="6.53618">
        <ele>333.6</ele>
        <time>2016-05-18T09:24:40Z</time>
      </trkpt>
      <trkpt lat="43.20732" lon="6.53612">
        <ele>332.4</ele>
        <time>2016-05-18T09:24:48Z</time>
      </trkpt>
      <trkpt lat="43.20726" lon="6.53601">
        <ele>331.4</ele>
        <time>2016-05-18T09:24:57Z</time>
      </trkpt>
      <trkpt lat="43.20721" lon="6.5359">
        <ele>330</ele>
        <time>2016-05-18T09:25:10Z</time>
      </trkpt>
      <trkpt lat="43.20715" lon="6.5358">
        <ele>328.9</ele>
        <time>2016-05-18T09:25:20Z</time>
      </trkpt>
      <trkpt lat="43.20711" lon="6.53568">
        <ele>327.4</ele>
        <time>2016-05-18T09:25:31Z</time>
      </trkpt>
      <trkpt lat="43.20707" lon="6.53556">
        <ele>326.1</ele>
        <time>2016-05-18T09:25:41Z</time>
      </trkpt>
      <trkpt lat="43.20703" lon="6.53543">
        <ele>324.7</ele>
        <time>2016-05-18T09:25:50Z</time>
      </trkpt>
      <trkpt lat="43.20704" lon="6.5353">
        <ele>323.6</ele>
        <time>2016-05-18T09:25:59Z</time>
      </trkpt>
      <trkpt lat="43.20706" lon="6.53518">
        <ele>322.7</ele>
        <time>2016-05-18T09:26:08Z</time>
      </trkpt>
      <trkpt lat="43.20708" lon="6.53504">
        <ele>321.5</ele>
        <time>2016-05-18T09:26:17Z</time>
      </trkpt>
      <trkpt lat="43.20706" lon="6.53491">
        <ele>320.5</ele>
        <time>2016-05-18T09:26:27Z</time>
      </trkpt>
      <trkpt lat="43.20702" lon="6.5348">
        <ele>319.8</ele>
        <time>2016-05-18T09:26:36Z</time>
      </trkpt>
      <trkpt lat="43.20695" lon="6.5347">
        <ele>319.3</ele>
        <time>2016-05-18T09:26:45Z</time>
      </trkpt>
      <trkpt lat="43.2069" lon="6.5346">
        <ele>318.9</ele>
        <time>2016-05-18T09:26:54Z</time>
      </trkpt>
      <trkpt lat="43.20682" lon="6.53453">
        <ele>318.4</ele>
        <time>2016-05-18T09:27:03Z</time>
      </trkpt>
      <trkpt lat="43.20676" lon="6.53442">
        <ele>317.7</ele>
        <time>2016-05-18T09:27:12Z</time>
      </trkpt>
      <trkpt lat="43.20671" lon="6.53431">
        <ele>317.1</ele>
        <time>2016-05-18T09:27:20Z</time>
      </trkpt>
      <trkpt lat="43.20666" lon="6.53419">
        <ele>316.5</ele>
        <time>2016-05-18T09:27:30Z</time>
      </trkpt>
      <trkpt lat="43.20661" lon="6.53408">
        <ele>315.6</ele>
        <time>2016-05-18T09:27:39Z</time>
      </trkpt>
      <trkpt lat="43.20657" lon="6.53397">
        <ele>314.3</ele>
        <time>2016-05-18T09:27:49Z</time>
      </trkpt>
      <trkpt lat="43.20651" lon="6.53386">
        <ele>312.9</ele>
        <time>2016-05-18T09:28:00Z</time>
      </trkpt>
      <trkpt lat="43.20648" lon="6.53375">
        <ele>311.8</ele>
        <time>2016-05-18T09:28:08Z</time>
      </trkpt>
      <trkpt lat="43.20644" lon="6.53363">
        <ele>310.4</ele>
        <time>2016-05-18T09:28:18Z</time>
      </trkpt>
      <trkpt lat="43.2064" lon="6.53351">
        <ele>309</ele>
        <time>2016-05-18T09:28:27Z</time>
      </trkpt>
      <trkpt lat="43.20639" lon="6.53338">
        <ele>307.6</ele>
        <time>2016-05-18T09:28:36Z</time>
      </trkpt>
      <trkpt lat="43.20637" lon="6.53325">
        <ele>306.5</ele>
        <time>2016-05-18T09:28:45Z</time>
      </trkpt>
      <trkpt lat="43.20636" lon="6.53312">
        <ele>305.2</ele>
        <time>2016-05-18T09:28:56Z</time>
      </trkpt>
      <trkpt lat="43.20635" lon="6.53299">
        <ele>304.5</ele>
        <time>2016-05-18T09:29:04Z</time>
      </trkpt>
      <trkpt lat="43.20636" lon="6.53286">
        <ele>304</ele>
        <time>2016-05-18T09:29:12Z</time>
      </trkpt>
      <trkpt lat="43.20639" lon="6.53274">
        <ele>303.4</ele>
        <time>2016-05-18T09:29:21Z</time>
      </trkpt>
      <trkpt lat="43.20642" lon="6.53262">
        <ele>302.9</ele>
        <time>2016-05-18T09:29:30Z</time>
      </trkpt>
      <trkpt lat="43.20645" lon="6.5325">
        <ele>302.3</ele>
        <time>2016-05-18T09:29:38Z</time>
      </trkpt>
      <trkpt lat="43.20646" lon="6.53236">
        <ele>301.9</ele>
        <time>2016-05-18T09:29:46Z</time>
      </trkpt>
      <trkpt lat="43.20637" lon="6.5323">
        <ele>301.4</ele>
        <time>2016-05-18T09:29:58Z</time>
      </trkpt>
      <trkpt lat="43.20627" lon="6.53227">
        <ele>301.2</ele>
        <time>2016-05-18T09:30:06Z</time>
      </trkpt>
      <trkpt lat="43.20619" lon="6.53222">
        <ele>300.8</ele>
        <time>2016-05-18T09:30:14Z</time>
      </trkpt>
      <trkpt lat="43.20611" lon="6.53214">
        <ele>299.8</ele>
        <time>2016-05-18T09:30:23Z</time>
      </trkpt>
      <trkpt lat="43.20604" lon="6.53206">
        <ele>298.7</ele>
        <time>2016-05-18T09:30:32Z</time>
      </trkpt>
      <trkpt lat="43.20596" lon="6.53199">
        <ele>297.5</ele>
        <time>2016-05-18T09:30:40Z</time>
      </trkpt>
      <trkpt lat="43.20592" lon="6.53187">
        <ele>296.2</ele>
        <time>2016-05-18T09:30:49Z</time>
      </trkpt>
      <trkpt lat="43.20588" lon="6.53175">
        <ele>294.9</ele>
        <time>2016-05-18T09:30:58Z</time>
      </trkpt>
      <trkpt lat="43.20585" lon="6.53162">
        <ele>292.8</ele>
        <time>2016-05-18T09:31:08Z</time>
      </trkpt>
      <trkpt lat="43.20583" lon="6.5315">
        <ele>291.2</ele>
        <time>2016-05-18T09:31:16Z</time>
      </trkpt>
      <trkpt lat="43.20581" lon="6.53136">
        <ele>289.3</ele>
        <time>2016-05-18T09:31:27Z</time>
      </trkpt>
      <trkpt lat="43.20581" lon="6.53123">
        <ele>288.4</ele>
        <time>2016-05-18T09:31:35Z</time>
      </trkpt>
      <trkpt lat="43.20582" lon="6.5311">
        <ele>287.8</ele>
        <time>2016-05-18T09:31:43Z</time>
      </trkpt>
      <trkpt lat="43.20581" lon="6.53097">
        <ele>287.3</ele>
        <time>2016-05-18T09:31:52Z</time>
      </trkpt>
      <trkpt lat="43.20578" lon="6.53083">
        <ele>286.7</ele>
        <time>2016-05-18T09:32:02Z</time>
      </trkpt>
      <trkpt lat="43.20577" lon="6.53071">
        <ele>286.3</ele>
        <time>2016-05-18T09:32:11Z</time>
      </trkpt>
      <trkpt lat="43.20572" lon="6.5306">
        <ele>286.2</ele>
        <time>2016-05-18T09:32:25Z</time>
      </trkpt>
      <trkpt lat="43.20565" lon="6.53052">
        <ele>287.1</ele>
        <time>2016-05-18T09:32:38Z</time>
      </trkpt>
      <trkpt lat="43.20557" lon="6.53045">
        <ele>288.7</ele>
        <time>2016-05-18T09:32:51Z</time>
      </trkpt>
      <trkpt lat="43.20552" lon="6.53034">
        <ele>290.2</ele>
        <time>2016-05-18T09:33:03Z</time>
      </trkpt>
      <trkpt lat="43.20545" lon="6.53027">
        <ele>291.5</ele>
        <time>2016-05-18T09:33:13Z</time>
      </trkpt>
      <trkpt lat="43.20538" lon="6.53018">
        <ele>292.4</ele>
        <time>2016-05-18T09:33:24Z</time>
      </trkpt>
      <trkpt lat="43.20532" lon="6.53007">
        <ele>292.8</ele>
        <time>2016-05-18T09:33:34Z</time>
      </trkpt>
      <trkpt lat="43.20526" lon="6.52998">
        <ele>293.3</ele>
        <time>2016-05-18T09:33:44Z</time>
      </trkpt>
      <trkpt lat="43.2052" lon="6.52988">
        <ele>293.8</ele>
        <time>2016-05-18T09:33:55Z</time>
      </trkpt>
      <trkpt lat="43.20514" lon="6.52978">
        <ele>294.6</ele>
        <time>2016-05-18T09:34:05Z</time>
      </trkpt>
      <trkpt lat="43.20512" lon="6.52965">
        <ele>295.4</ele>
        <time>2016-05-18T09:34:17Z</time>
      </trkpt>
      <trkpt lat="43.20511" lon="6.52951">
        <ele>296.6</ele>
        <time>2016-05-18T09:34:29Z</time>
      </trkpt>
      <trkpt lat="43.2051" lon="6.52938">
        <ele>297.8</ele>
        <time>2016-05-18T09:34:40Z</time>
      </trkpt>
      <trkpt lat="43.20512" lon="6.52926">
        <ele>299</ele>
        <time>2016-05-18T09:34:51Z</time>
      </trkpt>
      <trkpt lat="43.20511" lon="6.52913">
        <ele>300</ele>
        <time>2016-05-18T09:35:01Z</time>
      </trkpt>
      <trkpt lat="43.20508" lon="6.52901">
        <ele>300.6</ele>
        <time>2016-05-18T09:35:10Z</time>
      </trkpt>
      <trkpt lat="43.20507" lon="6.52888">
        <ele>301.1</ele>
        <time>2016-05-18T09:35:27Z</time>
      </trkpt>
      <trkpt lat="43.20503" lon="6.52876">
        <ele>301.2</ele>
        <time>2016-05-18T09:35:37Z</time>
      </trkpt>
      <trkpt lat="43.20503" lon="6.52863">
        <ele>301.1</ele>
        <time>2016-05-18T09:35:45Z</time>
      </trkpt>
      <trkpt lat="43.20507" lon="6.52852">
        <ele>300.5</ele>
        <time>2016-05-18T09:35:54Z</time>
      </trkpt>
      <trkpt lat="43.20512" lon="6.52841">
        <ele>300</ele>
        <time>2016-05-18T09:36:02Z</time>
      </trkpt>
      <trkpt lat="43.20518" lon="6.52833">
        <ele>299.6</ele>
        <time>2016-05-18T09:36:09Z</time>
      </trkpt>
      <trkpt lat="43.20525" lon="6.52823">
        <ele>299</ele>
        <time>2016-05-18T09:36:17Z</time>
      </trkpt>
      <trkpt lat="43.20532" lon="6.52813">
        <ele>298.4</ele>
        <time>2016-05-18T09:36:25Z</time>
      </trkpt>
      <trkpt lat="43.20538" lon="6.52802">
        <ele>298</ele>
        <time>2016-05-18T09:36:34Z</time>
      </trkpt>
      <trkpt lat="43.20543" lon="6.52792">
        <ele>297.7</ele>
        <time>2016-05-18T09:36:43Z</time>
      </trkpt>
      <trkpt lat="43.20549" lon="6.52781">
        <ele>297.7</ele>
        <time>2016-05-18T09:36:51Z</time>
      </trkpt>
      <trkpt lat="43.20553" lon="6.52769">
        <ele>297.5</ele>
        <time>2016-05-18T09:37:01Z</time>
      </trkpt>
      <trkpt lat="43.20558" lon="6.52759">
        <ele>297.4</ele>
        <time>2016-05-18T09:37:09Z</time>
      </trkpt>
      <trkpt lat="43.20565" lon="6.52749">
        <ele>297.3</ele>
        <time>2016-05-18T09:37:17Z</time>
      </trkpt>
      <trkpt lat="43.20572" lon="6.5274">
        <ele>297.4</ele>
        <time>2016-05-18T09:37:26Z</time>
      </trkpt>
      <trkpt lat="43.20579" lon="6.52731">
        <ele>297.5</ele>
        <time>2016-05-18T09:37:35Z</time>
      </trkpt>
      <trkpt lat="43.20585" lon="6.52722">
        <ele>297.4</ele>
        <time>2016-05-18T09:37:43Z</time>
      </trkpt>
      <trkpt lat="43.20592" lon="6.52713">
        <ele>297.4</ele>
        <time>2016-05-18T09:37:50Z</time>
      </trkpt>
      <trkpt lat="43.20598" lon="6.52702">
        <ele>297.2</ele>
        <time>2016-05-18T09:38:01Z</time>
      </trkpt>
      <trkpt lat="43.20604" lon="6.52692">
        <ele>297.1</ele>
        <time>2016-05-18T09:38:10Z</time>
      </trkpt>
      <trkpt lat="43.20609" lon="6.52681">
        <ele>297</ele>
        <time>2016-05-18T09:38:19Z</time>
      </trkpt>
      <trkpt lat="43.20614" lon="6.5267">
        <ele>296.8</ele>
        <time>2016-05-18T09:38:29Z</time>
      </trkpt>
      <trkpt lat="43.20618" lon="6.52658">
        <ele>297</ele>
        <time>2016-05-18T09:38:41Z</time>
      </trkpt>
      <trkpt lat="43.20621" lon="6.52646">
        <ele>297.2</ele>
        <time>2016-05-18T09:38:49Z</time>
      </trkpt>
      <trkpt lat="43.20626" lon="6.52634">
        <ele>297.4</ele>
        <time>2016-05-18T09:38:59Z</time>
      </trkpt>
      <trkpt lat="43.2063" lon="6.52623">
        <ele>297.7</ele>
        <time>2016-05-18T09:39:08Z</time>
      </trkpt>
      <trkpt lat="43.20632" lon="6.52611">
        <ele>297.9</ele>
        <time>2016-05-18T09:39:17Z</time>
      </trkpt>
      <trkpt lat="43.20637" lon="6.526">
        <ele>298.2</ele>
        <time>2016-05-18T09:39:26Z</time>
      </trkpt>
      <trkpt lat="43.20641" lon="6.52588">
        <ele>298.5</ele>
        <time>2016-05-18T09:39:36Z</time>
      </trkpt>
      <trkpt lat="43.20644" lon="6.52575">
        <ele>298.9</ele>
        <time>2016-05-18T09:39:46Z</time>
      </trkpt>
      <trkpt lat="43.20648" lon="6.52564">
        <ele>299.5</ele>
        <time>2016-05-18T09:39:55Z</time>
      </trkpt>
      <trkpt lat="43.20649" lon="6.5255">
        <ele>300.1</ele>
        <time>2016-05-18T09:40:05Z</time>
      </trkpt>
      <trkpt lat="43.20648" lon="6.52537">
        <ele>300.3</ele>
        <time>2016-05-18T09:40:14Z</time>
      </trkpt>
      <trkpt lat="43.20647" lon="6.52523">
        <ele>300.6</ele>
        <time>2016-05-18T09:40:23Z</time>
      </trkpt>
      <trkpt lat="43.20646" lon="6.52511">
        <ele>300.8</ele>
        <time>2016-05-18T09:40:32Z</time>
      </trkpt>
      <trkpt lat="43.20646" lon="6.52498">
        <ele>301</ele>
        <time>2016-05-18T09:40:40Z</time>
      </trkpt>
      <trkpt lat="43.20644" lon="6.52485">
        <ele>301.4</ele>
        <time>2016-05-18T09:40:49Z</time>
      </trkpt>
      <trkpt lat="43.20643" lon="6.52473">
        <ele>301.9</ele>
        <time>2016-05-18T09:40:59Z</time>
      </trkpt>
      <trkpt lat="43.20642" lon="6.52461">
        <ele>302.5</ele>
        <time>2016-05-18T09:41:08Z</time>
      </trkpt>
      <trkpt lat="43.20643" lon="6.52448">
        <ele>303.4</ele>
        <time>2016-05-18T09:41:19Z</time>
      </trkpt>
      <trkpt lat="43.20642" lon="6.52435">
        <ele>304.2</ele>
        <time>2016-05-18T09:41:28Z</time>
      </trkpt>
      <trkpt lat="43.20645" lon="6.52422">
        <ele>305</ele>
        <time>2016-05-18T09:41:38Z</time>
      </trkpt>
      <trkpt lat="43.20648" lon="6.5241">
        <ele>306.3</ele>
        <time>2016-05-18T09:41:49Z</time>
      </trkpt>
      <trkpt lat="43.20653" lon="6.52398">
        <ele>307.7</ele>
        <time>2016-05-18T09:42:00Z</time>
      </trkpt>
      <trkpt lat="43.20656" lon="6.52387">
        <ele>309.2</ele>
        <time>2016-05-18T09:42:12Z</time>
      </trkpt>
      <trkpt lat="43.2066" lon="6.52376">
        <ele>311.4</ele>
        <time>2016-05-18T09:42:26Z</time>
      </trkpt>
      <trkpt lat="43.20666" lon="6.52366">
        <ele>314</ele>
        <time>2016-05-18T09:42:41Z</time>
      </trkpt>
      <trkpt lat="43.20672" lon="6.52357">
        <ele>316.6</ele>
        <time>2016-05-18T09:42:56Z</time>
      </trkpt>
      <trkpt lat="43.20674" lon="6.52342">
        <ele>320</ele>
        <time>2016-05-18T09:43:30Z</time>
      </trkpt>
      <trkpt lat="43.20676" lon="6.5233">
        <ele>320.7</ele>
        <time>2016-05-18T09:43:42Z</time>
      </trkpt>
      <trkpt lat="43.20677" lon="6.52317">
        <ele>321.8</ele>
        <time>2016-05-18T09:43:53Z</time>
      </trkpt>
      <trkpt lat="43.20678" lon="6.52304">
        <ele>323</ele>
        <time>2016-05-18T09:44:04Z</time>
      </trkpt>
      <trkpt lat="43.20679" lon="6.52291">
        <ele>324.6</ele>
        <time>2016-05-18T09:44:16Z</time>
      </trkpt>
      <trkpt lat="43.20677" lon="6.52279">
        <ele>326.3</ele>
        <time>2016-05-18T09:44:31Z</time>
      </trkpt>
      <trkpt lat="43.20677" lon="6.52265">
        <ele>328.8</ele>
        <time>2016-05-18T09:45:12Z</time>
      </trkpt>
      <trkpt lat="43.20681" lon="6.52253">
        <ele>328.9</ele>
        <time>2016-05-18T09:45:23Z</time>
      </trkpt>
      <trkpt lat="43.20689" lon="6.52259">
        <ele>327.6</ele>
        <time>2016-05-18T09:47:40Z</time>
      </trkpt>
      <trkpt lat="43.20688" lon="6.52243">
        <ele>327.3</ele>
        <time>2016-05-18T09:47:54Z</time>
      </trkpt>
      <trkpt lat="43.20685" lon="6.52231">
        <ele>327.3</ele>
        <time>2016-05-18T09:48:01Z</time>
      </trkpt>
      <trkpt lat="43.20681" lon="6.5222">
        <ele>327.2</ele>
        <time>2016-05-18T09:48:15Z</time>
      </trkpt>
      <trkpt lat="43.20677" lon="6.52207">
        <ele>327.9</ele>
        <time>2016-05-18T09:48:29Z</time>
      </trkpt>
      <trkpt lat="43.20673" lon="6.52196">
        <ele>329</ele>
        <time>2016-05-18T09:48:43Z</time>
      </trkpt>
      <trkpt lat="43.2067" lon="6.52184">
        <ele>330.5</ele>
        <time>2016-05-18T09:48:56Z</time>
      </trkpt>
      <trkpt lat="43.20668" lon="6.52171">
        <ele>332</ele>
        <time>2016-05-18T09:49:07Z</time>
      </trkpt>
      <trkpt lat="43.20666" lon="6.52158">
        <ele>333.6</ele>
        <time>2016-05-18T09:49:23Z</time>
      </trkpt>
      <trkpt lat="43.20664" lon="6.52146">
        <ele>334.5</ele>
        <time>2016-05-18T09:49:33Z</time>
      </trkpt>
      <trkpt lat="43.20657" lon="6.52137">
        <ele>335.4</ele>
        <time>2016-05-18T09:49:45Z</time>
      </trkpt>
      <trkpt lat="43.20649" lon="6.52132">
        <ele>336.1</ele>
        <time>2016-05-18T09:49:56Z</time>
      </trkpt>
      <trkpt lat="43.20642" lon="6.52123">
        <ele>336.5</ele>
        <time>2016-05-18T09:50:06Z</time>
      </trkpt>
      <trkpt lat="43.20636" lon="6.52113">
        <ele>337.1</ele>
        <time>2016-05-18T09:50:16Z</time>
      </trkpt>
      <trkpt lat="43.20629" lon="6.52105">
        <ele>338.2</ele>
        <time>2016-05-18T09:50:29Z</time>
      </trkpt>
      <trkpt lat="43.20624" lon="6.52094">
        <ele>339.7</ele>
        <time>2016-05-18T09:50:42Z</time>
      </trkpt>
      <trkpt lat="43.2062" lon="6.52083">
        <ele>342.3</ele>
        <time>2016-05-18T09:51:00Z</time>
      </trkpt>
      <trkpt lat="43.20618" lon="6.5207">
        <ele>345</ele>
        <time>2016-05-18T09:51:16Z</time>
      </trkpt>
      <trkpt lat="43.20617" lon="6.52057">
        <ele>347.1</ele>
        <time>2016-05-18T09:51:35Z</time>
      </trkpt>
      <trkpt lat="43.20619" lon="6.52045">
        <ele>350</ele>
        <time>2016-05-18T09:51:54Z</time>
      </trkpt>
      <trkpt lat="43.20616" lon="6.52028">
        <ele>353.8</ele>
        <time>2016-05-18T09:52:17Z</time>
      </trkpt>
      <trkpt lat="43.20614" lon="6.52015">
        <ele>354.6</ele>
        <time>2016-05-18T09:52:28Z</time>
      </trkpt>
      <trkpt lat="43.20607" lon="6.52006">
        <ele>355</ele>
        <time>2016-05-18T09:52:43Z</time>
      </trkpt>
      <trkpt lat="43.20602" lon="6.51996">
        <ele>355.2</ele>
        <time>2016-05-18T09:52:50Z</time>
      </trkpt>
      <trkpt lat="43.20596" lon="6.51986">
        <ele>355.7</ele>
        <time>2016-05-18T09:53:00Z</time>
      </trkpt>
      <trkpt lat="43.20593" lon="6.51974">
        <ele>356.6</ele>
        <time>2016-05-18T09:53:12Z</time>
      </trkpt>
      <trkpt lat="43.20592" lon="6.51961">
        <ele>358</ele>
        <time>2016-05-18T09:53:25Z</time>
      </trkpt>
      <trkpt lat="43.20591" lon="6.51949">
        <ele>359.2</ele>
        <time>2016-05-18T09:53:36Z</time>
      </trkpt>
      <trkpt lat="43.20591" lon="6.51936">
        <ele>360.5</ele>
        <time>2016-05-18T09:53:49Z</time>
      </trkpt>
      <trkpt lat="43.20595" lon="6.51924">
        <ele>361.4</ele>
        <time>2016-05-18T09:54:03Z</time>
      </trkpt>
      <trkpt lat="43.20595" lon="6.51911">
        <ele>362.2</ele>
        <time>2016-05-18T09:54:15Z</time>
      </trkpt>
      <trkpt lat="43.20594" lon="6.51898">
        <ele>363.7</ele>
        <time>2016-05-18T09:54:30Z</time>
      </trkpt>
      <trkpt lat="43.20595" lon="6.51886">
        <ele>365.8</ele>
        <time>2016-05-18T09:54:46Z</time>
      </trkpt>
      <trkpt lat="43.2059" lon="6.51872">
        <ele>369.4</ele>
        <time>2016-05-18T09:55:12Z</time>
      </trkpt>
      <trkpt lat="43.20587" lon="6.51861">
        <ele>370.5</ele>
        <time>2016-05-18T09:55:27Z</time>
      </trkpt>
      <trkpt lat="43.20583" lon="6.51849">
        <ele>372.8</ele>
        <time>2016-05-18T09:55:44Z</time>
      </trkpt>
      <trkpt lat="43.20579" lon="6.51838">
        <ele>375</ele>
        <time>2016-05-18T09:55:58Z</time>
      </trkpt>
      <trkpt lat="43.20575" lon="6.51826">
        <ele>377.6</ele>
        <time>2016-05-18T09:56:15Z</time>
      </trkpt>
      <trkpt lat="43.20569" lon="6.51817">
        <ele>378.8</ele>
        <time>2016-05-18T09:56:27Z</time>
      </trkpt>
      <trkpt lat="43.20563" lon="6.51808">
        <ele>379.3</ele>
        <time>2016-05-18T09:56:37Z</time>
      </trkpt>
      <trkpt lat="43.20556" lon="6.51798">
        <ele>379.7</ele>
        <time>2016-05-18T09:56:49Z</time>
      </trkpt>
      <trkpt lat="43.2055" lon="6.51789">
        <ele>380.1</ele>
        <time>2016-05-18T09:57:00Z</time>
      </trkpt>
      <trkpt lat="43.20544" lon="6.5178">
        <ele>380.8</ele>
        <time>2016-05-18T09:57:14Z</time>
      </trkpt>
      <trkpt lat="43.20537" lon="6.51771">
        <ele>382</ele>
        <time>2016-05-18T09:57:29Z</time>
      </trkpt>
      <trkpt lat="43.20529" lon="6.51765">
        <ele>383.6</ele>
        <time>2016-05-18T09:57:44Z</time>
      </trkpt>
      <trkpt lat="43.20522" lon="6.51758">
        <ele>385.7</ele>
        <time>2016-05-18T09:58:00Z</time>
      </trkpt>
      <trkpt lat="43.20516" lon="6.51748">
        <ele>388.4</ele>
        <time>2016-05-18T09:58:18Z</time>
      </trkpt>
      <trkpt lat="43.20511" lon="6.51738">
        <ele>391.5</ele>
        <time>2016-05-18T09:58:42Z</time>
      </trkpt>
      <trkpt lat="43.20507" lon="6.51726">
        <ele>393.9</ele>
        <time>2016-05-18T09:59:01Z</time>
      </trkpt>
      <trkpt lat="43.205" lon="6.51718">
        <ele>396.5</ele>
        <time>2016-05-18T09:59:31Z</time>
      </trkpt>
      <trkpt lat="43.20492" lon="6.51711">
        <ele>399</ele>
        <time>2016-05-18T09:59:47Z</time>
      </trkpt>
      <trkpt lat="43.20485" lon="6.51702">
        <ele>401.9</ele>
        <time>2016-05-18T10:00:02Z</time>
      </trkpt>
      <trkpt lat="43.20478" lon="6.51694">
        <ele>405</ele>
        <time>2016-05-18T10:00:18Z</time>
      </trkpt>
      <trkpt lat="43.20472" lon="6.51684">
        <ele>407.6</ele>
        <time>2016-05-18T10:00:32Z</time>
      </trkpt>
      <trkpt lat="43.20463" lon="6.51678">
        <ele>413</ele>
        <time>2016-05-18T10:03:36Z</time>
      </trkpt>
      <trkpt lat="43.20457" lon="6.51669">
        <ele>413.6</ele>
        <time>2016-05-18T10:03:49Z</time>
      </trkpt>
      <trkpt lat="43.20449" lon="6.51661">
        <ele>415</ele>
        <time>2016-05-18T10:04:04Z</time>
      </trkpt>
      <trkpt lat="43.2044" lon="6.51657">
        <ele>417.2</ele>
        <time>2016-05-18T10:04:21Z</time>
      </trkpt>
      <trkpt lat="43.20432" lon="6.51652">
        <ele>419.4</ele>
        <time>2016-05-18T10:04:39Z</time>
      </trkpt>
      <trkpt lat="43.20422" lon="6.51649">
        <ele>421.9</ele>
        <time>2016-05-18T10:04:58Z</time>
      </trkpt>
      <trkpt lat="43.20413" lon="6.5165">
        <ele>425</ele>
        <time>2016-05-18T10:05:20Z</time>
      </trkpt>
      <trkpt lat="43.20404" lon="6.5165">
        <ele>426.9</ele>
        <time>2016-05-18T10:05:33Z</time>
      </trkpt>
      <trkpt lat="43.20394" lon="6.5165">
        <ele>428</ele>
        <time>2016-05-18T10:05:45Z</time>
      </trkpt>
      <trkpt lat="43.20385" lon="6.51646">
        <ele>428.5</ele>
        <time>2016-05-18T10:05:56Z</time>
      </trkpt>
      <trkpt lat="43.20376" lon="6.51642">
        <ele>428.8</ele>
        <time>2016-05-18T10:06:06Z</time>
      </trkpt>
      <trkpt lat="43.20367" lon="6.51638">
        <ele>429.4</ele>
        <time>2016-05-18T10:06:17Z</time>
      </trkpt>
      <trkpt lat="43.20358" lon="6.51634">
        <ele>430.7</ele>
        <time>2016-05-18T10:06:30Z</time>
      </trkpt>
      <trkpt lat="43.20349" lon="6.51631">
        <ele>432.9</ele>
        <time>2016-05-18T10:06:47Z</time>
      </trkpt>
      <trkpt lat="43.2034" lon="6.51627">
        <ele>434.8</ele>
        <time>2016-05-18T10:07:00Z</time>
      </trkpt>
      <trkpt lat="43.20332" lon="6.51621">
        <ele>436.3</ele>
        <time>2016-05-18T10:07:14Z</time>
      </trkpt>
      <trkpt lat="43.20324" lon="6.51615">
        <ele>436.9</ele>
        <time>2016-05-18T10:07:23Z</time>
      </trkpt>
      <trkpt lat="43.20316" lon="6.5161">
        <ele>437.2</ele>
        <time>2016-05-18T10:07:33Z</time>
      </trkpt>
      <trkpt lat="43.20307" lon="6.51606">
        <ele>437.4</ele>
        <time>2016-05-18T10:07:43Z</time>
      </trkpt>
      <trkpt lat="43.20299" lon="6.51601">
        <ele>437.7</ele>
        <time>2016-05-18T10:07:55Z</time>
      </trkpt>
      <trkpt lat="43.20289" lon="6.516">
        <ele>438.5</ele>
        <time>2016-05-18T10:08:09Z</time>
      </trkpt>
      <trkpt lat="43.20279" lon="6.51601">
        <ele>439.6</ele>
        <time>2016-05-18T10:08:22Z</time>
      </trkpt>
      <trkpt lat="43.2027" lon="6.51604">
        <ele>441.5</ele>
        <time>2016-05-18T10:08:37Z</time>
      </trkpt>
      <trkpt lat="43.2026" lon="6.51604">
        <ele>443.4</ele>
        <time>2016-05-18T10:08:52Z</time>
      </trkpt>
      <trkpt lat="43.20251" lon="6.51602">
        <ele>444.4</ele>
        <time>2016-05-18T10:09:03Z</time>
      </trkpt>
      <trkpt lat="43.20248" lon="6.51587">
        <ele>411.6</ele>
        <time>2016-05-18T11:36:58Z</time>
      </trkpt>
      <trkpt lat="43.20244" lon="6.51576">
        <ele>410.2</ele>
        <time>2016-05-18T11:37:25Z</time>
      </trkpt>
      <trkpt lat="43.20236" lon="6.51569">
        <ele>409.2</ele>
        <time>2016-05-18T11:37:42Z</time>
      </trkpt>
      <trkpt lat="43.20227" lon="6.51563">
        <ele>408.4</ele>
        <time>2016-05-18T11:37:55Z</time>
      </trkpt>
      <trkpt lat="43.20219" lon="6.51556">
        <ele>407.7</ele>
        <time>2016-05-18T11:38:06Z</time>
      </trkpt>
      <trkpt lat="43.20211" lon="6.51549">
        <ele>406.9</ele>
        <time>2016-05-18T11:38:18Z</time>
      </trkpt>
      <trkpt lat="43.20203" lon="6.51542">
        <ele>406.4</ele>
        <time>2016-05-18T11:38:28Z</time>
      </trkpt>
      <trkpt lat="43.20196" lon="6.51535">
        <ele>405.8</ele>
        <time>2016-05-18T11:38:38Z</time>
      </trkpt>
      <trkpt lat="43.20187" lon="6.51528">
        <ele>405.2</ele>
        <time>2016-05-18T11:38:48Z</time>
      </trkpt>
      <trkpt lat="43.20179" lon="6.51521">
        <ele>404.6</ele>
        <time>2016-05-18T11:38:58Z</time>
      </trkpt>
      <trkpt lat="43.2017" lon="6.51516">
        <ele>403.7</ele>
        <time>2016-05-18T11:39:09Z</time>
      </trkpt>
      <trkpt lat="43.20162" lon="6.5151">
        <ele>402.5</ele>
        <time>2016-05-18T11:39:23Z</time>
      </trkpt>
      <trkpt lat="43.20155" lon="6.51502">
        <ele>401.5</ele>
        <time>2016-05-18T11:39:34Z</time>
      </trkpt>
      <trkpt lat="43.20147" lon="6.51494">
        <ele>400.6</ele>
        <time>2016-05-18T11:39:44Z</time>
      </trkpt>
      <trkpt lat="43.2014" lon="6.51486">
        <ele>399.4</ele>
        <time>2016-05-18T11:39:56Z</time>
      </trkpt>
      <trkpt lat="43.20132" lon="6.51479">
        <ele>397.8</ele>
        <time>2016-05-18T11:40:09Z</time>
      </trkpt>
      <trkpt lat="43.20125" lon="6.51472">
        <ele>396.3</ele>
        <time>2016-05-18T11:40:22Z</time>
      </trkpt>
      <trkpt lat="43.20116" lon="6.51465">
        <ele>394.6</ele>
        <time>2016-05-18T11:40:34Z</time>
      </trkpt>
      <trkpt lat="43.20109" lon="6.51458">
        <ele>393.3</ele>
        <time>2016-05-18T11:40:44Z</time>
      </trkpt>
      <trkpt lat="43.20099" lon="6.51454">
        <ele>392.2</ele>
        <time>2016-05-18T11:40:55Z</time>
      </trkpt>
      <trkpt lat="43.2009" lon="6.51449">
        <ele>391.3</ele>
        <time>2016-05-18T11:41:06Z</time>
      </trkpt>
      <trkpt lat="43.20081" lon="6.51443">
        <ele>389.9</ele>
        <time>2016-05-18T11:41:20Z</time>
      </trkpt>
      <trkpt lat="43.20074" lon="6.51435">
        <ele>388.3</ele>
        <time>2016-05-18T11:41:33Z</time>
      </trkpt>
      <trkpt lat="43.20069" lon="6.51424">
        <ele>387</ele>
        <time>2016-05-18T11:41:45Z</time>
      </trkpt>
      <trkpt lat="43.20064" lon="6.51413">
        <ele>385.6</ele>
        <time>2016-05-18T11:41:56Z</time>
      </trkpt>
      <trkpt lat="43.20057" lon="6.51404">
        <ele>383.9</ele>
        <time>2016-05-18T11:42:09Z</time>
      </trkpt>
      <trkpt lat="43.20051" lon="6.51395">
        <ele>382.6</ele>
        <time>2016-05-18T11:42:21Z</time>
      </trkpt>
      <trkpt lat="43.20045" lon="6.51384">
        <ele>381.6</ele>
        <time>2016-05-18T11:42:32Z</time>
      </trkpt>
      <trkpt lat="43.2004" lon="6.51374">
        <ele>381</ele>
        <time>2016-05-18T11:42:42Z</time>
      </trkpt>
      <trkpt lat="43.20033" lon="6.51365">
        <ele>380.4</ele>
        <time>2016-05-18T11:42:52Z</time>
      </trkpt>
      <trkpt lat="43.20025" lon="6.51357">
        <ele>379.5</ele>
        <time>2016-05-18T11:43:02Z</time>
      </trkpt>
      <trkpt lat="43.20015" lon="6.51354">
        <ele>379</ele>
        <time>2016-05-18T11:43:12Z</time>
      </trkpt>
      <trkpt lat="43.20005" lon="6.51353">
        <ele>378.3</ele>
        <time>2016-05-18T11:43:23Z</time>
      </trkpt>
      <trkpt lat="43.19996" lon="6.51354">
        <ele>377.8</ele>
        <time>2016-05-18T11:43:34Z</time>
      </trkpt>
      <trkpt lat="43.19995" lon="6.51342">
        <ele>376.9</ele>
        <time>2016-05-18T11:43:54Z</time>
      </trkpt>
      <trkpt lat="43.20004" lon="6.51338">
        <ele>376</ele>
        <time>2016-05-18T11:44:05Z</time>
      </trkpt>
      <trkpt lat="43.20012" lon="6.51331">
        <ele>374.7</ele>
        <time>2016-05-18T11:44:15Z</time>
      </trkpt>
      <trkpt lat="43.20021" lon="6.51326">
        <ele>373.5</ele>
        <time>2016-05-18T11:44:26Z</time>
      </trkpt>
      <trkpt lat="43.2003" lon="6.51328">
        <ele>372.7</ele>
        <time>2016-05-18T11:44:39Z</time>
      </trkpt>
      <trkpt lat="43.20038" lon="6.51336">
        <ele>371.9</ele>
        <time>2016-05-18T11:44:50Z</time>
      </trkpt>
      <trkpt lat="43.20045" lon="6.51344">
        <ele>371.3</ele>
        <time>2016-05-18T11:45:00Z</time>
      </trkpt>
      <trkpt lat="43.20052" lon="6.51351">
        <ele>370.5</ele>
        <time>2016-05-18T11:45:10Z</time>
      </trkpt>
      <trkpt lat="43.20062" lon="6.51357">
        <ele>369.9</ele>
        <time>2016-05-18T11:45:20Z</time>
      </trkpt>
      <trkpt lat="43.20069" lon="6.51365">
        <ele>369.3</ele>
        <time>2016-05-18T11:45:29Z</time>
      </trkpt>
      <trkpt lat="43.20078" lon="6.51368">
        <ele>368.3</ele>
        <time>2016-05-18T11:45:39Z</time>
      </trkpt>
      <trkpt lat="43.20087" lon="6.51372">
        <ele>367.6</ele>
        <time>2016-05-18T11:45:48Z</time>
      </trkpt>
      <trkpt lat="43.20096" lon="6.51374">
        <ele>366.8</ele>
        <time>2016-05-18T11:45:58Z</time>
      </trkpt>
      <trkpt lat="43.20105" lon="6.51376">
        <ele>366</ele>
        <time>2016-05-18T11:46:09Z</time>
      </trkpt>
      <trkpt lat="43.20115" lon="6.51378">
        <ele>365</ele>
        <time>2016-05-18T11:46:19Z</time>
      </trkpt>
      <trkpt lat="43.20124" lon="6.51381">
        <ele>363.5</ele>
        <time>2016-05-18T11:46:36Z</time>
      </trkpt>
      <trkpt lat="43.20134" lon="6.51383">
        <ele>362.5</ele>
        <time>2016-05-18T11:46:45Z</time>
      </trkpt>
      <trkpt lat="43.20143" lon="6.51385">
        <ele>361.8</ele>
        <time>2016-05-18T11:46:53Z</time>
      </trkpt>
      <trkpt lat="43.20153" lon="6.51387">
        <ele>361.3</ele>
        <time>2016-05-18T11:47:02Z</time>
      </trkpt>
      <trkpt lat="43.20162" lon="6.5139">
        <ele>360.8</ele>
        <time>2016-05-18T11:47:11Z</time>
      </trkpt>
      <trkpt lat="43.20171" lon="6.51396">
        <ele>359.9</ele>
        <time>2016-05-18T11:47:27Z</time>
      </trkpt>
      <trkpt lat="43.2018" lon="6.51398">
        <ele>359.6</ele>
        <time>2016-05-18T11:47:37Z</time>
      </trkpt>
      <trkpt lat="43.2019" lon="6.51401">
        <ele>359</ele>
        <time>2016-05-18T11:47:47Z</time>
      </trkpt>
      <trkpt lat="43.20199" lon="6.51405">
        <ele>358.6</ele>
        <time>2016-05-18T11:47:58Z</time>
      </trkpt>
      <trkpt lat="43.20209" lon="6.51409">
        <ele>358</ele>
        <time>2016-05-18T11:48:08Z</time>
      </trkpt>
      <trkpt lat="43.20218" lon="6.51413">
        <ele>357.6</ele>
        <time>2016-05-18T11:48:16Z</time>
      </trkpt>
      <trkpt lat="43.20227" lon="6.51416">
        <ele>357.2</ele>
        <time>2016-05-18T11:48:23Z</time>
      </trkpt>
      <trkpt lat="43.20236" lon="6.51415">
        <ele>356.5</ele>
        <time>2016-05-18T11:48:31Z</time>
      </trkpt>
      <trkpt lat="43.20246" lon="6.51412">
        <ele>355.7</ele>
        <time>2016-05-18T11:48:40Z</time>
      </trkpt>
      <trkpt lat="43.20254" lon="6.51408">
        <ele>355</ele>
        <time>2016-05-18T11:48:47Z</time>
      </trkpt>
      <trkpt lat="43.20263" lon="6.51402">
        <ele>354.2</ele>
        <time>2016-05-18T11:48:55Z</time>
      </trkpt>
      <trkpt lat="43.2027" lon="6.51395">
        <ele>353.5</ele>
        <time>2016-05-18T11:49:03Z</time>
      </trkpt>
      <trkpt lat="43.20278" lon="6.51387">
        <ele>352.1</ele>
        <time>2016-05-18T11:49:19Z</time>
      </trkpt>
      <trkpt lat="43.20286" lon="6.5138">
        <ele>351.2</ele>
        <time>2016-05-18T11:49:28Z</time>
      </trkpt>
      <trkpt lat="43.20291" lon="6.51369">
        <ele>350.2</ele>
        <time>2016-05-18T11:49:37Z</time>
      </trkpt>
      <trkpt lat="43.20297" lon="6.51358">
        <ele>349.1</ele>
        <time>2016-05-18T11:49:46Z</time>
      </trkpt>
      <trkpt lat="43.20302" lon="6.51347">
        <ele>347.6</ele>
        <time>2016-05-18T11:49:56Z</time>
      </trkpt>
      <trkpt lat="43.20307" lon="6.51337">
        <ele>346.4</ele>
        <time>2016-05-18T11:50:06Z</time>
      </trkpt>
      <trkpt lat="43.20313" lon="6.51327">
        <ele>345.5</ele>
        <time>2016-05-18T11:50:15Z</time>
      </trkpt>
      <trkpt lat="43.20319" lon="6.51318">
        <ele>344.7</ele>
        <time>2016-05-18T11:50:23Z</time>
      </trkpt>
      <trkpt lat="43.20325" lon="6.51308">
        <ele>343.1</ele>
        <time>2016-05-18T11:50:45Z</time>
      </trkpt>
      <trkpt lat="43.20331" lon="6.51298">
        <ele>342.1</ele>
        <time>2016-05-18T11:50:58Z</time>
      </trkpt>
      <trkpt lat="43.20336" lon="6.51288">
        <ele>341.4</ele>
        <time>2016-05-18T11:51:07Z</time>
      </trkpt>
      <trkpt lat="43.20343" lon="6.51278">
        <ele>340.5</ele>
        <time>2016-05-18T11:51:18Z</time>
      </trkpt>
      <trkpt lat="43.2035" lon="6.5127">
        <ele>339.7</ele>
        <time>2016-05-18T11:51:27Z</time>
      </trkpt>
      <trkpt lat="43.20358" lon="6.51262">
        <ele>338.8</ele>
        <time>2016-05-18T11:51:35Z</time>
      </trkpt>
      <trkpt lat="43.20364" lon="6.51252">
        <ele>337.6</ele>
        <time>2016-05-18T11:51:46Z</time>
      </trkpt>
      <trkpt lat="43.20365" lon="6.51241">
        <ele>335.7</ele>
        <time>2016-05-18T11:52:07Z</time>
      </trkpt>
      <trkpt lat="43.20376" lon="6.51233">
        <ele>333.9</ele>
        <time>2016-05-18T11:52:32Z</time>
      </trkpt>
      <trkpt lat="43.20385" lon="6.51234">
        <ele>333.3</ele>
        <time>2016-05-18T11:52:39Z</time>
      </trkpt>
      <trkpt lat="43.20394" lon="6.51237">
        <ele>332.9</ele>
        <time>2016-05-18T11:52:43Z</time>
      </trkpt>
      <trkpt lat="43.20404" lon="6.51236">
        <ele>332.5</ele>
        <time>2016-05-18T11:52:47Z</time>
      </trkpt>
      <trkpt lat="43.20413" lon="6.51231">
        <ele>331.9</ele>
        <time>2016-05-18T11:52:54Z</time>
      </trkpt>
      <trkpt lat="43.2042" lon="6.51221">
        <ele>331.2</ele>
        <time>2016-05-18T11:53:02Z</time>
      </trkpt>
      <trkpt lat="43.20427" lon="6.51212">
        <ele>330.6</ele>
        <time>2016-05-18T11:53:09Z</time>
      </trkpt>
      <trkpt lat="43.20437" lon="6.51205">
        <ele>330</ele>
        <time>2016-05-18T11:53:15Z</time>
      </trkpt>
      <trkpt lat="43.20446" lon="6.51199">
        <ele>329.5</ele>
        <time>2016-05-18T11:53:21Z</time>
      </trkpt>
      <trkpt lat="43.20451" lon="6.51186">
        <ele>328.9</ele>
        <time>2016-05-18T11:53:28Z</time>
      </trkpt>
      <trkpt lat="43.20455" lon="6.51174">
        <ele>328.2</ele>
        <time>2016-05-18T11:53:36Z</time>
      </trkpt>
      <trkpt lat="43.20463" lon="6.51166">
        <ele>327.4</ele>
        <time>2016-05-18T11:53:45Z</time>
      </trkpt>
      <trkpt lat="43.20471" lon="6.51159">
        <ele>326.7</ele>
        <time>2016-05-18T11:53:54Z</time>
      </trkpt>
      <trkpt lat="43.20477" lon="6.51148">
        <ele>326</ele>
        <time>2016-05-18T11:54:02Z</time>
      </trkpt>
      <trkpt lat="43.20485" lon="6.51141">
        <ele>325.2</ele>
        <time>2016-05-18T11:54:12Z</time>
      </trkpt>
      <trkpt lat="43.20493" lon="6.51134">
        <ele>324.3</ele>
        <time>2016-05-18T11:54:20Z</time>
      </trkpt>
      <trkpt lat="43.205" lon="6.51126">
        <ele>323.5</ele>
        <time>2016-05-18T11:54:27Z</time>
      </trkpt>
      <trkpt lat="43.20509" lon="6.51121">
        <ele>322.6</ele>
        <time>2016-05-18T11:54:34Z</time>
      </trkpt>
      <trkpt lat="43.2052" lon="6.51121">
        <ele>322.1</ele>
        <time>2016-05-18T11:54:39Z</time>
      </trkpt>
      <trkpt lat="43.2052" lon="6.51133">
        <ele>321</ele>
        <time>2016-05-18T11:54:52Z</time>
      </trkpt>
      <trkpt lat="43.20529" lon="6.51138">
        <ele>319.8</ele>
        <time>2016-05-18T11:55:14Z</time>
      </trkpt>
      <trkpt lat="43.20536" lon="6.51148">
        <ele>319.4</ele>
        <time>2016-05-18T11:55:23Z</time>
      </trkpt>
      <trkpt lat="43.2054" lon="6.51158">
        <ele>319.1</ele>
        <time>2016-05-18T11:55:33Z</time>
      </trkpt>
      <trkpt lat="43.20544" lon="6.51171">
        <ele>318.9</ele>
        <time>2016-05-18T11:55:43Z</time>
      </trkpt>
      <trkpt lat="43.20544" lon="6.51185">
        <ele>318.8</ele>
        <time>2016-05-18T11:55:52Z</time>
      </trkpt>
      <trkpt lat="43.20545" lon="6.51198">
        <ele>318.5</ele>
        <time>2016-05-18T11:56:01Z</time>
      </trkpt>
      <trkpt lat="43.20543" lon="6.5121">
        <ele>318.3</ele>
        <time>2016-05-18T11:56:10Z</time>
      </trkpt>
      <trkpt lat="43.20542" lon="6.51223">
        <ele>318</ele>
        <time>2016-05-18T11:56:20Z</time>
      </trkpt>
      <trkpt lat="43.20543" lon="6.51236">
        <ele>317.7</ele>
        <time>2016-05-18T11:56:30Z</time>
      </trkpt>
      <trkpt lat="43.20542" lon="6.5125">
        <ele>317.4</ele>
        <time>2016-05-18T11:56:39Z</time>
      </trkpt>
      <trkpt lat="43.2054" lon="6.51262">
        <ele>317.1</ele>
        <time>2016-05-18T11:56:48Z</time>
      </trkpt>
      <trkpt lat="43.20539" lon="6.51275">
        <ele>317</ele>
        <time>2016-05-18T11:56:56Z</time>
      </trkpt>
      <trkpt lat="43.20535" lon="6.51287">
        <ele>316.7</ele>
        <time>2016-05-18T11:57:04Z</time>
      </trkpt>
      <trkpt lat="43.20531" lon="6.513">
        <ele>316.2</ele>
        <time>2016-05-18T11:57:15Z</time>
      </trkpt>
      <trkpt lat="43.2053" lon="6.51312">
        <ele>315.8</ele>
        <time>2016-05-18T11:57:25Z</time>
      </trkpt>
      <trkpt lat="43.20528" lon="6.51325">
        <ele>315.5</ele>
        <time>2016-05-18T11:57:36Z</time>
      </trkpt>
      <trkpt lat="43.20529" lon="6.51339">
        <ele>315.1</ele>
        <time>2016-05-18T11:57:47Z</time>
      </trkpt>
      <trkpt lat="43.20527" lon="6.51351">
        <ele>314.9</ele>
        <time>2016-05-18T11:57:57Z</time>
      </trkpt>
      <trkpt lat="43.20528" lon="6.51365">
        <ele>314.7</ele>
        <time>2016-05-18T11:58:07Z</time>
      </trkpt>
      <trkpt lat="43.20526" lon="6.51378">
        <ele>314.5</ele>
        <time>2016-05-18T11:58:19Z</time>
      </trkpt>
      <trkpt lat="43.20526" lon="6.51391">
        <ele>314.5</ele>
        <time>2016-05-18T11:58:27Z</time>
      </trkpt>
      <trkpt lat="43.20525" lon="6.51404">
        <ele>314.3</ele>
        <time>2016-05-18T11:58:36Z</time>
      </trkpt>
      <trkpt lat="43.20526" lon="6.51417">
        <ele>314.1</ele>
        <time>2016-05-18T11:58:46Z</time>
      </trkpt>
      <trkpt lat="43.20524" lon="6.5143">
        <ele>313.8</ele>
        <time>2016-05-18T11:58:57Z</time>
      </trkpt>
      <trkpt lat="43.20527" lon="6.51441">
        <ele>313.4</ele>
        <time>2016-05-18T11:59:05Z</time>
      </trkpt>
      <trkpt lat="43.20527" lon="6.51454">
        <ele>313</ele>
        <time>2016-05-18T11:59:14Z</time>
      </trkpt>
      <trkpt lat="43.20527" lon="6.51467">
        <ele>312.7</ele>
        <time>2016-05-18T11:59:22Z</time>
      </trkpt>
      <trkpt lat="43.20531" lon="6.51479">
        <ele>312.4</ele>
        <time>2016-05-18T11:59:46Z</time>
      </trkpt>
      <trkpt lat="43.20538" lon="6.51488">
        <ele>312.4</ele>
        <time>2016-05-18T11:59:56Z</time>
      </trkpt>
      <trkpt lat="43.20547" lon="6.51488">
        <ele>312.5</ele>
        <time>2016-05-18T12:00:04Z</time>
      </trkpt>
      <trkpt lat="43.20556" lon="6.51486">
        <ele>312.4</ele>
        <time>2016-05-18T12:00:13Z</time>
      </trkpt>
      <trkpt lat="43.20565" lon="6.51485">
        <ele>312.3</ele>
        <time>2016-05-18T12:00:21Z</time>
      </trkpt>
      <trkpt lat="43.20574" lon="6.51488">
        <ele>312.3</ele>
        <time>2016-05-18T12:00:30Z</time>
      </trkpt>
      <trkpt lat="43.20584" lon="6.51489">
        <ele>312.1</ele>
        <time>2016-05-18T12:00:37Z</time>
      </trkpt>
      <trkpt lat="43.20593" lon="6.5149">
        <ele>311.8</ele>
        <time>2016-05-18T12:00:44Z</time>
      </trkpt>
      <trkpt lat="43.20603" lon="6.51492">
        <ele>311.6</ele>
        <time>2016-05-18T12:00:53Z</time>
      </trkpt>
      <trkpt lat="43.20612" lon="6.51493">
        <ele>311.5</ele>
        <time>2016-05-18T12:01:02Z</time>
      </trkpt>
      <trkpt lat="43.20621" lon="6.51496">
        <ele>311.3</ele>
        <time>2016-05-18T12:01:10Z</time>
      </trkpt>
      <trkpt lat="43.2063" lon="6.515">
        <ele>311</ele>
        <time>2016-05-18T12:01:23Z</time>
      </trkpt>
      <trkpt lat="43.20639" lon="6.51505">
        <ele>310.8</ele>
        <time>2016-05-18T12:01:37Z</time>
      </trkpt>
      <trkpt lat="43.20648" lon="6.5151">
        <ele>310.4</ele>
        <time>2016-05-18T12:01:48Z</time>
      </trkpt>
      <trkpt lat="43.20658" lon="6.51512">
        <ele>310.2</ele>
        <time>2016-05-18T12:01:59Z</time>
      </trkpt>
      <trkpt lat="43.20668" lon="6.51516">
        <ele>310.1</ele>
        <time>2016-05-18T12:02:06Z</time>
      </trkpt>
      <trkpt lat="43.20675" lon="6.51523">
        <ele>310.2</ele>
        <time>2016-05-18T12:02:13Z</time>
      </trkpt>
      <trkpt lat="43.20677" lon="6.51535">
        <ele>310</ele>
        <time>2016-05-18T12:02:20Z</time>
      </trkpt>
      <trkpt lat="43.20678" lon="6.51548">
        <ele>309.9</ele>
        <time>2016-05-18T12:02:28Z</time>
      </trkpt>
      <trkpt lat="43.20679" lon="6.51561">
        <ele>309.6</ele>
        <time>2016-05-18T12:02:37Z</time>
      </trkpt>
      <trkpt lat="43.20682" lon="6.51573">
        <ele>309.5</ele>
        <time>2016-05-18T12:02:46Z</time>
      </trkpt>
      <trkpt lat="43.20683" lon="6.51586">
        <ele>309.4</ele>
        <time>2016-05-18T12:02:56Z</time>
      </trkpt>
      <trkpt lat="43.20685" lon="6.51598">
        <ele>309.5</ele>
        <time>2016-05-18T12:03:03Z</time>
      </trkpt>
      <trkpt lat="43.20688" lon="6.5161">
        <ele>309.6</ele>
        <time>2016-05-18T12:03:13Z</time>
      </trkpt>
      <trkpt lat="43.20687" lon="6.51624">
        <ele>309.5</ele>
        <time>2016-05-18T12:03:22Z</time>
      </trkpt>
      <trkpt lat="43.20686" lon="6.51636">
        <ele>309.5</ele>
        <time>2016-05-18T12:03:30Z</time>
      </trkpt>
      <trkpt lat="43.20687" lon="6.51649">
        <ele>309.6</ele>
        <time>2016-05-18T12:03:37Z</time>
      </trkpt>
      <trkpt lat="43.20688" lon="6.51662">
        <ele>309.7</ele>
        <time>2016-05-18T12:03:47Z</time>
      </trkpt>
      <trkpt lat="43.20688" lon="6.51675">
        <ele>309.8</ele>
        <time>2016-05-18T12:03:55Z</time>
      </trkpt>
      <trkpt lat="43.20687" lon="6.51688">
        <ele>309.9</ele>
        <time>2016-05-18T12:04:02Z</time>
      </trkpt>
      <trkpt lat="43.20686" lon="6.51701">
        <ele>310.1</ele>
        <time>2016-05-18T12:04:11Z</time>
      </trkpt>
      <trkpt lat="43.20688" lon="6.51714">
        <ele>310.3</ele>
        <time>2016-05-18T12:04:19Z</time>
      </trkpt>
      <trkpt lat="43.20689" lon="6.51728">
        <ele>310.5</ele>
        <time>2016-05-18T12:04:27Z</time>
      </trkpt>
      <trkpt lat="43.20693" lon="6.51739">
        <ele>310.6</ele>
        <time>2016-05-18T12:04:35Z</time>
      </trkpt>
      <trkpt lat="43.20697" lon="6.51751">
        <ele>310.8</ele>
        <time>2016-05-18T12:04:44Z</time>
      </trkpt>
      <trkpt lat="43.20699" lon="6.51765">
        <ele>311</ele>
        <time>2016-05-18T12:04:53Z</time>
      </trkpt>
      <trkpt lat="43.20697" lon="6.51777">
        <ele>311.1</ele>
        <time>2016-05-18T12:05:01Z</time>
      </trkpt>
      <trkpt lat="43.20695" lon="6.51789">
        <ele>311</ele>
        <time>2016-05-18T12:05:10Z</time>
      </trkpt>
      <trkpt lat="43.20693" lon="6.51802">
        <ele>311.1</ele>
        <time>2016-05-18T12:05:19Z</time>
      </trkpt>
      <trkpt lat="43.20693" lon="6.51815">
        <ele>311</ele>
        <time>2016-05-18T12:05:28Z</time>
      </trkpt>
      <trkpt lat="43.20691" lon="6.51827">
        <ele>311</ele>
        <time>2016-05-18T12:05:37Z</time>
      </trkpt>
      <trkpt lat="43.2069" lon="6.51841">
        <ele>310.7</ele>
        <time>2016-05-18T12:05:46Z</time>
      </trkpt>
      <trkpt lat="43.20692" lon="6.51853">
        <ele>310.5</ele>
        <time>2016-05-18T12:05:54Z</time>
      </trkpt>
      <trkpt lat="43.20689" lon="6.51866">
        <ele>310.4</ele>
        <time>2016-05-18T12:06:05Z</time>
      </trkpt>
      <trkpt lat="43.20686" lon="6.51879">
        <ele>310.5</ele>
        <time>2016-05-18T12:06:13Z</time>
      </trkpt>
      <trkpt lat="43.20686" lon="6.51891">
        <ele>310.2</ele>
        <time>2016-05-18T12:06:22Z</time>
      </trkpt>
      <trkpt lat="43.20683" lon="6.51904">
        <ele>310</ele>
        <time>2016-05-18T12:06:31Z</time>
      </trkpt>
      <trkpt lat="43.2068" lon="6.51916">
        <ele>309.5</ele>
        <time>2016-05-18T12:06:38Z</time>
      </trkpt>
      <trkpt lat="43.20677" lon="6.51928">
        <ele>309</ele>
        <time>2016-05-18T12:06:46Z</time>
      </trkpt>
      <trkpt lat="43.20676" lon="6.5194">
        <ele>308.6</ele>
        <time>2016-05-18T12:06:53Z</time>
      </trkpt>
      <trkpt lat="43.20675" lon="6.51952">
        <ele>308.4</ele>
        <time>2016-05-18T12:07:00Z</time>
      </trkpt>
      <trkpt lat="43.20678" lon="6.51964">
        <ele>308.3</ele>
        <time>2016-05-18T12:07:07Z</time>
      </trkpt>
      <trkpt lat="43.2068" lon="6.51977">
        <ele>308</ele>
        <time>2016-05-18T12:07:14Z</time>
      </trkpt>
      <trkpt lat="43.20684" lon="6.51988">
        <ele>307.8</ele>
        <time>2016-05-18T12:07:22Z</time>
      </trkpt>
      <trkpt lat="43.20688" lon="6.52001">
        <ele>307.5</ele>
        <time>2016-05-18T12:07:33Z</time>
      </trkpt>
      <trkpt lat="43.2069" lon="6.52014">
        <ele>307.4</ele>
        <time>2016-05-18T12:07:42Z</time>
      </trkpt>
      <trkpt lat="43.20692" lon="6.52027">
        <ele>307.4</ele>
        <time>2016-05-18T12:07:51Z</time>
      </trkpt>
      <trkpt lat="43.20691" lon="6.5204">
        <ele>307.3</ele>
        <time>2016-05-18T12:08:03Z</time>
      </trkpt>
      <trkpt lat="43.20685" lon="6.52051">
        <ele>307.8</ele>
        <time>2016-05-18T12:08:45Z</time>
      </trkpt>
      <trkpt lat="43.20678" lon="6.5206">
        <ele>307.9</ele>
        <time>2016-05-18T12:08:53Z</time>
      </trkpt>
      <trkpt lat="43.20672" lon="6.52071">
        <ele>308</ele>
        <time>2016-05-18T12:09:01Z</time>
      </trkpt>
      <trkpt lat="43.20665" lon="6.52078">
        <ele>307.9</ele>
        <time>2016-05-18T12:09:06Z</time>
      </trkpt>
      <trkpt lat="43.20661" lon="6.5209">
        <ele>307.6</ele>
        <time>2016-05-18T12:09:15Z</time>
      </trkpt>
      <trkpt lat="43.20661" lon="6.52103">
        <ele>307.4</ele>
        <time>2016-05-18T12:09:23Z</time>
      </trkpt>
      <trkpt lat="43.20665" lon="6.52115">
        <ele>307.1</ele>
        <time>2016-05-18T12:09:32Z</time>
      </trkpt>
      <trkpt lat="43.2067" lon="6.52125">
        <ele>307</ele>
        <time>2016-05-18T12:09:43Z</time>
      </trkpt>
      <trkpt lat="43.20676" lon="6.52135">
        <ele>306.9</ele>
        <time>2016-05-18T12:09:54Z</time>
      </trkpt>
      <trkpt lat="43.20684" lon="6.52142">
        <ele>306.8</ele>
        <time>2016-05-18T12:10:07Z</time>
      </trkpt>
      <trkpt lat="43.20689" lon="6.52153">
        <ele>306.6</ele>
        <time>2016-05-18T12:10:16Z</time>
      </trkpt>
      <trkpt lat="43.20692" lon="6.52165">
        <ele>306.4</ele>
        <time>2016-05-18T12:10:25Z</time>
      </trkpt>
      <trkpt lat="43.20693" lon="6.52179">
        <ele>306.1</ele>
        <time>2016-05-18T12:10:34Z</time>
      </trkpt>
      <trkpt lat="43.20694" lon="6.52192">
        <ele>305.9</ele>
        <time>2016-05-18T12:10:44Z</time>
      </trkpt>
      <trkpt lat="43.20694" lon="6.52205">
        <ele>305.9</ele>
        <time>2016-05-18T12:10:55Z</time>
      </trkpt>
      <trkpt lat="43.20694" lon="6.52218">
        <ele>307.8</ele>
        <time>2016-05-18T12:13:07Z</time>
      </trkpt>
      <trkpt lat="43.20691" lon="6.5223">
        <ele>308.5</ele>
        <time>2016-05-18T12:13:37Z</time>
      </trkpt>
      <trkpt lat="43.2069" lon="6.52242">
        <ele>308.9</ele>
        <time>2016-05-18T12:13:56Z</time>
      </trkpt>
      <trkpt lat="43.20689" lon="6.52261">
        <ele>310.9</ele>
        <time>2016-05-18T12:15:13Z</time>
      </trkpt>
      <trkpt lat="43.20693" lon="6.52273">
        <ele>311.2</ele>
        <time>2016-05-18T12:15:20Z</time>
      </trkpt>
      <trkpt lat="43.20698" lon="6.52283">
        <ele>312</ele>
        <time>2016-05-18T12:15:31Z</time>
      </trkpt>
      <trkpt lat="43.20704" lon="6.52292">
        <ele>314.1</ele>
        <time>2016-05-18T12:15:46Z</time>
      </trkpt>
      <trkpt lat="43.20711" lon="6.52302">
        <ele>316.3</ele>
        <time>2016-05-18T12:16:00Z</time>
      </trkpt>
      <trkpt lat="43.20717" lon="6.52311">
        <ele>318.5</ele>
        <time>2016-05-18T12:16:16Z</time>
      </trkpt>
      <trkpt lat="43.20723" lon="6.52321">
        <ele>321.2</ele>
        <time>2016-05-18T12:16:32Z</time>
      </trkpt>
      <trkpt lat="43.2073" lon="6.52329">
        <ele>323</ele>
        <time>2016-05-18T12:16:45Z</time>
      </trkpt>
      <trkpt lat="43.20738" lon="6.52337">
        <ele>325.2</ele>
        <time>2016-05-18T12:17:01Z</time>
      </trkpt>
      <trkpt lat="43.20746" lon="6.52342">
        <ele>328.2</ele>
        <time>2016-05-18T12:17:24Z</time>
      </trkpt>
      <trkpt lat="43.20754" lon="6.5235">
        <ele>330.2</ele>
        <time>2016-05-18T12:17:40Z</time>
      </trkpt>
      <trkpt lat="43.20761" lon="6.52356">
        <ele>332.6</ele>
        <time>2016-05-18T12:17:54Z</time>
      </trkpt>
      <trkpt lat="43.2077" lon="6.52361">
        <ele>335.4</ele>
        <time>2016-05-18T12:18:12Z</time>
      </trkpt>
      <trkpt lat="43.20778" lon="6.52366">
        <ele>336.9</ele>
        <time>2016-05-18T12:18:25Z</time>
      </trkpt>
      <trkpt lat="43.20786" lon="6.52372">
        <ele>338.8</ele>
        <time>2016-05-18T12:18:39Z</time>
      </trkpt>
      <trkpt lat="43.20794" lon="6.52379">
        <ele>340.7</ele>
        <time>2016-05-18T12:18:53Z</time>
      </trkpt>
      <trkpt lat="43.208" lon="6.52389">
        <ele>342.9</ele>
        <time>2016-05-18T12:19:07Z</time>
      </trkpt>
      <trkpt lat="43.20807" lon="6.52399">
        <ele>345.5</ele>
        <time>2016-05-18T12:19:21Z</time>
      </trkpt>
      <trkpt lat="43.20813" lon="6.52408">
        <ele>348.2</ele>
        <time>2016-05-18T12:19:36Z</time>
      </trkpt>
      <trkpt lat="43.20817" lon="6.5242">
        <ele>350.6</ele>
        <time>2016-05-18T12:19:51Z</time>
      </trkpt>
      <trkpt lat="43.20821" lon="6.52431">
        <ele>353.4</ele>
        <time>2016-05-18T12:20:08Z</time>
      </trkpt>
      <trkpt lat="43.20824" lon="6.52443">
        <ele>356.2</ele>
        <time>2016-05-18T12:20:25Z</time>
      </trkpt>
      <trkpt lat="43.20827" lon="6.52455">
        <ele>359.9</ele>
        <time>2016-05-18T12:20:48Z</time>
      </trkpt>
      <trkpt lat="43.20831" lon="6.52466">
        <ele>362.7</ele>
        <time>2016-05-18T12:21:05Z</time>
      </trkpt>
      <trkpt lat="43.20833" lon="6.52479">
        <ele>365.1</ele>
        <time>2016-05-18T12:21:19Z</time>
      </trkpt>
      <trkpt lat="43.20834" lon="6.52492">
        <ele>367.6</ele>
        <time>2016-05-18T12:21:33Z</time>
      </trkpt>
      <trkpt lat="43.20828" lon="6.52502">
        <ele>376.1</ele>
        <time>2016-05-18T12:25:49Z</time>
      </trkpt>
      <trkpt lat="43.20827" lon="6.52514">
        <ele>376</ele>
        <time>2016-05-18T12:26:02Z</time>
      </trkpt>
      <trkpt lat="43.20824" lon="6.52526">
        <ele>375.5</ele>
        <time>2016-05-18T12:26:11Z</time>
      </trkpt>
      <trkpt lat="43.20823" lon="6.52539">
        <ele>374.8</ele>
        <time>2016-05-18T12:26:19Z</time>
      </trkpt>
      <trkpt lat="43.20823" lon="6.52552">
        <ele>374.3</ele>
        <time>2016-05-18T12:26:27Z</time>
      </trkpt>
      <trkpt lat="43.20819" lon="6.52564">
        <ele>374</ele>
        <time>2016-05-18T12:26:36Z</time>
      </trkpt>
      <trkpt lat="43.20817" lon="6.52577">
        <ele>374</ele>
        <time>2016-05-18T12:26:44Z</time>
      </trkpt>
      <trkpt lat="43.20817" lon="6.52591">
        <ele>374</ele>
        <time>2016-05-18T12:26:54Z</time>
      </trkpt>
      <trkpt lat="43.20819" lon="6.52604">
        <ele>374</ele>
        <time>2016-05-18T12:27:03Z</time>
      </trkpt>
      <trkpt lat="43.20822" lon="6.52616">
        <ele>374</ele>
        <time>2016-05-18T12:27:11Z</time>
      </trkpt>
      <trkpt lat="43.20824" lon="6.52628">
        <ele>374</ele>
        <time>2016-05-18T12:27:19Z</time>
      </trkpt>
      <trkpt lat="43.20823" lon="6.52641">
        <ele>374</ele>
        <time>2016-05-18T12:27:28Z</time>
      </trkpt>
      <trkpt lat="43.20823" lon="6.52654">
        <ele>373.9</ele>
        <time>2016-05-18T12:27:37Z</time>
      </trkpt>
      <trkpt lat="43.20821" lon="6.52666">
        <ele>374</ele>
        <time>2016-05-18T12:27:47Z</time>
      </trkpt>
      <trkpt lat="43.2082" lon="6.52679">
        <ele>374.1</ele>
        <time>2016-05-18T12:27:57Z</time>
      </trkpt>
      <trkpt lat="43.20819" lon="6.52692">
        <ele>373.9</ele>
        <time>2016-05-18T12:28:07Z</time>
      </trkpt>
      <trkpt lat="43.20816" lon="6.52703">
        <ele>373.9</ele>
        <time>2016-05-18T12:28:19Z</time>
      </trkpt>
      <trkpt lat="43.20816" lon="6.52716">
        <ele>374.7</ele>
        <time>2016-05-18T12:28:33Z</time>
      </trkpt>
      <trkpt lat="43.20815" lon="6.52729">
        <ele>375.7</ele>
        <time>2016-05-18T12:28:43Z</time>
      </trkpt>
      <trkpt lat="43.20812" lon="6.52741">
        <ele>376.6</ele>
        <time>2016-05-18T12:28:52Z</time>
      </trkpt>
      <trkpt lat="43.20808" lon="6.52752">
        <ele>377.3</ele>
        <time>2016-05-18T12:29:01Z</time>
      </trkpt>
      <trkpt lat="43.20804" lon="6.52764">
        <ele>378</ele>
        <time>2016-05-18T12:29:11Z</time>
      </trkpt>
      <trkpt lat="43.20803" lon="6.52776">
        <ele>378.3</ele>
        <time>2016-05-18T12:29:20Z</time>
      </trkpt>
      <trkpt lat="43.20802" lon="6.52789">
        <ele>378.5</ele>
        <time>2016-05-18T12:29:30Z</time>
      </trkpt>
      <trkpt lat="43.20802" lon="6.52802">
        <ele>378.7</ele>
        <time>2016-05-18T12:29:39Z</time>
      </trkpt>
      <trkpt lat="43.20803" lon="6.52815">
        <ele>379.2</ele>
        <time>2016-05-18T12:29:48Z</time>
      </trkpt>
      <trkpt lat="43.20802" lon="6.52828">
        <ele>380.2</ele>
        <time>2016-05-18T12:30:05Z</time>
      </trkpt>
      <trkpt lat="43.20801" lon="6.5284">
        <ele>380.6</ele>
        <time>2016-05-18T12:30:17Z</time>
      </trkpt>
      <trkpt lat="43.20801" lon="6.52853">
        <ele>380.9</ele>
        <time>2016-05-18T12:30:37Z</time>
      </trkpt>
      <trkpt lat="43.20804" lon="6.52866">
        <ele>380.2</ele>
        <time>2016-05-18T12:30:53Z</time>
      </trkpt>
      <trkpt lat="43.20803" lon="6.52878">
        <ele>379.6</ele>
        <time>2016-05-18T12:31:02Z</time>
      </trkpt>
      <trkpt lat="43.20804" lon="6.52891">
        <ele>379.1</ele>
        <time>2016-05-18T12:31:11Z</time>
      </trkpt>
      <trkpt lat="43.20806" lon="6.52904">
        <ele>378.5</ele>
        <time>2016-05-18T12:31:21Z</time>
      </trkpt>
      <trkpt lat="43.2081" lon="6.52915">
        <ele>377.8</ele>
        <time>2016-05-18T12:31:29Z</time>
      </trkpt>
      <trkpt lat="43.20815" lon="6.52927">
        <ele>377</ele>
        <time>2016-05-18T12:31:39Z</time>
      </trkpt>
      <trkpt lat="43.2082" lon="6.52939">
        <ele>376.2</ele>
        <time>2016-05-18T12:31:48Z</time>
      </trkpt>
      <trkpt lat="43.20819" lon="6.52952">
        <ele>375.6</ele>
        <time>2016-05-18T12:31:58Z</time>
      </trkpt>
      <trkpt lat="43.20816" lon="6.52965">
        <ele>374.7</ele>
        <time>2016-05-18T12:32:09Z</time>
      </trkpt>
      <trkpt lat="43.20817" lon="6.52978">
        <ele>373.2</ele>
        <time>2016-05-18T12:32:23Z</time>
      </trkpt>
      <trkpt lat="43.20818" lon="6.5299">
        <ele>372.2</ele>
        <time>2016-05-18T12:32:33Z</time>
      </trkpt>
      <trkpt lat="43.20819" lon="6.53004">
        <ele>371.5</ele>
        <time>2016-05-18T12:32:42Z</time>
      </trkpt>
      <trkpt lat="43.20821" lon="6.53017">
        <ele>370.9</ele>
        <time>2016-05-18T12:32:51Z</time>
      </trkpt>
      <trkpt lat="43.20821" lon="6.53031">
        <ele>370.5</ele>
        <time>2016-05-18T12:33:00Z</time>
      </trkpt>
      <trkpt lat="43.2082" lon="6.53044">
        <ele>369.9</ele>
        <time>2016-05-18T12:33:10Z</time>
      </trkpt>
      <trkpt lat="43.20823" lon="6.53057">
        <ele>369.4</ele>
        <time>2016-05-18T12:33:20Z</time>
      </trkpt>
      <trkpt lat="43.20827" lon="6.53067">
        <ele>369</ele>
        <time>2016-05-18T12:33:29Z</time>
      </trkpt>
      <trkpt lat="43.20833" lon="6.53077">
        <ele>368.2</ele>
        <time>2016-05-18T12:33:39Z</time>
      </trkpt>
      <trkpt lat="43.2084" lon="6.53087">
        <ele>367.3</ele>
        <time>2016-05-18T12:33:47Z</time>
      </trkpt>
      <trkpt lat="43.20848" lon="6.53096">
        <ele>366.3</ele>
        <time>2016-05-18T12:33:56Z</time>
      </trkpt>
      <trkpt lat="43.20856" lon="6.53103">
        <ele>365.1</ele>
        <time>2016-05-18T12:34:05Z</time>
      </trkpt>
      <trkpt lat="43.20863" lon="6.53112">
        <ele>364</ele>
        <time>2016-05-18T12:34:14Z</time>
      </trkpt>
      <trkpt lat="43.20868" lon="6.53123">
        <ele>362.9</ele>
        <time>2016-05-18T12:34:24Z</time>
      </trkpt>
      <trkpt lat="43.20874" lon="6.53134">
        <ele>361.7</ele>
        <time>2016-05-18T12:34:34Z</time>
      </trkpt>
      <trkpt lat="43.2088" lon="6.53145">
        <ele>360.7</ele>
        <time>2016-05-18T12:34:43Z</time>
      </trkpt>
      <trkpt lat="43.20888" lon="6.53152">
        <ele>359.1</ele>
        <time>2016-05-18T12:34:55Z</time>
      </trkpt>
      <trkpt lat="43.20895" lon="6.5316">
        <ele>357.8</ele>
        <time>2016-05-18T12:35:06Z</time>
      </trkpt>
      <trkpt lat="43.20902" lon="6.53168">
        <ele>356.5</ele>
        <time>2016-05-18T12:35:17Z</time>
      </trkpt>
      <trkpt lat="43.20908" lon="6.53178">
        <ele>355.3</ele>
        <time>2016-05-18T12:35:27Z</time>
      </trkpt>
      <trkpt lat="43.20913" lon="6.53189">
        <ele>353.8</ele>
        <time>2016-05-18T12:35:38Z</time>
      </trkpt>
      <trkpt lat="43.20918" lon="6.53201">
        <ele>352.4</ele>
        <time>2016-05-18T12:35:47Z</time>
      </trkpt>
      <trkpt lat="43.20923" lon="6.53211">
        <ele>351</ele>
        <time>2016-05-18T12:35:56Z</time>
      </trkpt>
      <trkpt lat="43.20928" lon="6.53222">
        <ele>349.7</ele>
        <time>2016-05-18T12:36:05Z</time>
      </trkpt>
      <trkpt lat="43.20933" lon="6.53232">
        <ele>347.8</ele>
        <time>2016-05-18T12:36:18Z</time>
      </trkpt>
      <trkpt lat="43.20939" lon="6.53243">
        <ele>346.9</ele>
        <time>2016-05-18T12:36:27Z</time>
      </trkpt>
      <trkpt lat="43.20946" lon="6.53253">
        <ele>345.6</ele>
        <time>2016-05-18T12:36:37Z</time>
      </trkpt>
      <trkpt lat="43.20955" lon="6.5326">
        <ele>344.2</ele>
        <time>2016-05-18T12:36:48Z</time>
      </trkpt>
      <trkpt lat="43.20961" lon="6.5327">
        <ele>343.5</ele>
        <time>2016-05-18T12:36:56Z</time>
      </trkpt>
      <trkpt lat="43.20967" lon="6.53281">
        <ele>342.3</ele>
        <time>2016-05-18T12:37:07Z</time>
      </trkpt>
      <trkpt lat="43.20973" lon="6.53292">
        <ele>340.6</ele>
        <time>2016-05-18T12:37:27Z</time>
      </trkpt>
      <trkpt lat="43.20975" lon="6.53305">
        <ele>340</ele>
        <time>2016-05-18T12:37:35Z</time>
      </trkpt>
      <trkpt lat="43.20977" lon="6.53318">
        <ele>338.9</ele>
        <time>2016-05-18T12:37:46Z</time>
      </trkpt>
      <trkpt lat="43.20983" lon="6.53327">
        <ele>338.1</ele>
        <time>2016-05-18T12:37:54Z</time>
      </trkpt>
      <trkpt lat="43.20989" lon="6.53338">
        <ele>336.9</ele>
        <time>2016-05-18T12:38:06Z</time>
      </trkpt>
      <trkpt lat="43.20996" lon="6.53346">
        <ele>335.8</ele>
        <time>2016-05-18T12:38:20Z</time>
      </trkpt>
      <trkpt lat="43.21003" lon="6.53356">
        <ele>335.1</ele>
        <time>2016-05-18T12:38:31Z</time>
      </trkpt>
      <trkpt lat="43.21009" lon="6.53366">
        <ele>334.5</ele>
        <time>2016-05-18T12:38:40Z</time>
      </trkpt>
      <trkpt lat="43.21011" lon="6.53379">
        <ele>333.9</ele>
        <time>2016-05-18T12:38:49Z</time>
      </trkpt>
      <trkpt lat="43.21013" lon="6.53392">
        <ele>333.2</ele>
        <time>2016-05-18T12:38:57Z</time>
      </trkpt>
      <trkpt lat="43.21016" lon="6.53405">
        <ele>332.4</ele>
        <time>2016-05-18T12:39:04Z</time>
      </trkpt>
      <trkpt lat="43.21021" lon="6.53416">
        <ele>331.5</ele>
        <time>2016-05-18T12:39:13Z</time>
      </trkpt>
      <trkpt lat="43.21025" lon="6.53427">
        <ele>330.7</ele>
        <time>2016-05-18T12:39:21Z</time>
      </trkpt>
      <trkpt lat="43.21031" lon="6.53436">
        <ele>329.8</ele>
        <time>2016-05-18T12:39:30Z</time>
      </trkpt>
      <trkpt lat="43.21033" lon="6.53449">
        <ele>329.1</ele>
        <time>2016-05-18T12:39:38Z</time>
      </trkpt>
      <trkpt lat="43.21039" lon="6.53459">
        <ele>327.9</ele>
        <time>2016-05-18T12:39:47Z</time>
      </trkpt>
      <trkpt lat="43.21046" lon="6.53468">
        <ele>326.9</ele>
        <time>2016-05-18T12:39:58Z</time>
      </trkpt>
      <trkpt lat="43.21052" lon="6.53479">
        <ele>325.5</ele>
        <time>2016-05-18T12:40:15Z</time>
      </trkpt>
      <trkpt lat="43.21058" lon="6.53488">
        <ele>324.6</ele>
        <time>2016-05-18T12:40:24Z</time>
      </trkpt>
      <trkpt lat="43.21061" lon="6.53501">
        <ele>323.5</ele>
        <time>2016-05-18T12:40:34Z</time>
      </trkpt>
      <trkpt lat="43.21067" lon="6.5351">
        <ele>322.6</ele>
        <time>2016-05-18T12:40:44Z</time>
      </trkpt>
      <trkpt lat="43.21073" lon="6.5352">
        <ele>321.9</ele>
        <time>2016-05-18T12:40:52Z</time>
      </trkpt>
      <trkpt lat="43.21077" lon="6.53532">
        <ele>321.2</ele>
        <time>2016-05-18T12:41:00Z</time>
      </trkpt>
      <trkpt lat="43.21082" lon="6.53543">
        <ele>320.3</ele>
        <time>2016-05-18T12:41:09Z</time>
      </trkpt>
      <trkpt lat="43.21087" lon="6.53554">
        <ele>319.5</ele>
        <time>2016-05-18T12:41:16Z</time>
      </trkpt>
      <trkpt lat="43.21094" lon="6.53565">
        <ele>318.3</ele>
        <time>2016-05-18T12:41:24Z</time>
      </trkpt>
      <trkpt lat="43.21101" lon="6.53575">
        <ele>317.1</ele>
        <time>2016-05-18T12:41:35Z</time>
      </trkpt>
      <trkpt lat="43.2111" lon="6.53576">
        <ele>314.6</ele>
        <time>2016-05-18T12:43:23Z</time>
      </trkpt>
      <trkpt lat="43.2112" lon="6.53577">
        <ele>314.6</ele>
        <time>2016-05-18T12:43:28Z</time>
      </trkpt>
      <trkpt lat="43.21129" lon="6.53575">
        <ele>314.5</ele>
        <time>2016-05-18T12:43:35Z</time>
      </trkpt>
      <trkpt lat="43.21138" lon="6.53573">
        <ele>314.4</ele>
        <time>2016-05-18T12:43:43Z</time>
      </trkpt>
      <trkpt lat="43.21147" lon="6.53573">
        <ele>314.2</ele>
        <time>2016-05-18T12:43:53Z</time>
      </trkpt>
      <trkpt lat="43.21157" lon="6.53575">
        <ele>314.1</ele>
        <time>2016-05-18T12:44:01Z</time>
      </trkpt>
      <trkpt lat="43.21166" lon="6.53579">
        <ele>313.8</ele>
        <time>2016-05-18T12:44:10Z</time>
      </trkpt>
      <trkpt lat="43.21175" lon="6.53584">
        <ele>313.6</ele>
        <time>2016-05-18T12:44:18Z</time>
      </trkpt>
      <trkpt lat="43.21184" lon="6.5359">
        <ele>313</ele>
        <time>2016-05-18T12:44:27Z</time>
      </trkpt>
      <trkpt lat="43.21193" lon="6.53594">
        <ele>312.6</ele>
        <time>2016-05-18T12:44:34Z</time>
      </trkpt>
      <trkpt lat="43.21202" lon="6.53599">
        <ele>312.3</ele>
        <time>2016-05-18T12:44:43Z</time>
      </trkpt>
      <trkpt lat="43.21212" lon="6.53604">
        <ele>311.8</ele>
        <time>2016-05-18T12:44:52Z</time>
      </trkpt>
      <trkpt lat="43.21221" lon="6.53607">
        <ele>311.4</ele>
        <time>2016-05-18T12:45:00Z</time>
      </trkpt>
      <trkpt lat="43.2123" lon="6.5361">
        <ele>311.2</ele>
        <time>2016-05-18T12:45:08Z</time>
      </trkpt>
      <trkpt lat="43.21239" lon="6.53613">
        <ele>310.8</ele>
        <time>2016-05-18T12:45:17Z</time>
      </trkpt>
      <trkpt lat="43.21248" lon="6.53616">
        <ele>310.5</ele>
        <time>2016-05-18T12:45:26Z</time>
      </trkpt>
      <trkpt lat="43.21257" lon="6.53621">
        <ele>310.1</ele>
        <time>2016-05-18T12:45:35Z</time>
      </trkpt>
      <trkpt lat="43.21266" lon="6.53625">
        <ele>309.8</ele>
        <time>2016-05-18T12:45:44Z</time>
      </trkpt>
      <trkpt lat="43.21275" lon="6.5363">
        <ele>309.6</ele>
        <time>2016-05-18T12:45:53Z</time>
      </trkpt>
      <trkpt lat="43.21284" lon="6.53634">
        <ele>309.5</ele>
        <time>2016-05-18T12:46:02Z</time>
      </trkpt>
      <trkpt lat="43.21293" lon="6.53638">
        <ele>309.5</ele>
        <time>2016-05-18T12:46:10Z</time>
      </trkpt>
      <trkpt lat="43.21302" lon="6.53642">
        <ele>309.3</ele>
        <time>2016-05-18T12:46:19Z</time>
      </trkpt>
      <trkpt lat="43.21311" lon="6.53644">
        <ele>309.2</ele>
        <time>2016-05-18T12:46:27Z</time>
      </trkpt>
      <trkpt lat="43.21321" lon="6.53646">
        <ele>309.1</ele>
        <time>2016-05-18T12:46:35Z</time>
      </trkpt>
      <trkpt lat="43.2133" lon="6.53649">
        <ele>309</ele>
        <time>2016-05-18T12:46:45Z</time>
      </trkpt>
      <trkpt lat="43.2134" lon="6.53651">
        <ele>308.9</ele>
        <time>2016-05-18T12:46:55Z</time>
      </trkpt>
      <trkpt lat="43.2135" lon="6.53654">
        <ele>308.9</ele>
        <time>2016-05-18T12:47:04Z</time>
      </trkpt>
      <trkpt lat="43.21359" lon="6.53655">
        <ele>308.9</ele>
        <time>2016-05-18T12:47:12Z</time>
      </trkpt>
      <trkpt lat="43.21369" lon="6.53656">
        <ele>308.9</ele>
        <time>2016-05-18T12:47:22Z</time>
      </trkpt>
      <trkpt lat="43.21379" lon="6.53657">
        <ele>308.9</ele>
        <time>2016-05-18T12:47:31Z</time>
      </trkpt>
      <trkpt lat="43.21389" lon="6.53657">
        <ele>308.9</ele>
        <time>2016-05-18T12:47:41Z</time>
      </trkpt>
      <trkpt lat="43.21399" lon="6.53657">
        <ele>308.9</ele>
        <time>2016-05-18T12:47:50Z</time>
      </trkpt>
      <trkpt lat="43.21408" lon="6.53658">
        <ele>308.9</ele>
        <time>2016-05-18T12:47:59Z</time>
      </trkpt>
      <trkpt lat="43.21419" lon="6.53659">
        <ele>308.9</ele>
        <time>2016-05-18T12:48:08Z</time>
      </trkpt>
      <trkpt lat="43.21428" lon="6.5366">
        <ele>308.9</ele>
        <time>2016-05-18T12:48:17Z</time>
      </trkpt>
      <trkpt lat="43.21438" lon="6.53661">
        <ele>308.9</ele>
        <time>2016-05-18T12:48:26Z</time>
      </trkpt>
      <trkpt lat="43.21447" lon="6.53661">
        <ele>309.1</ele>
        <time>2016-05-18T12:48:34Z</time>
      </trkpt>
      <trkpt lat="43.21456" lon="6.53661">
        <ele>309.2</ele>
        <time>2016-05-18T12:48:43Z</time>
      </trkpt>
      <trkpt lat="43.21466" lon="6.53661">
        <ele>309.2</ele>
        <time>2016-05-18T12:48:51Z</time>
      </trkpt>
      <trkpt lat="43.21475" lon="6.53661">
        <ele>309.3</ele>
        <time>2016-05-18T12:49:00Z</time>
      </trkpt>
      <trkpt lat="43.21484" lon="6.5366">
        <ele>309.3</ele>
        <time>2016-05-18T12:49:09Z</time>
      </trkpt>
      <trkpt lat="43.21494" lon="6.53658">
        <ele>309.3</ele>
        <time>2016-05-18T12:49:17Z</time>
      </trkpt>
      <trkpt lat="43.21502" lon="6.53653">
        <ele>309.3</ele>
        <time>2016-05-18T12:49:26Z</time>
      </trkpt>
      <trkpt lat="43.21511" lon="6.53645">
        <ele>309.3</ele>
        <time>2016-05-18T12:49:35Z</time>
      </trkpt>
      <trkpt lat="43.21519" lon="6.53639">
        <ele>309.3</ele>
        <time>2016-05-18T12:49:42Z</time>
      </trkpt>
      <trkpt lat="43.21527" lon="6.53632">
        <ele>309.3</ele>
        <time>2016-05-18T12:49:49Z</time>
      </trkpt>
      <trkpt lat="43.21533" lon="6.53623">
        <ele>309.2</ele>
        <time>2016-05-18T12:49:57Z</time>
      </trkpt>
      <trkpt lat="43.21541" lon="6.53615">
        <ele>309</ele>
        <time>2016-05-18T12:50:07Z</time>
      </trkpt>
      <trkpt lat="43.2155" lon="6.5361">
        <ele>308.7</ele>
        <time>2016-05-18T12:50:15Z</time>
      </trkpt>
      <trkpt lat="43.21558" lon="6.53603">
        <ele>308.4</ele>
        <time>2016-05-18T12:50:24Z</time>
      </trkpt>
      <trkpt lat="43.21566" lon="6.53597">
        <ele>307.9</ele>
        <time>2016-05-18T12:50:33Z</time>
      </trkpt>
      <trkpt lat="43.21574" lon="6.53591">
        <ele>307.1</ele>
        <time>2016-05-18T12:50:41Z</time>
      </trkpt>
      <trkpt lat="43.21583" lon="6.53585">
        <ele>305.9</ele>
        <time>2016-05-18T12:50:50Z</time>
      </trkpt>
      <trkpt lat="43.21592" lon="6.53581">
        <ele>304.8</ele>
        <time>2016-05-18T12:50:59Z</time>
      </trkpt>
      <trkpt lat="43.21602" lon="6.53578">
        <ele>303.8</ele>
        <time>2016-05-18T12:51:09Z</time>
      </trkpt>
      <trkpt lat="43.21611" lon="6.53576">
        <ele>303.3</ele>
        <time>2016-05-18T12:51:16Z</time>
      </trkpt>
      <trkpt lat="43.2162" lon="6.53571">
        <ele>302.6</ele>
        <time>2016-05-18T12:51:24Z</time>
      </trkpt>
      <trkpt lat="43.21629" lon="6.53567">
        <ele>302</ele>
        <time>2016-05-18T12:51:33Z</time>
      </trkpt>
      <trkpt lat="43.21638" lon="6.53563">
        <ele>301.6</ele>
        <time>2016-05-18T12:51:43Z</time>
      </trkpt>
      <trkpt lat="43.21647" lon="6.53558">
        <ele>301.4</ele>
        <time>2016-05-18T12:51:56Z</time>
      </trkpt>
      <trkpt lat="43.21655" lon="6.53554">
        <ele>301.3</ele>
        <time>2016-05-18T12:52:02Z</time>
      </trkpt>
      <trkpt lat="43.21665" lon="6.5355">
        <ele>300.8</ele>
        <time>2016-05-18T12:52:11Z</time>
      </trkpt>
      <trkpt lat="43.21674" lon="6.53547">
        <ele>300.2</ele>
        <time>2016-05-18T12:52:17Z</time>
      </trkpt>
      <trkpt lat="43.21683" lon="6.53551">
        <ele>299</ele>
        <time>2016-05-18T12:52:27Z</time>
      </trkpt>
      <trkpt lat="43.21693" lon="6.53553">
        <ele>298.4</ele>
        <time>2016-05-18T12:52:41Z</time>
      </trkpt>
      <trkpt lat="43.21703" lon="6.53552">
        <ele>298.2</ele>
        <time>2016-05-18T12:52:53Z</time>
      </trkpt>
      <trkpt lat="43.21712" lon="6.5355">
        <ele>297.6</ele>
        <time>2016-05-18T12:53:04Z</time>
      </trkpt>
      <trkpt lat="43.21722" lon="6.53544">
        <ele>296.8</ele>
        <time>2016-05-18T12:53:12Z</time>
      </trkpt>
      <trkpt lat="43.2173" lon="6.5354">
        <ele>295.5</ele>
        <time>2016-05-18T12:53:22Z</time>
      </trkpt>
      <trkpt lat="43.21738" lon="6.53532">
        <ele>294.6</ele>
        <time>2016-05-18T12:53:28Z</time>
      </trkpt>
      <trkpt lat="43.21749" lon="6.53521">
        <ele>292.2</ele>
        <time>2016-05-18T12:53:48Z</time>
      </trkpt>
      <trkpt lat="43.21757" lon="6.53515">
        <ele>290.9</ele>
        <time>2016-05-18T12:53:59Z</time>
      </trkpt>
      <trkpt lat="43.21766" lon="6.53511">
        <ele>289.5</ele>
        <time>2016-05-18T12:54:09Z</time>
      </trkpt>
      <trkpt lat="43.21775" lon="6.53505">
        <ele>287.9</ele>
        <time>2016-05-18T12:54:20Z</time>
      </trkpt>
      <trkpt lat="43.21782" lon="6.53498">
        <ele>286.2</ele>
        <time>2016-05-18T12:54:33Z</time>
      </trkpt>
      <trkpt lat="43.21789" lon="6.5349">
        <ele>285.4</ele>
        <time>2016-05-18T12:54:41Z</time>
      </trkpt>
      <trkpt lat="43.21797" lon="6.53481">
        <ele>284.4</ele>
        <time>2016-05-18T12:54:51Z</time>
      </trkpt>
      <trkpt lat="43.21804" lon="6.53473">
        <ele>282.7</ele>
        <time>2016-05-18T12:55:02Z</time>
      </trkpt>
      <trkpt lat="43.21813" lon="6.53474">
        <ele>280.2</ele>
        <time>2016-05-18T12:55:18Z</time>
      </trkpt>
      <trkpt lat="43.21821" lon="6.53481">
        <ele>278.9</ele>
        <time>2016-05-18T12:55:27Z</time>
      </trkpt>
      <trkpt lat="43.21829" lon="6.53491">
        <ele>277.6</ele>
        <time>2016-05-18T12:55:35Z</time>
      </trkpt>
      <trkpt lat="43.21837" lon="6.53498">
        <ele>276.4</ele>
        <time>2016-05-18T12:55:43Z</time>
      </trkpt>
      <trkpt lat="43.21844" lon="6.53507">
        <ele>274.9</ele>
        <time>2016-05-18T12:55:53Z</time>
      </trkpt>
      <trkpt lat="43.21851" lon="6.53517">
        <ele>273.6</ele>
        <time>2016-05-18T12:56:02Z</time>
      </trkpt>
      <trkpt lat="43.2186" lon="6.53519">
        <ele>272.3</ele>
        <time>2016-05-18T12:56:11Z</time>
      </trkpt>
      <trkpt lat="43.21869" lon="6.53523">
        <ele>271.2</ele>
        <time>2016-05-18T12:56:21Z</time>
      </trkpt>
      <trkpt lat="43.21878" lon="6.53525">
        <ele>270</ele>
        <time>2016-05-18T12:56:32Z</time>
      </trkpt>
      <trkpt lat="43.21888" lon="6.53529">
        <ele>269.1</ele>
        <time>2016-05-18T12:56:41Z</time>
      </trkpt>
      <trkpt lat="43.21897" lon="6.53534">
        <ele>268.5</ele>
        <time>2016-05-18T12:56:49Z</time>
      </trkpt>
      <trkpt lat="43.21904" lon="6.53541">
        <ele>267.9</ele>
        <time>2016-05-18T12:56:56Z</time>
      </trkpt>
      <trkpt lat="43.21914" lon="6.53544">
        <ele>267.4</ele>
        <time>2016-05-18T12:57:06Z</time>
      </trkpt>
      <trkpt lat="43.21923" lon="6.53549">
        <ele>267</ele>
        <time>2016-05-18T12:57:15Z</time>
      </trkpt>
      <trkpt lat="43.21932" lon="6.53549">
        <ele>266.8</ele>
        <time>2016-05-18T12:57:22Z</time>
      </trkpt>
      <trkpt lat="43.21942" lon="6.53551">
        <ele>266.4</ele>
        <time>2016-05-18T12:57:31Z</time>
      </trkpt>
      <trkpt lat="43.21951" lon="6.53553">
        <ele>265.8</ele>
        <time>2016-05-18T12:57:40Z</time>
      </trkpt>
      <trkpt lat="43.2196" lon="6.53554">
        <ele>265.1</ele>
        <time>2016-05-18T12:57:48Z</time>
      </trkpt>
      <trkpt lat="43.2197" lon="6.53556">
        <ele>264</ele>
        <time>2016-05-18T12:57:58Z</time>
      </trkpt>
      <trkpt lat="43.21979" lon="6.5356">
        <ele>263.2</ele>
        <time>2016-05-18T12:58:06Z</time>
      </trkpt>
      <trkpt lat="43.21989" lon="6.53563">
        <ele>262</ele>
        <time>2016-05-18T12:58:16Z</time>
      </trkpt>
      <trkpt lat="43.21998" lon="6.53566">
        <ele>260.8</ele>
        <time>2016-05-18T12:58:25Z</time>
      </trkpt>
      <trkpt lat="43.22007" lon="6.53568">
        <ele>258.8</ele>
        <time>2016-05-18T12:58:43Z</time>
      </trkpt>
      <trkpt lat="43.22016" lon="6.53568">
        <ele>257.5</ele>
        <time>2016-05-18T12:59:04Z</time>
      </trkpt>
      <trkpt lat="43.22025" lon="6.53573">
        <ele>256</ele>
        <time>2016-05-18T12:59:16Z</time>
      </trkpt>
      <trkpt lat="43.22034" lon="6.53579">
        <ele>254.7</ele>
        <time>2016-05-18T12:59:25Z</time>
      </trkpt>
      <trkpt lat="43.22043" lon="6.53583">
        <ele>253.5</ele>
        <time>2016-05-18T12:59:33Z</time>
      </trkpt>
      <trkpt lat="43.22052" lon="6.53589">
        <ele>251.8</ele>
        <time>2016-05-18T12:59:47Z</time>
      </trkpt>
      <trkpt lat="43.22058" lon="6.53599">
        <ele>250.7</ele>
        <time>2016-05-18T12:59:55Z</time>
      </trkpt>
      <trkpt lat="43.22064" lon="6.5361">
        <ele>248.8</ele>
        <time>2016-05-18T13:00:12Z</time>
      </trkpt>
      <trkpt lat="43.22068" lon="6.53621">
        <ele>247.8</ele>
        <time>2016-05-18T13:00:20Z</time>
      </trkpt>
      <trkpt lat="43.22073" lon="6.53631">
        <ele>246.7</ele>
        <time>2016-05-18T13:00:27Z</time>
      </trkpt>
      <trkpt lat="43.2208" lon="6.5364">
        <ele>245.5</ele>
        <time>2016-05-18T13:00:35Z</time>
      </trkpt>
      <trkpt lat="43.22087" lon="6.53649">
        <ele>244.4</ele>
        <time>2016-05-18T13:00:44Z</time>
      </trkpt>
      <trkpt lat="43.22094" lon="6.53657">
        <ele>243.4</ele>
        <time>2016-05-18T13:00:56Z</time>
      </trkpt>
      <trkpt lat="43.22102" lon="6.53665">
        <ele>242.8</ele>
        <time>2016-05-18T13:01:04Z</time>
      </trkpt>
      <trkpt lat="43.22111" lon="6.53672">
        <ele>242</ele>
        <time>2016-05-18T13:01:13Z</time>
      </trkpt>
      <trkpt lat="43.22118" lon="6.53679">
        <ele>240.9</ele>
        <time>2016-05-18T13:01:23Z</time>
      </trkpt>
      <trkpt lat="43.22125" lon="6.53688">
        <ele>239.5</ele>
        <time>2016-05-18T13:01:32Z</time>
      </trkpt>
      <trkpt lat="43.22132" lon="6.53698">
        <ele>238.3</ele>
        <time>2016-05-18T13:01:43Z</time>
      </trkpt>
      <trkpt lat="43.22139" lon="6.53707">
        <ele>236.8</ele>
        <time>2016-05-18T13:01:53Z</time>
      </trkpt>
      <trkpt lat="43.22147" lon="6.53715">
        <ele>235.4</ele>
        <time>2016-05-18T13:02:02Z</time>
      </trkpt>
      <trkpt lat="43.22156" lon="6.5372">
        <ele>234.2</ele>
        <time>2016-05-18T13:02:11Z</time>
      </trkpt>
      <trkpt lat="43.22165" lon="6.53723">
        <ele>233.3</ele>
        <time>2016-05-18T13:02:20Z</time>
      </trkpt>
      <trkpt lat="43.22174" lon="6.53726">
        <ele>232.8</ele>
        <time>2016-05-18T13:02:28Z</time>
      </trkpt>
      <trkpt lat="43.22183" lon="6.53727">
        <ele>232.4</ele>
        <time>2016-05-18T13:02:37Z</time>
      </trkpt>
      <trkpt lat="43.22193" lon="6.53729">
        <ele>231.8</ele>
        <time>2016-05-18T13:02:46Z</time>
      </trkpt>
      <trkpt lat="43.22202" lon="6.5373">
        <ele>230.7</ele>
        <time>2016-05-18T13:02:58Z</time>
      </trkpt>
      <trkpt lat="43.22211" lon="6.53734">
        <ele>230.1</ele>
        <time>2016-05-18T13:03:06Z</time>
      </trkpt>
      <trkpt lat="43.22219" lon="6.53741">
        <ele>229.5</ele>
        <time>2016-05-18T13:03:14Z</time>
      </trkpt>
      <trkpt lat="43.22228" lon="6.53747">
        <ele>229.1</ele>
        <time>2016-05-18T13:03:23Z</time>
      </trkpt>
      <trkpt lat="43.22235" lon="6.53756">
        <ele>228.8</ele>
        <time>2016-05-18T13:03:31Z</time>
      </trkpt>
      <trkpt lat="43.22243" lon="6.53762">
        <ele>228.3</ele>
        <time>2016-05-18T13:03:41Z</time>
      </trkpt>
      <trkpt lat="43.22252" lon="6.53769">
        <ele>227.5</ele>
        <time>2016-05-18T13:03:53Z</time>
      </trkpt>
      <trkpt lat="43.22258" lon="6.53778">
        <ele>227.1</ele>
        <time>2016-05-18T13:04:02Z</time>
      </trkpt>
      <trkpt lat="43.22265" lon="6.53788">
        <ele>227</ele>
        <time>2016-05-18T13:04:11Z</time>
      </trkpt>
      <trkpt lat="43.22272" lon="6.53795">
        <ele>226.8</ele>
        <time>2016-05-18T13:04:19Z</time>
      </trkpt>
      <trkpt lat="43.2228" lon="6.53802">
        <ele>226.7</ele>
        <time>2016-05-18T13:04:28Z</time>
      </trkpt>
      <trkpt lat="43.22287" lon="6.5381">
        <ele>226.7</ele>
        <time>2016-05-18T13:04:36Z</time>
      </trkpt>
      <trkpt lat="43.22296" lon="6.53817">
        <ele>226.6</ele>
        <time>2016-05-18T13:04:45Z</time>
      </trkpt>
      <trkpt lat="43.22304" lon="6.53824">
        <ele>226.6</ele>
        <time>2016-05-18T13:04:54Z</time>
      </trkpt>
      <trkpt lat="43.22313" lon="6.53829">
        <ele>226.6</ele>
        <time>2016-05-18T13:05:04Z</time>
      </trkpt>
      <trkpt lat="43.22322" lon="6.53835">
        <ele>226.8</ele>
        <time>2016-05-18T13:05:14Z</time>
      </trkpt>
      <trkpt lat="43.2233" lon="6.53842">
        <ele>227.2</ele>
        <time>2016-05-18T13:05:23Z</time>
      </trkpt>
      <trkpt lat="43.22338" lon="6.53848">
        <ele>227.8</ele>
        <time>2016-05-18T13:05:32Z</time>
      </trkpt>
      <trkpt lat="43.22347" lon="6.53852">
        <ele>228.3</ele>
        <time>2016-05-18T13:05:39Z</time>
      </trkpt>
      <trkpt lat="43.22356" lon="6.53856">
        <ele>228.7</ele>
        <time>2016-05-18T13:05:48Z</time>
      </trkpt>
      <trkpt lat="43.22364" lon="6.53863">
        <ele>229.3</ele>
        <time>2016-05-18T13:05:58Z</time>
      </trkpt>
      <trkpt lat="43.22371" lon="6.53872">
        <ele>229.9</ele>
        <time>2016-05-18T13:06:08Z</time>
      </trkpt>
      <trkpt lat="43.22376" lon="6.53883">
        <ele>230.5</ele>
        <time>2016-05-18T13:06:19Z</time>
      </trkpt>
      <trkpt lat="43.2238" lon="6.53896">
        <ele>230.9</ele>
        <time>2016-05-18T13:06:29Z</time>
      </trkpt>
      <trkpt lat="43.22387" lon="6.53906">
        <ele>231</ele>
        <time>2016-05-18T13:06:38Z</time>
      </trkpt>
      <trkpt lat="43.22393" lon="6.53915">
        <ele>230.6</ele>
        <time>2016-05-18T13:06:47Z</time>
      </trkpt>
      <trkpt lat="43.224" lon="6.53923">
        <ele>229.9</ele>
        <time>2016-05-18T13:06:55Z</time>
      </trkpt>
      <trkpt lat="43.22408" lon="6.53931">
        <ele>229.1</ele>
        <time>2016-05-18T13:07:04Z</time>
      </trkpt>
      <trkpt lat="43.22415" lon="6.53939">
        <ele>228.4</ele>
        <time>2016-05-18T13:07:13Z</time>
      </trkpt>
      <trkpt lat="43.22421" lon="6.5395">
        <ele>227.6</ele>
        <time>2016-05-18T13:07:22Z</time>
      </trkpt>
      <trkpt lat="43.22427" lon="6.53959">
        <ele>226.7</ele>
        <time>2016-05-18T13:07:32Z</time>
      </trkpt>
      <trkpt lat="43.22433" lon="6.5397">
        <ele>225.8</ele>
        <time>2016-05-18T13:07:41Z</time>
      </trkpt>
      <trkpt lat="43.22438" lon="6.5398">
        <ele>225</ele>
        <time>2016-05-18T13:07:51Z</time>
      </trkpt>
      <trkpt lat="43.22445" lon="6.5399">
        <ele>224.3</ele>
        <time>2016-05-18T13:08:00Z</time>
      </trkpt>
      <trkpt lat="43.2245" lon="6.54001">
        <ele>223.1</ele>
        <time>2016-05-18T13:08:11Z</time>
      </trkpt>
      <trkpt lat="43.22455" lon="6.54012">
        <ele>222.1</ele>
        <time>2016-05-18T13:08:21Z</time>
      </trkpt>
      <trkpt lat="43.2246" lon="6.54023">
        <ele>221.2</ele>
        <time>2016-05-18T13:08:31Z</time>
      </trkpt>
      <trkpt lat="43.22465" lon="6.54035">
        <ele>220.2</ele>
        <time>2016-05-18T13:08:42Z</time>
      </trkpt>
      <trkpt lat="43.22471" lon="6.54045">
        <ele>219.3</ele>
        <time>2016-05-18T13:08:50Z</time>
      </trkpt>
      <trkpt lat="43.22481" lon="6.54045">
        <ele>218.2</ele>
        <time>2016-05-18T13:09:05Z</time>
      </trkpt>
      <trkpt lat="43.22487" lon="6.54054">
        <ele>217.5</ele>
        <time>2016-05-18T13:09:17Z</time>
      </trkpt>
      <trkpt lat="43.2249" lon="6.54067">
        <ele>216.7</ele>
        <time>2016-05-18T13:09:23Z</time>
      </trkpt>
      <trkpt lat="43.22492" lon="6.5408">
        <ele>214.5</ele>
        <time>2016-05-18T13:09:36Z</time>
      </trkpt>
      <trkpt lat="43.22494" lon="6.54097">
        <ele>212.4</ele>
        <time>2016-05-18T13:09:47Z</time>
      </trkpt>
      <trkpt lat="43.22498" lon="6.54109">
        <ele>210.9</ele>
        <time>2016-05-18T13:09:55Z</time>
      </trkpt>
      <trkpt lat="43.22501" lon="6.54121">
        <ele>209.3</ele>
        <time>2016-05-18T13:10:04Z</time>
      </trkpt>
      <trkpt lat="43.22506" lon="6.54133">
        <ele>208.1</ele>
        <time>2016-05-18T13:10:12Z</time>
      </trkpt>
      <trkpt lat="43.22511" lon="6.54143">
        <ele>206.9</ele>
        <time>2016-05-18T13:10:19Z</time>
      </trkpt>
      <trkpt lat="43.22518" lon="6.54153">
        <ele>205.7</ele>
        <time>2016-05-18T13:10:27Z</time>
      </trkpt>
      <trkpt lat="43.22525" lon="6.54163">
        <ele>204.4</ele>
        <time>2016-05-18T13:10:36Z</time>
      </trkpt>
      <trkpt lat="43.22532" lon="6.54171">
        <ele>203.2</ele>
        <time>2016-05-18T13:10:44Z</time>
      </trkpt>
      <trkpt lat="43.22537" lon="6.54183">
        <ele>201.5</ele>
        <time>2016-05-18T13:10:54Z</time>
      </trkpt>
      <trkpt lat="43.22544" lon="6.54188">
        <ele>196.9</ele>
        <time>2016-05-18T13:12:41Z</time>
      </trkpt>
      <trkpt lat="43.22551" lon="6.54205">
        <ele>195</ele>
        <time>2016-05-18T13:17:51Z</time>
      </trkpt>
      <trkpt lat="43.22552" lon="6.54219">
        <ele>194.7</ele>
        <time>2016-05-18T13:17:55Z</time>
      </trkpt>
      <trkpt lat="43.22552" lon="6.54232">
        <ele>193.8</ele>
        <time>2016-05-18T13:18:03Z</time>
      </trkpt>
      <trkpt lat="43.22552" lon="6.54246">
        <ele>191.9</ele>
        <time>2016-05-18T13:18:13Z</time>
      </trkpt>
      <trkpt lat="43.22548" lon="6.54257">
        <ele>190.1</ele>
        <time>2016-05-18T13:18:25Z</time>
      </trkpt>
      <trkpt lat="43.22546" lon="6.5427">
        <ele>189.2</ele>
        <time>2016-05-18T13:18:33Z</time>
      </trkpt>
      <trkpt lat="43.22546" lon="6.54284">
        <ele>188.6</ele>
        <time>2016-05-18T13:18:42Z</time>
      </trkpt>
      <trkpt lat="43.22548" lon="6.54297">
        <ele>188.3</ele>
        <time>2016-05-18T13:18:51Z</time>
      </trkpt>
      <trkpt lat="43.22552" lon="6.54308">
        <ele>188.1</ele>
        <time>2016-05-18T13:19:00Z</time>
      </trkpt>
      <trkpt lat="43.22558" lon="6.54318">
        <ele>187.7</ele>
        <time>2016-05-18T13:19:09Z</time>
      </trkpt>
      <trkpt lat="43.22564" lon="6.5433">
        <ele>187.1</ele>
        <time>2016-05-18T13:19:19Z</time>
      </trkpt>
      <trkpt lat="43.22567" lon="6.54342">
        <ele>186.3</ele>
        <time>2016-05-18T13:19:27Z</time>
      </trkpt>
      <trkpt lat="43.22571" lon="6.54353">
        <ele>185.3</ele>
        <time>2016-05-18T13:19:37Z</time>
      </trkpt>
      <trkpt lat="43.22578" lon="6.54363">
        <ele>184.3</ele>
        <time>2016-05-18T13:19:45Z</time>
      </trkpt>
      <trkpt lat="43.22587" lon="6.54366">
        <ele>182.7</ele>
        <time>2016-05-18T13:19:55Z</time>
      </trkpt>
      <trkpt lat="43.22596" lon="6.5437">
        <ele>181.2</ele>
        <time>2016-05-18T13:20:04Z</time>
      </trkpt>
      <trkpt lat="43.22606" lon="6.54373">
        <ele>179.6</ele>
        <time>2016-05-18T13:20:13Z</time>
      </trkpt>
      <trkpt lat="43.22615" lon="6.54377">
        <ele>178.1</ele>
        <time>2016-05-18T13:20:22Z</time>
      </trkpt>
      <trkpt lat="43.22621" lon="6.54386">
        <ele>176.4</ele>
        <time>2016-05-18T13:20:30Z</time>
      </trkpt>
      <trkpt lat="43.22626" lon="6.54398">
        <ele>174.1</ele>
        <time>2016-05-18T13:20:40Z</time>
      </trkpt>
      <trkpt lat="43.22631" lon="6.5441">
        <ele>172.3</ele>
        <time>2016-05-18T13:20:48Z</time>
      </trkpt>
      <trkpt lat="43.22633" lon="6.54424">
        <ele>170.6</ele>
        <time>2016-05-18T13:20:56Z</time>
      </trkpt>
      <trkpt lat="43.22635" lon="6.54437">
        <ele>169.4</ele>
        <time>2016-05-18T13:21:02Z</time>
      </trkpt>
      <trkpt lat="43.22636" lon="6.5445">
        <ele>168.5</ele>
        <time>2016-05-18T13:21:08Z</time>
      </trkpt>
      <trkpt lat="43.22636" lon="6.54462">
        <ele>167.4</ele>
        <time>2016-05-18T13:21:15Z</time>
      </trkpt>
      <trkpt lat="43.22635" lon="6.54476">
        <ele>165.2</ele>
        <time>2016-05-18T13:21:30Z</time>
      </trkpt>
      <trkpt lat="43.22631" lon="6.54488">
        <ele>164.1</ele>
        <time>2016-05-18T13:21:37Z</time>
      </trkpt>
      <trkpt lat="43.22626" lon="6.545">
        <ele>162.9</ele>
        <time>2016-05-18T13:21:45Z</time>
      </trkpt>
      <trkpt lat="43.22623" lon="6.54512">
        <ele>161.8</ele>
        <time>2016-05-18T13:21:53Z</time>
      </trkpt>
      <trkpt lat="43.2262" lon="6.54525">
        <ele>160.7</ele>
        <time>2016-05-18T13:22:01Z</time>
      </trkpt>
      <trkpt lat="43.22619" lon="6.54538">
        <ele>159.6</ele>
        <time>2016-05-18T13:22:09Z</time>
      </trkpt>
      <trkpt lat="43.22618" lon="6.54551">
        <ele>158.5</ele>
        <time>2016-05-18T13:22:19Z</time>
      </trkpt>
      <trkpt lat="43.22619" lon="6.54564">
        <ele>157.3</ele>
        <time>2016-05-18T13:22:28Z</time>
      </trkpt>
      <trkpt lat="43.22621" lon="6.54577">
        <ele>156.3</ele>
        <time>2016-05-18T13:22:36Z</time>
      </trkpt>
      <trkpt lat="43.22622" lon="6.5459">
        <ele>155.4</ele>
        <time>2016-05-18T13:22:45Z</time>
      </trkpt>
      <trkpt lat="43.22623" lon="6.54603">
        <ele>154.9</ele>
        <time>2016-05-18T13:22:53Z</time>
      </trkpt>
      <trkpt lat="43.22625" lon="6.54616">
        <ele>154.6</ele>
        <time>2016-05-18T13:23:01Z</time>
      </trkpt>
      <trkpt lat="43.22626" lon="6.54629">
        <ele>154.4</ele>
        <time>2016-05-18T13:23:10Z</time>
      </trkpt>
      <trkpt lat="43.22627" lon="6.54641">
        <ele>154.3</ele>
        <time>2016-05-18T13:23:20Z</time>
      </trkpt>
      <trkpt lat="43.22629" lon="6.54654">
        <ele>154.7</ele>
        <time>2016-05-18T13:23:29Z</time>
      </trkpt>
      <trkpt lat="43.22631" lon="6.54666">
        <ele>155.3</ele>
        <time>2016-05-18T13:23:38Z</time>
      </trkpt>
      <trkpt lat="43.22637" lon="6.54675">
        <ele>156.2</ele>
        <time>2016-05-18T13:24:49Z</time>
      </trkpt>
      <trkpt lat="43.22643" lon="6.54686">
        <ele>155.9</ele>
        <time>2016-05-18T13:25:02Z</time>
      </trkpt>
      <trkpt lat="43.2265" lon="6.54695">
        <ele>155.3</ele>
        <time>2016-05-18T13:25:10Z</time>
      </trkpt>
      <trkpt lat="43.22656" lon="6.54705">
        <ele>154.4</ele>
        <time>2016-05-18T13:25:19Z</time>
      </trkpt>
      <trkpt lat="43.22662" lon="6.54715">
        <ele>153.6</ele>
        <time>2016-05-18T13:25:28Z</time>
      </trkpt>
      <trkpt lat="43.22668" lon="6.54725">
        <ele>153</ele>
        <time>2016-05-18T13:25:37Z</time>
      </trkpt>
      <trkpt lat="43.22675" lon="6.54733">
        <ele>152.2</ele>
        <time>2016-05-18T13:25:46Z</time>
      </trkpt>
      <trkpt lat="43.22683" lon="6.54741">
        <ele>151.5</ele>
        <time>2016-05-18T13:25:55Z</time>
      </trkpt>
      <trkpt lat="43.22691" lon="6.54748">
        <ele>150.6</ele>
        <time>2016-05-18T13:26:04Z</time>
      </trkpt>
      <trkpt lat="43.22701" lon="6.54752">
        <ele>149.4</ele>
        <time>2016-05-18T13:26:14Z</time>
      </trkpt>
      <trkpt lat="43.22709" lon="6.54758">
        <ele>148.2</ele>
        <time>2016-05-18T13:26:24Z</time>
      </trkpt>
      <trkpt lat="43.22718" lon="6.54761">
        <ele>147.1</ele>
        <time>2016-05-18T13:26:33Z</time>
      </trkpt>
      <trkpt lat="43.22727" lon="6.54764">
        <ele>146.1</ele>
        <time>2016-05-18T13:26:43Z</time>
      </trkpt>
      <trkpt lat="43.22737" lon="6.54768">
        <ele>145.1</ele>
        <time>2016-05-18T13:26:53Z</time>
      </trkpt>
      <trkpt lat="43.22745" lon="6.54773">
        <ele>144.1</ele>
        <time>2016-05-18T13:27:03Z</time>
      </trkpt>
      <trkpt lat="43.22755" lon="6.54776">
        <ele>143.2</ele>
        <time>2016-05-18T13:27:13Z</time>
      </trkpt>
      <trkpt lat="43.22763" lon="6.54779">
        <ele>142.3</ele>
        <time>2016-05-18T13:27:22Z</time>
      </trkpt>
      <trkpt lat="43.22772" lon="6.54784">
        <ele>141.5</ele>
        <time>2016-05-18T13:27:31Z</time>
      </trkpt>
      <trkpt lat="43.22781" lon="6.54787">
        <ele>140.6</ele>
        <time>2016-05-18T13:27:40Z</time>
      </trkpt>
      <trkpt lat="43.22789" lon="6.54793">
        <ele>139.5</ele>
        <time>2016-05-18T13:27:52Z</time>
      </trkpt>
      <trkpt lat="43.22798" lon="6.54797">
        <ele>138.4</ele>
        <time>2016-05-18T13:28:02Z</time>
      </trkpt>
      <trkpt lat="43.22805" lon="6.54807">
        <ele>136.6</ele>
        <time>2016-05-18T13:28:14Z</time>
      </trkpt>
      <trkpt lat="43.22813" lon="6.54814">
        <ele>134.8</ele>
        <time>2016-05-18T13:28:25Z</time>
      </trkpt>
      <trkpt lat="43.22821" lon="6.54821">
        <ele>133.5</ele>
        <time>2016-05-18T13:28:34Z</time>
      </trkpt>
      <trkpt lat="43.2283" lon="6.54827">
        <ele>132.6</ele>
        <time>2016-05-18T13:28:43Z</time>
      </trkpt>
      <trkpt lat="43.22839" lon="6.54831">
        <ele>131.3</ele>
        <time>2016-05-18T13:28:52Z</time>
      </trkpt>
      <trkpt lat="43.22847" lon="6.54837">
        <ele>130.1</ele>
        <time>2016-05-18T13:29:01Z</time>
      </trkpt>
      <trkpt lat="43.22856" lon="6.54842">
        <ele>128.2</ele>
        <time>2016-05-18T13:29:12Z</time>
      </trkpt>
      <trkpt lat="43.22864" lon="6.5485">
        <ele>126.5</ele>
        <time>2016-05-18T13:29:22Z</time>
      </trkpt>
      <trkpt lat="43.22873" lon="6.54854">
        <ele>124.5</ele>
        <time>2016-05-18T13:29:33Z</time>
      </trkpt>
      <trkpt lat="43.22882" lon="6.54857">
        <ele>122.7</ele>
        <time>2016-05-18T13:29:42Z</time>
      </trkpt>
      <trkpt lat="43.22892" lon="6.54859">
        <ele>121.3</ele>
        <time>2016-05-18T13:29:50Z</time>
      </trkpt>
      <trkpt lat="43.22901" lon="6.54861">
        <ele>119.7</ele>
        <time>2016-05-18T13:30:00Z</time>
      </trkpt>
      <trkpt lat="43.22911" lon="6.54863">
        <ele>118.6</ele>
        <time>2016-05-18T13:30:09Z</time>
      </trkpt>
      <trkpt lat="43.2292" lon="6.54866">
        <ele>117.2</ele>
        <time>2016-05-18T13:30:18Z</time>
      </trkpt>
      <trkpt lat="43.2293" lon="6.54867">
        <ele>115.8</ele>
        <time>2016-05-18T13:30:27Z</time>
      </trkpt>
      <trkpt lat="43.22939" lon="6.54867">
        <ele>113.3</ele>
        <time>2016-05-18T13:30:45Z</time>
      </trkpt>
      <trkpt lat="43.22948" lon="6.54865">
        <ele>112.1</ele>
        <time>2016-05-18T13:30:55Z</time>
      </trkpt>
      <trkpt lat="43.22957" lon="6.54863">
        <ele>110.2</ele>
        <time>2016-05-18T13:31:08Z</time>
      </trkpt>
      <trkpt lat="43.22965" lon="6.54858">
        <ele>108.9</ele>
        <time>2016-05-18T13:31:17Z</time>
      </trkpt>
      <trkpt lat="43.22975" lon="6.54854">
        <ele>107.1</ele>
        <time>2016-05-18T13:31:27Z</time>
      </trkpt>
      <trkpt lat="43.22984" lon="6.54851">
        <ele>105</ele>
        <time>2016-05-18T13:31:38Z</time>
      </trkpt>
      <trkpt lat="43.22993" lon="6.54849">
        <ele>103.1</ele>
        <time>2016-05-18T13:31:48Z</time>
      </trkpt>
      <trkpt lat="43.23001" lon="6.54844">
        <ele>100.6</ele>
        <time>2016-05-18T13:32:01Z</time>
      </trkpt>
      <trkpt lat="43.23011" lon="6.54843">
        <ele>98.6</ele>
        <time>2016-05-18T13:32:11Z</time>
      </trkpt>
      <trkpt lat="43.23019" lon="6.54839">
        <ele>96.7</ele>
        <time>2016-05-18T13:32:21Z</time>
      </trkpt>
      <trkpt lat="43.23027" lon="6.54833">
        <ele>95.2</ele>
        <time>2016-05-18T13:32:30Z</time>
      </trkpt>
      <trkpt lat="43.23036" lon="6.54828">
        <ele>93.6</ele>
        <time>2016-05-18T13:32:39Z</time>
      </trkpt>
      <trkpt lat="43.23045" lon="6.54826">
        <ele>91.7</ele>
        <time>2016-05-18T13:32:50Z</time>
      </trkpt>
      <trkpt lat="43.23054" lon="6.54825">
        <ele>90</ele>
        <time>2016-05-18T13:33:00Z</time>
      </trkpt>
      <trkpt lat="43.23063" lon="6.54825">
        <ele>88.7</ele>
        <time>2016-05-18T13:33:09Z</time>
      </trkpt>
      <trkpt lat="43.23073" lon="6.54826">
        <ele>86.7</ele>
        <time>2016-05-18T13:33:22Z</time>
      </trkpt>
      <trkpt lat="43.23082" lon="6.54825">
        <ele>85.2</ele>
        <time>2016-05-18T13:33:31Z</time>
      </trkpt>
      <trkpt lat="43.23091" lon="6.5482">
        <ele>83.3</ele>
        <time>2016-05-18T13:33:42Z</time>
      </trkpt>
      <trkpt lat="43.231" lon="6.54817">
        <ele>80.9</ele>
        <time>2016-05-18T13:34:08Z</time>
      </trkpt>
      <trkpt lat="43.2311" lon="6.54817">
        <ele>79.7</ele>
        <time>2016-05-18T13:34:19Z</time>
      </trkpt>
      <trkpt lat="43.23119" lon="6.54821">
        <ele>78.7</ele>
        <time>2016-05-18T13:34:30Z</time>
      </trkpt>
      <trkpt lat="43.23125" lon="6.54831">
        <ele>77.6</ele>
        <time>2016-05-18T13:34:41Z</time>
      </trkpt>
      <trkpt lat="43.23132" lon="6.54839">
        <ele>76.3</ele>
        <time>2016-05-18T13:34:51Z</time>
      </trkpt>
      <trkpt lat="43.23141" lon="6.54848">
        <ele>73.6</ele>
        <time>2016-05-18T13:38:08Z</time>
      </trkpt>
      <trkpt lat="43.23149" lon="6.54842">
        <ele>73.6</ele>
        <time>2016-05-18T13:38:17Z</time>
      </trkpt>
      <trkpt lat="43.23158" lon="6.54839">
        <ele>73.5</ele>
        <time>2016-05-18T13:38:27Z</time>
      </trkpt>
      <trkpt lat="43.23166" lon="6.54833">
        <ele>73.3</ele>
        <time>2016-05-18T13:38:36Z</time>
      </trkpt>
      <trkpt lat="43.23174" lon="6.54826">
        <ele>73</ele>
        <time>2016-05-18T13:38:45Z</time>
      </trkpt>
      <trkpt lat="43.23182" lon="6.54821">
        <ele>72.4</ele>
        <time>2016-05-18T13:38:57Z</time>
      </trkpt>
      <trkpt lat="43.2319" lon="6.54813">
        <ele>71.9</ele>
        <time>2016-05-18T13:39:04Z</time>
      </trkpt>
      <trkpt lat="43.23198" lon="6.54804">
        <ele>71.5</ele>
        <time>2016-05-18T13:39:13Z</time>
      </trkpt>
      <trkpt lat="43.23202" lon="6.54792">
        <ele>70.9</ele>
        <time>2016-05-18T13:39:23Z</time>
      </trkpt>
      <trkpt lat="43.232" lon="6.5478">
        <ele>70.7</ele>
        <time>2016-05-18T13:39:32Z</time>
      </trkpt>
      <trkpt lat="43.23195" lon="6.54769">
        <ele>70.1</ele>
        <time>2016-05-18T13:39:43Z</time>
      </trkpt>
      <trkpt lat="43.23189" lon="6.54759">
        <ele>69.4</ele>
        <time>2016-05-18T13:39:52Z</time>
      </trkpt>
      <trkpt lat="43.23183" lon="6.5475">
        <ele>68.9</ele>
        <time>2016-05-18T13:39:59Z</time>
      </trkpt>
      <trkpt lat="43.23177" lon="6.54741">
        <ele>68.1</ele>
        <time>2016-05-18T13:40:09Z</time>
      </trkpt>
      <trkpt lat="43.23168" lon="6.54735">
        <ele>67.5</ele>
        <time>2016-05-18T13:40:18Z</time>
      </trkpt>
      <trkpt lat="43.2316" lon="6.54738">
        <ele>66.8</ele>
        <time>2016-05-18T13:40:29Z</time>
      </trkpt>
      <trkpt lat="43.23149" lon="6.54741">
        <ele>66.4</ele>
        <time>2016-05-18T13:40:38Z</time>
      </trkpt>
      <trkpt lat="43.2314" lon="6.54737">
        <ele>65.8</ele>
        <time>2016-05-18T13:40:46Z</time>
      </trkpt>
      <trkpt lat="43.23135" lon="6.54727">
        <ele>65.1</ele>
        <time>2016-05-18T13:40:55Z</time>
      </trkpt>
      <trkpt lat="43.23137" lon="6.54714">
        <ele>64.1</ele>
        <time>2016-05-18T13:41:04Z</time>
      </trkpt>
      <trkpt lat="43.23142" lon="6.54704">
        <ele>63.2</ele>
        <time>2016-05-18T13:41:11Z</time>
      </trkpt>
      <trkpt lat="43.23149" lon="6.54695">
        <ele>61.9</ele>
        <time>2016-05-18T13:41:20Z</time>
      </trkpt>
      <trkpt lat="43.23156" lon="6.54686">
        <ele>60.6</ele>
        <time>2016-05-18T13:41:29Z</time>
      </trkpt>
      <trkpt lat="43.23162" lon="6.54675">
        <ele>59</ele>
        <time>2016-05-18T13:41:39Z</time>
      </trkpt>
      <trkpt lat="43.23169" lon="6.54668">
        <ele>57.5</ele>
        <time>2016-05-18T13:41:49Z</time>
      </trkpt>
      <trkpt lat="43.23177" lon="6.5466">
        <ele>56.4</ele>
        <time>2016-05-18T13:41:58Z</time>
      </trkpt>
      <trkpt lat="43.23184" lon="6.54652">
        <ele>55.3</ele>
        <time>2016-05-18T13:42:07Z</time>
      </trkpt>
      <trkpt lat="43.23191" lon="6.54645">
        <ele>54.4</ele>
        <time>2016-05-18T13:42:15Z</time>
      </trkpt>
      <trkpt lat="43.232" lon="6.54639">
        <ele>53.5</ele>
        <time>2016-05-18T13:42:23Z</time>
      </trkpt>
      <trkpt lat="43.23209" lon="6.54636">
        <ele>52.3</ele>
        <time>2016-05-18T13:42:32Z</time>
      </trkpt>
      <trkpt lat="43.2322" lon="6.54636">
        <ele>50.8</ele>
        <time>2016-05-18T13:42:41Z</time>
      </trkpt>
      <trkpt lat="43.2323" lon="6.54637">
        <ele>49.6</ele>
        <time>2016-05-18T13:42:50Z</time>
      </trkpt>
      <trkpt lat="43.23239" lon="6.54635">
        <ele>48.3</ele>
        <time>2016-05-18T13:42:59Z</time>
      </trkpt>
      <trkpt lat="43.23249" lon="6.54633">
        <ele>47.1</ele>
        <time>2016-05-18T13:43:07Z</time>
      </trkpt>
      <trkpt lat="43.23258" lon="6.54632">
        <ele>46.1</ele>
        <time>2016-05-18T13:43:15Z</time>
      </trkpt>
      <trkpt lat="43.23267" lon="6.54628">
        <ele>44.8</ele>
        <time>2016-05-18T13:43:24Z</time>
      </trkpt>
      <trkpt lat="43.23275" lon="6.5462">
        <ele>43.6</ele>
        <time>2016-05-18T13:43:33Z</time>
      </trkpt>
      <trkpt lat="43.23282" lon="6.54611">
        <ele>42.7</ele>
        <time>2016-05-18T13:43:41Z</time>
      </trkpt>
      <trkpt lat="43.23288" lon="6.54602">
        <ele>41.4</ele>
        <time>2016-05-18T13:43:50Z</time>
      </trkpt>
      <trkpt lat="43.23293" lon="6.54591">
        <ele>40.6</ele>
        <time>2016-05-18T13:44:00Z</time>
      </trkpt>
      <trkpt lat="43.23299" lon="6.54581">
        <ele>39.9</ele>
        <time>2016-05-18T13:44:08Z</time>
      </trkpt>
      <trkpt lat="43.23305" lon="6.5457">
        <ele>39.3</ele>
        <time>2016-05-18T13:44:16Z</time>
      </trkpt>
      <trkpt lat="43.23312" lon="6.54563">
        <ele>38.3</ele>
        <time>2016-05-18T13:44:31Z</time>
      </trkpt>
      <trkpt lat="43.23316" lon="6.54552">
        <ele>37.6</ele>
        <time>2016-05-18T13:44:41Z</time>
      </trkpt>
      <trkpt lat="43.23325" lon="6.5455">
        <ele>37.1</ele>
        <time>2016-05-18T13:44:56Z</time>
      </trkpt>
      <trkpt lat="43.23329" lon="6.54539">
        <ele>36.6</ele>
        <time>2016-05-18T13:45:03Z</time>
      </trkpt>
      <trkpt lat="43.23339" lon="6.54539">
        <ele>36.1</ele>
        <time>2016-05-18T13:45:10Z</time>
      </trkpt>
      <trkpt lat="43.23342" lon="6.54552">
        <ele>35.8</ele>
        <time>2016-05-18T13:45:15Z</time>
      </trkpt>
      <trkpt lat="43.23351" lon="6.5455">
        <ele>35.3</ele>
        <time>2016-05-18T13:45:25Z</time>
      </trkpt>
      <trkpt lat="43.2336" lon="6.54559">
        <ele>35</ele>
        <time>2016-05-18T13:45:34Z</time>
      </trkpt>
      <trkpt lat="43.23365" lon="6.5457">
        <ele>34.9</ele>
        <time>2016-05-18T13:45:38Z</time>
      </trkpt>
      <trkpt lat="43.23374" lon="6.54572">
        <ele>34.7</ele>
        <time>2016-05-18T13:45:48Z</time>
      </trkpt>
      <trkpt lat="43.23379" lon="6.54562">
        <ele>34.6</ele>
        <time>2016-05-18T13:45:52Z</time>
      </trkpt>
      <trkpt lat="43.23388" lon="6.54559">
        <ele>34.5</ele>
        <time>2016-05-18T13:45:59Z</time>
      </trkpt>
      <trkpt lat="43.23394" lon="6.54548">
        <ele>34.5</ele>
        <time>2016-05-18T13:46:04Z</time>
      </trkpt>
      <trkpt lat="43.23402" lon="6.54542">
        <ele>34.5</ele>
        <time>2016-05-18T13:46:11Z</time>
      </trkpt>
      <trkpt lat="43.23411" lon="6.54537">
        <ele>34.5</ele>
        <time>2016-05-18T13:46:18Z</time>
      </trkpt>
      <trkpt lat="43.2342" lon="6.54535">
        <ele>34.7</ele>
        <time>2016-05-18T13:46:26Z</time>
      </trkpt>
      <trkpt lat="43.23429" lon="6.54529">
        <ele>35</ele>
        <time>2016-05-18T13:46:36Z</time>
      </trkpt>
      <trkpt lat="43.23437" lon="6.54524">
        <ele>35.5</ele>
        <time>2016-05-18T13:46:45Z</time>
      </trkpt>
      <trkpt lat="43.23445" lon="6.54517">
        <ele>35.7</ele>
        <time>2016-05-18T13:46:52Z</time>
      </trkpt>
      <trkpt lat="43.23455" lon="6.54512">
        <ele>35.8</ele>
        <time>2016-05-18T13:46:57Z</time>
      </trkpt>
      <trkpt lat="43.23461" lon="6.54499">
        <ele>35.8</ele>
        <time>2016-05-18T13:47:01Z</time>
      </trkpt>
      <trkpt lat="43.23468" lon="6.54487">
        <ele>35.9</ele>
        <time>2016-05-18T13:47:05Z</time>
      </trkpt>
      <trkpt lat="43.23476" lon="6.54478">
        <ele>35.9</ele>
        <time>2016-05-18T13:47:09Z</time>
      </trkpt>
      <trkpt lat="43.23484" lon="6.54473">
        <ele>36</ele>
        <time>2016-05-18T13:47:15Z</time>
      </trkpt>
      <trkpt lat="43.23494" lon="6.54468">
        <ele>36.1</ele>
        <time>2016-05-18T13:47:23Z</time>
      </trkpt>
      <trkpt lat="43.23502" lon="6.5446">
        <ele>36</ele>
        <time>2016-05-18T13:47:31Z</time>
      </trkpt>
      <trkpt lat="43.23511" lon="6.54456">
        <ele>35.7</ele>
        <time>2016-05-18T13:47:38Z</time>
      </trkpt>
      <trkpt lat="43.23519" lon="6.54452">
        <ele>35.3</ele>
        <time>2016-05-18T13:47:46Z</time>
      </trkpt>
      <trkpt lat="43.23527" lon="6.54445">
        <ele>34.7</ele>
        <time>2016-05-18T13:47:55Z</time>
      </trkpt>
      <trkpt lat="43.23534" lon="6.54437">
        <ele>33.8</ele>
        <time>2016-05-18T13:48:06Z</time>
      </trkpt>
      <trkpt lat="43.23541" lon="6.54429">
        <ele>33</ele>
        <time>2016-05-18T13:48:13Z</time>
      </trkpt>
      <trkpt lat="43.23548" lon="6.54421">
        <ele>32.4</ele>
        <time>2016-05-18T13:48:20Z</time>
      </trkpt>
      <trkpt lat="43.23555" lon="6.54413">
        <ele>31.8</ele>
        <time>2016-05-18T13:48:29Z</time>
      </trkpt>
      <trkpt lat="43.23562" lon="6.54403">
        <ele>31.3</ele>
        <time>2016-05-18T13:48:37Z</time>
      </trkpt>
      <trkpt lat="43.23568" lon="6.54393">
        <ele>30.8</ele>
        <time>2016-05-18T13:48:46Z</time>
      </trkpt>
      <trkpt lat="43.23574" lon="6.54383">
        <ele>30.5</ele>
        <time>2016-05-18T13:48:54Z</time>
      </trkpt>
      <trkpt lat="43.2358" lon="6.54372">
        <ele>30</ele>
        <time>2016-05-18T13:49:02Z</time>
      </trkpt>
      <trkpt lat="43.23586" lon="6.54363">
        <ele>29.3</ele>
        <time>2016-05-18T13:49:10Z</time>
      </trkpt>
      <trkpt lat="43.23593" lon="6.54353">
        <ele>28.2</ele>
        <time>2016-05-18T13:49:20Z</time>
      </trkpt>
      <trkpt lat="43.23599" lon="6.54342">
        <ele>27.5</ele>
        <time>2016-05-18T13:49:28Z</time>
      </trkpt>
      <trkpt lat="43.23606" lon="6.54333">
        <ele>26.4</ele>
        <time>2016-05-18T13:49:37Z</time>
      </trkpt>
      <trkpt lat="43.23612" lon="6.54323">
        <ele>25.3</ele>
        <time>2016-05-18T13:49:46Z</time>
      </trkpt>
      <trkpt lat="43.23619" lon="6.54313">
        <ele>24.3</ele>
        <time>2016-05-18T13:49:54Z</time>
      </trkpt>
      <trkpt lat="43.23624" lon="6.54302">
        <ele>23.1</ele>
        <time>2016-05-18T13:50:03Z</time>
      </trkpt>
      <trkpt lat="43.2363" lon="6.54292">
        <ele>22.4</ele>
        <time>2016-05-18T13:50:12Z</time>
      </trkpt>
      <trkpt lat="43.23638" lon="6.54285">
        <ele>22</ele>
        <time>2016-05-18T13:50:20Z</time>
      </trkpt>
      <trkpt lat="43.23645" lon="6.54276">
        <ele>21.5</ele>
        <time>2016-05-18T13:50:29Z</time>
      </trkpt>
      <trkpt lat="43.23653" lon="6.54268">
        <ele>20.7</ele>
        <time>2016-05-18T13:50:37Z</time>
      </trkpt>
      <trkpt lat="43.2366" lon="6.54259">
        <ele>20.1</ele>
        <time>2016-05-18T13:50:45Z</time>
      </trkpt>
      <trkpt lat="43.23667" lon="6.54251">
        <ele>19.6</ele>
        <time>2016-05-18T13:50:54Z</time>
      </trkpt>
      <trkpt lat="43.23676" lon="6.54243">
        <ele>18.9</ele>
        <time>2016-05-18T13:51:04Z</time>
      </trkpt>
      <trkpt lat="43.23684" lon="6.54237">
        <ele>18.5</ele>
        <time>2016-05-18T13:51:11Z</time>
      </trkpt>
      <trkpt lat="43.23692" lon="6.54229">
        <ele>18</ele>
        <time>2016-05-18T13:51:19Z</time>
      </trkpt>
      <trkpt lat="43.237" lon="6.54223">
        <ele>17.5</ele>
        <time>2016-05-18T13:51:27Z</time>
      </trkpt>
      <trkpt lat="43.23708" lon="6.54215">
        <ele>16.8</ele>
        <time>2016-05-18T13:51:38Z</time>
      </trkpt>
      <trkpt lat="43.23711" lon="6.54213">
        <ele>16.1</ele>
        <time>2016-05-18T13:51:54Z</time>
      </trkpt>
    </trkseg>
  </trk>
</gpx>